<?xml version="1.0" encoding="UTF-8" standalone="no" ?>
<gpx xmlns="http://www.topografix.com/GPX/1/1" xmlns:xsi="http://www.w3.org/2001/XMLSchema-instance" xsi:schemaLocation="http://www.topografix.com/GPX/1/1 http://www.topografix.com/GPX/1/1/gpx.xsd" version="1.1" creator="VisuGPX - https://www.visugpx.com">
  <metadata>
    <name>jacob aiguebelette</name>
    <desc><![CDATA[jacob aiguebelette pour desscente]]></desc>
  </metadata>
  <trk>
    <name><![CDATA[JACOBAIGUEBELETTE]]></name>
    <trkseg>
      <trkpt lat="45.55367" lon="5.91502">
        <ele>384.66</ele>
        <time>2011-09-11T08:01:45Z</time>
      </trkpt>
      <trkpt lat="45.55361" lon="5.91513">
        <ele>388.03</ele>
        <time>2011-09-11T08:01:59Z</time>
      </trkpt>
      <trkpt lat="45.55363" lon="5.91509">
        <ele>391.87</ele>
        <time>2011-09-11T08:02:04Z</time>
      </trkpt>
      <trkpt lat="45.55364" lon="5.91507">
        <ele>395.24</ele>
        <time>2011-09-11T08:02:10Z</time>
      </trkpt>
      <trkpt lat="45.55364" lon="5.91506">
        <ele>396.2</ele>
        <time>2011-09-11T08:02:12Z</time>
      </trkpt>
      <trkpt lat="45.55364" lon="5.91502">
        <ele>397.64</ele>
        <time>2011-09-11T08:02:15Z</time>
      </trkpt>
      <trkpt lat="45.55359" lon="5.91501">
        <ele>398.12</ele>
        <time>2011-09-11T08:02:18Z</time>
      </trkpt>
      <trkpt lat="45.55338" lon="5.91507">
        <ele>402.45</ele>
        <time>2011-09-11T08:02:30Z</time>
      </trkpt>
      <trkpt lat="45.5531" lon="5.91488">
        <ele>403.89</ele>
        <time>2011-09-11T08:02:44Z</time>
      </trkpt>
      <trkpt lat="45.55321" lon="5.91468">
        <ele>401.49</ele>
        <time>2011-09-11T08:02:50Z</time>
      </trkpt>
      <trkpt lat="45.55329" lon="5.91456">
        <ele>400.53</ele>
        <time>2011-09-11T08:02:52Z</time>
      </trkpt>
      <trkpt lat="45.5534" lon="5.9145">
        <ele>400.53</ele>
        <time>2011-09-11T08:02:53Z</time>
      </trkpt>
      <trkpt lat="45.55348" lon="5.91441">
        <ele>399.08</ele>
        <time>2011-09-11T08:02:55Z</time>
      </trkpt>
      <trkpt lat="45.5535" lon="5.91437">
        <ele>398.6</ele>
        <time>2011-09-11T08:02:56Z</time>
      </trkpt>
      <trkpt lat="45.5535" lon="5.91433">
        <ele>398.6</ele>
        <time>2011-09-11T08:02:57Z</time>
      </trkpt>
      <trkpt lat="45.5535" lon="5.91431">
        <ele>398.6</ele>
        <time>2011-09-11T08:02:58Z</time>
      </trkpt>
      <trkpt lat="45.55349" lon="5.91429">
        <ele>398.12</ele>
        <time>2011-09-11T08:02:59Z</time>
      </trkpt>
      <trkpt lat="45.55349" lon="5.91428">
        <ele>398.12</ele>
        <time>2011-09-11T08:03:00Z</time>
      </trkpt>
      <trkpt lat="45.55349" lon="5.91426">
        <ele>397.64</ele>
        <time>2011-09-11T08:03:01Z</time>
      </trkpt>
      <trkpt lat="45.5535" lon="5.91424">
        <ele>398.12</ele>
        <time>2011-09-11T08:03:02Z</time>
      </trkpt>
      <trkpt lat="45.55352" lon="5.91423">
        <ele>397.64</ele>
        <time>2011-09-11T08:03:03Z</time>
      </trkpt>
      <trkpt lat="45.55354" lon="5.91423">
        <ele>397.64</ele>
        <time>2011-09-11T08:03:04Z</time>
      </trkpt>
      <trkpt lat="45.55356" lon="5.91424">
        <ele>397.16</ele>
        <time>2011-09-11T08:03:05Z</time>
      </trkpt>
      <trkpt lat="45.55358" lon="5.91427">
        <ele>396.68</ele>
        <time>2011-09-11T08:03:06Z</time>
      </trkpt>
      <trkpt lat="45.5536" lon="5.91431">
        <ele>397.16</ele>
        <time>2011-09-11T08:03:07Z</time>
      </trkpt>
      <trkpt lat="45.55361" lon="5.91436">
        <ele>397.16</ele>
        <time>2011-09-11T08:03:08Z</time>
      </trkpt>
      <trkpt lat="45.5537" lon="5.9145">
        <ele>397.16</ele>
        <time>2011-09-11T08:03:12Z</time>
      </trkpt>
      <trkpt lat="45.55373" lon="5.91449">
        <ele>397.16</ele>
        <time>2011-09-11T08:03:13Z</time>
      </trkpt>
      <trkpt lat="45.55376" lon="5.91448">
        <ele>397.16</ele>
        <time>2011-09-11T08:03:14Z</time>
      </trkpt>
      <trkpt lat="45.55418" lon="5.91452">
        <ele>396.68</ele>
        <time>2011-09-11T08:03:25Z</time>
      </trkpt>
      <trkpt lat="45.55423" lon="5.91451">
        <ele>396.2</ele>
        <time>2011-09-11T08:03:26Z</time>
      </trkpt>
      <trkpt lat="45.55429" lon="5.91449">
        <ele>395.72</ele>
        <time>2011-09-11T08:03:27Z</time>
      </trkpt>
      <trkpt lat="45.55434" lon="5.91445">
        <ele>394.76</ele>
        <time>2011-09-11T08:03:28Z</time>
      </trkpt>
      <trkpt lat="45.55439" lon="5.91441">
        <ele>394.28</ele>
        <time>2011-09-11T08:03:29Z</time>
      </trkpt>
      <trkpt lat="45.55459" lon="5.91419">
        <ele>392.36</ele>
        <time>2011-09-11T08:03:33Z</time>
      </trkpt>
      <trkpt lat="45.55476" lon="5.9139">
        <ele>389.47</ele>
        <time>2011-09-11T08:03:37Z</time>
      </trkpt>
      <trkpt lat="45.55483" lon="5.91375">
        <ele>387.07</ele>
        <time>2011-09-11T08:03:39Z</time>
      </trkpt>
      <trkpt lat="45.55485" lon="5.91367">
        <ele>387.07</ele>
        <time>2011-09-11T08:03:40Z</time>
      </trkpt>
      <trkpt lat="45.55488" lon="5.91353">
        <ele>386.11</ele>
        <time>2011-09-11T08:03:42Z</time>
      </trkpt>
      <trkpt lat="45.55488" lon="5.91346">
        <ele>385.15</ele>
        <time>2011-09-11T08:03:43Z</time>
      </trkpt>
      <trkpt lat="45.55488" lon="5.9134">
        <ele>385.15</ele>
        <time>2011-09-11T08:03:44Z</time>
      </trkpt>
      <trkpt lat="45.55487" lon="5.91333">
        <ele>383.7</ele>
        <time>2011-09-11T08:03:45Z</time>
      </trkpt>
      <trkpt lat="45.55486" lon="5.91326">
        <ele>383.22</ele>
        <time>2011-09-11T08:03:46Z</time>
      </trkpt>
      <trkpt lat="45.55486" lon="5.91318">
        <ele>382.74</ele>
        <time>2011-09-11T08:03:47Z</time>
      </trkpt>
      <trkpt lat="45.55484" lon="5.9131">
        <ele>382.74</ele>
        <time>2011-09-11T08:03:48Z</time>
      </trkpt>
      <trkpt lat="45.55483" lon="5.91301">
        <ele>381.78</ele>
        <time>2011-09-11T08:03:49Z</time>
      </trkpt>
      <trkpt lat="45.5548" lon="5.91292">
        <ele>381.78</ele>
        <time>2011-09-11T08:03:50Z</time>
      </trkpt>
      <trkpt lat="45.55477" lon="5.91282">
        <ele>380.82</ele>
        <time>2011-09-11T08:03:51Z</time>
      </trkpt>
      <trkpt lat="45.55473" lon="5.91273">
        <ele>380.82</ele>
        <time>2011-09-11T08:03:52Z</time>
      </trkpt>
      <trkpt lat="45.55468" lon="5.91265">
        <ele>379.38</ele>
        <time>2011-09-11T08:03:53Z</time>
      </trkpt>
      <trkpt lat="45.55462" lon="5.91256">
        <ele>379.38</ele>
        <time>2011-09-11T08:03:54Z</time>
      </trkpt>
      <trkpt lat="45.55454" lon="5.91249">
        <ele>378.42</ele>
        <time>2011-09-11T08:03:55Z</time>
      </trkpt>
      <trkpt lat="45.55447" lon="5.91241">
        <ele>377.45</ele>
        <time>2011-09-11T08:03:56Z</time>
      </trkpt>
      <trkpt lat="45.55434" lon="5.91226">
        <ele>375.53</ele>
        <time>2011-09-11T08:03:58Z</time>
      </trkpt>
      <trkpt lat="45.55429" lon="5.91218">
        <ele>375.05</ele>
        <time>2011-09-11T08:03:59Z</time>
      </trkpt>
      <trkpt lat="45.55427" lon="5.91208">
        <ele>375.05</ele>
        <time>2011-09-11T08:04:00Z</time>
      </trkpt>
      <trkpt lat="45.55428" lon="5.91199">
        <ele>374.09</ele>
        <time>2011-09-11T08:04:01Z</time>
      </trkpt>
      <trkpt lat="45.55431" lon="5.91192">
        <ele>373.13</ele>
        <time>2011-09-11T08:04:02Z</time>
      </trkpt>
      <trkpt lat="45.55435" lon="5.91187">
        <ele>373.13</ele>
        <time>2011-09-11T08:04:03Z</time>
      </trkpt>
      <trkpt lat="45.55439" lon="5.91183">
        <ele>372.17</ele>
        <time>2011-09-11T08:04:04Z</time>
      </trkpt>
      <trkpt lat="45.55443" lon="5.91178">
        <ele>372.65</ele>
        <time>2011-09-11T08:04:05Z</time>
      </trkpt>
      <trkpt lat="45.55444" lon="5.91172">
        <ele>372.17</ele>
        <time>2011-09-11T08:04:06Z</time>
      </trkpt>
      <trkpt lat="45.55444" lon="5.91164">
        <ele>372.17</ele>
        <time>2011-09-11T08:04:07Z</time>
      </trkpt>
      <trkpt lat="45.55441" lon="5.91158">
        <ele>371.69</ele>
        <time>2011-09-11T08:04:08Z</time>
      </trkpt>
      <trkpt lat="45.55437" lon="5.91153">
        <ele>371.69</ele>
        <time>2011-09-11T08:04:09Z</time>
      </trkpt>
      <trkpt lat="45.55434" lon="5.91148">
        <ele>371.21</ele>
        <time>2011-09-11T08:04:10Z</time>
      </trkpt>
      <trkpt lat="45.55422" lon="5.91132">
        <ele>369.76</ele>
        <time>2011-09-11T08:04:13Z</time>
      </trkpt>
      <trkpt lat="45.55413" lon="5.91124">
        <ele>369.76</ele>
        <time>2011-09-11T08:04:15Z</time>
      </trkpt>
      <trkpt lat="45.55408" lon="5.91121">
        <ele>370.24</ele>
        <time>2011-09-11T08:04:16Z</time>
      </trkpt>
      <trkpt lat="45.55403" lon="5.91119">
        <ele>370.24</ele>
        <time>2011-09-11T08:04:17Z</time>
      </trkpt>
      <trkpt lat="45.55398" lon="5.91118">
        <ele>370.73</ele>
        <time>2011-09-11T08:04:18Z</time>
      </trkpt>
      <trkpt lat="45.55393" lon="5.91117">
        <ele>370.73</ele>
        <time>2011-09-11T08:04:19Z</time>
      </trkpt>
      <trkpt lat="45.55387" lon="5.91119">
        <ele>370.73</ele>
        <time>2011-09-11T08:04:20Z</time>
      </trkpt>
      <trkpt lat="45.55382" lon="5.9112">
        <ele>370.73</ele>
        <time>2011-09-11T08:04:21Z</time>
      </trkpt>
      <trkpt lat="45.55377" lon="5.91122">
        <ele>370.73</ele>
        <time>2011-09-11T08:04:22Z</time>
      </trkpt>
      <trkpt lat="45.55372" lon="5.91124">
        <ele>370.73</ele>
        <time>2011-09-11T08:04:23Z</time>
      </trkpt>
      <trkpt lat="45.55361" lon="5.91128">
        <ele>370.24</ele>
        <time>2011-09-11T08:04:26Z</time>
      </trkpt>
      <trkpt lat="45.5536" lon="5.91126">
        <ele>370.24</ele>
        <time>2011-09-11T08:04:27Z</time>
      </trkpt>
      <trkpt lat="45.5536" lon="5.91123">
        <ele>369.76</ele>
        <time>2011-09-11T08:04:29Z</time>
      </trkpt>
      <trkpt lat="45.55371" lon="5.91121">
        <ele>369.28</ele>
        <time>2011-09-11T08:04:40Z</time>
      </trkpt>
      <trkpt lat="45.55378" lon="5.91123">
        <ele>368.8</ele>
        <time>2011-09-11T08:04:47Z</time>
      </trkpt>
      <trkpt lat="45.55412" lon="5.91127">
        <ele>364.96</ele>
        <time>2011-09-11T08:04:57Z</time>
      </trkpt>
      <trkpt lat="45.55415" lon="5.91129">
        <ele>364.48</ele>
        <time>2011-09-11T08:04:58Z</time>
      </trkpt>
      <trkpt lat="45.55418" lon="5.91128">
        <ele>364</ele>
        <time>2011-09-11T08:04:59Z</time>
      </trkpt>
      <trkpt lat="45.55421" lon="5.91127">
        <ele>363.52</ele>
        <time>2011-09-11T08:05:00Z</time>
      </trkpt>
      <trkpt lat="45.55424" lon="5.91125">
        <ele>362.55</ele>
        <time>2011-09-11T08:05:01Z</time>
      </trkpt>
      <trkpt lat="45.55427" lon="5.91123">
        <ele>362.07</ele>
        <time>2011-09-11T08:05:02Z</time>
      </trkpt>
      <trkpt lat="45.55436" lon="5.9111">
        <ele>358.71</ele>
        <time>2011-09-11T08:05:06Z</time>
      </trkpt>
      <trkpt lat="45.55441" lon="5.91092">
        <ele>357.27</ele>
        <time>2011-09-11T08:05:11Z</time>
      </trkpt>
      <trkpt lat="45.55444" lon="5.9108">
        <ele>355.83</ele>
        <time>2011-09-11T08:05:13Z</time>
      </trkpt>
      <trkpt lat="45.55445" lon="5.91067">
        <ele>354.38</ele>
        <time>2011-09-11T08:05:16Z</time>
      </trkpt>
      <trkpt lat="45.55445" lon="5.91066">
        <ele>353.9</ele>
        <time>2011-09-11T08:05:29Z</time>
      </trkpt>
      <trkpt lat="45.55443" lon="5.91064">
        <ele>352.46</ele>
        <time>2011-09-11T08:05:33Z</time>
      </trkpt>
      <trkpt lat="45.55442" lon="5.91065">
        <ele>351.5</ele>
        <time>2011-09-11T08:05:34Z</time>
      </trkpt>
      <trkpt lat="45.55441" lon="5.91066">
        <ele>351.5</ele>
        <time>2011-09-11T08:05:35Z</time>
      </trkpt>
      <trkpt lat="45.55437" lon="5.91071">
        <ele>348.62</ele>
        <time>2011-09-11T08:05:51Z</time>
      </trkpt>
      <trkpt lat="45.55435" lon="5.91072">
        <ele>347.65</ele>
        <time>2011-09-11T08:05:52Z</time>
      </trkpt>
      <trkpt lat="45.55433" lon="5.91073">
        <ele>347.65</ele>
        <time>2011-09-11T08:05:53Z</time>
      </trkpt>
      <trkpt lat="45.55433" lon="5.91068">
        <ele>347.17</ele>
        <time>2011-09-11T08:06:06Z</time>
      </trkpt>
      <trkpt lat="45.55429" lon="5.91053">
        <ele>343.81</ele>
        <time>2011-09-11T08:06:11Z</time>
      </trkpt>
      <trkpt lat="45.55422" lon="5.91041">
        <ele>340.44</ele>
        <time>2011-09-11T08:06:15Z</time>
      </trkpt>
      <trkpt lat="45.55415" lon="5.91032">
        <ele>337.08</ele>
        <time>2011-09-11T08:06:19Z</time>
      </trkpt>
      <trkpt lat="45.55413" lon="5.91027">
        <ele>336.12</ele>
        <time>2011-09-11T08:06:21Z</time>
      </trkpt>
      <trkpt lat="45.55407" lon="5.91014">
        <ele>333.23</ele>
        <time>2011-09-11T08:06:26Z</time>
      </trkpt>
      <trkpt lat="45.55405" lon="5.91008">
        <ele>332.27</ele>
        <time>2011-09-11T08:06:29Z</time>
      </trkpt>
      <trkpt lat="45.55405" lon="5.9099">
        <ele>328.91</ele>
        <time>2011-09-11T08:06:40Z</time>
      </trkpt>
      <trkpt lat="45.55393" lon="5.90973">
        <ele>325.54</ele>
        <time>2011-09-11T08:06:49Z</time>
      </trkpt>
      <trkpt lat="45.55386" lon="5.9096">
        <ele>323.62</ele>
        <time>2011-09-11T08:06:52Z</time>
      </trkpt>
      <trkpt lat="45.55362" lon="5.90907">
        <ele>320.74</ele>
        <time>2011-09-11T08:07:02Z</time>
      </trkpt>
      <trkpt lat="45.5536" lon="5.90901">
        <ele>320.74</ele>
        <time>2011-09-11T08:07:03Z</time>
      </trkpt>
      <trkpt lat="45.55361" lon="5.90822">
        <ele>317.85</ele>
        <time>2011-09-11T08:07:19Z</time>
      </trkpt>
      <trkpt lat="45.55352" lon="5.9079">
        <ele>316.89</ele>
        <time>2011-09-11T08:07:32Z</time>
      </trkpt>
      <trkpt lat="45.55362" lon="5.90724">
        <ele>314.97</ele>
        <time>2011-09-11T08:07:46Z</time>
      </trkpt>
      <trkpt lat="45.5543" lon="5.9059">
        <ele>313.05</ele>
        <time>2011-09-11T08:08:01Z</time>
      </trkpt>
      <trkpt lat="45.55433" lon="5.90579">
        <ele>312.57</ele>
        <time>2011-09-11T08:08:02Z</time>
      </trkpt>
      <trkpt lat="45.55436" lon="5.90568">
        <ele>312.57</ele>
        <time>2011-09-11T08:08:03Z</time>
      </trkpt>
      <trkpt lat="45.55446" lon="5.90545">
        <ele>311.6</ele>
        <time>2011-09-11T08:08:06Z</time>
      </trkpt>
      <trkpt lat="45.55462" lon="5.90517">
        <ele>311.6</ele>
        <time>2011-09-11T08:08:10Z</time>
      </trkpt>
      <trkpt lat="45.55473" lon="5.90496">
        <ele>310.64</ele>
        <time>2011-09-11T08:08:13Z</time>
      </trkpt>
      <trkpt lat="45.55477" lon="5.90492">
        <ele>310.64</ele>
        <time>2011-09-11T08:08:14Z</time>
      </trkpt>
      <trkpt lat="45.55481" lon="5.90488">
        <ele>310.64</ele>
        <time>2011-09-11T08:08:15Z</time>
      </trkpt>
      <trkpt lat="45.55486" lon="5.90486">
        <ele>311.12</ele>
        <time>2011-09-11T08:08:16Z</time>
      </trkpt>
      <trkpt lat="45.55491" lon="5.90484">
        <ele>311.12</ele>
        <time>2011-09-11T08:08:17Z</time>
      </trkpt>
      <trkpt lat="45.55508" lon="5.90478">
        <ele>312.09</ele>
        <time>2011-09-11T08:08:25Z</time>
      </trkpt>
      <trkpt lat="45.5551" lon="5.90474">
        <ele>312.09</ele>
        <time>2011-09-11T08:08:30Z</time>
      </trkpt>
      <trkpt lat="45.55512" lon="5.90475">
        <ele>312.57</ele>
        <time>2011-09-11T08:08:32Z</time>
      </trkpt>
      <trkpt lat="45.55522" lon="5.90475">
        <ele>313.53</ele>
        <time>2011-09-11T08:08:47Z</time>
      </trkpt>
      <trkpt lat="45.55523" lon="5.90474">
        <ele>313.53</ele>
        <time>2011-09-11T08:09:01Z</time>
      </trkpt>
      <trkpt lat="45.55524" lon="5.90475">
        <ele>313.53</ele>
        <time>2011-09-11T08:09:02Z</time>
      </trkpt>
      <trkpt lat="45.55526" lon="5.90477">
        <ele>313.53</ele>
        <time>2011-09-11T08:09:03Z</time>
      </trkpt>
      <trkpt lat="45.55528" lon="5.90481">
        <ele>314.01</ele>
        <time>2011-09-11T08:09:04Z</time>
      </trkpt>
      <trkpt lat="45.5553" lon="5.90484">
        <ele>313.53</ele>
        <time>2011-09-11T08:09:05Z</time>
      </trkpt>
      <trkpt lat="45.55533" lon="5.90486">
        <ele>313.53</ele>
        <time>2011-09-11T08:09:06Z</time>
      </trkpt>
      <trkpt lat="45.55535" lon="5.90488">
        <ele>314.01</ele>
        <time>2011-09-11T08:09:07Z</time>
      </trkpt>
      <trkpt lat="45.55537" lon="5.9049">
        <ele>313.53</ele>
        <time>2011-09-11T08:09:08Z</time>
      </trkpt>
      <trkpt lat="45.55539" lon="5.90491">
        <ele>314.49</ele>
        <time>2011-09-11T08:09:09Z</time>
      </trkpt>
      <trkpt lat="45.55564" lon="5.90511">
        <ele>316.41</ele>
        <time>2011-09-11T08:09:22Z</time>
      </trkpt>
      <trkpt lat="45.5559" lon="5.90543">
        <ele>317.85</ele>
        <time>2011-09-11T08:09:34Z</time>
      </trkpt>
      <trkpt lat="45.55626" lon="5.90579">
        <ele>318.33</ele>
        <time>2011-09-11T08:09:47Z</time>
      </trkpt>
      <trkpt lat="45.55682" lon="5.90622">
        <ele>318.81</ele>
        <time>2011-09-11T08:10:02Z</time>
      </trkpt>
      <trkpt lat="45.55686" lon="5.90625">
        <ele>319.3</ele>
        <time>2011-09-11T08:10:03Z</time>
      </trkpt>
      <trkpt lat="45.55714" lon="5.90643">
        <ele>317.85</ele>
        <time>2011-09-11T08:10:09Z</time>
      </trkpt>
      <trkpt lat="45.55719" lon="5.90644">
        <ele>317.37</ele>
        <time>2011-09-11T08:10:10Z</time>
      </trkpt>
      <trkpt lat="45.55724" lon="5.90642">
        <ele>316.89</ele>
        <time>2011-09-11T08:10:11Z</time>
      </trkpt>
      <trkpt lat="45.55726" lon="5.90638">
        <ele>316.89</ele>
        <time>2011-09-11T08:10:12Z</time>
      </trkpt>
      <trkpt lat="45.55728" lon="5.90632">
        <ele>317.37</ele>
        <time>2011-09-11T08:10:13Z</time>
      </trkpt>
      <trkpt lat="45.55728" lon="5.90625">
        <ele>316.89</ele>
        <time>2011-09-11T08:10:14Z</time>
      </trkpt>
      <trkpt lat="45.55727" lon="5.90619">
        <ele>316.89</ele>
        <time>2011-09-11T08:10:15Z</time>
      </trkpt>
      <trkpt lat="45.55724" lon="5.90613">
        <ele>316.89</ele>
        <time>2011-09-11T08:10:16Z</time>
      </trkpt>
      <trkpt lat="45.5572" lon="5.90609">
        <ele>316.41</ele>
        <time>2011-09-11T08:10:17Z</time>
      </trkpt>
      <trkpt lat="45.55715" lon="5.90605">
        <ele>316.41</ele>
        <time>2011-09-11T08:10:18Z</time>
      </trkpt>
      <trkpt lat="45.5571" lon="5.90601">
        <ele>316.41</ele>
        <time>2011-09-11T08:10:19Z</time>
      </trkpt>
      <trkpt lat="45.55706" lon="5.90596">
        <ele>315.93</ele>
        <time>2011-09-11T08:10:20Z</time>
      </trkpt>
      <trkpt lat="45.55702" lon="5.90591">
        <ele>315.93</ele>
        <time>2011-09-11T08:10:21Z</time>
      </trkpt>
      <trkpt lat="45.55698" lon="5.90586">
        <ele>316.41</ele>
        <time>2011-09-11T08:10:22Z</time>
      </trkpt>
      <trkpt lat="45.55696" lon="5.9058">
        <ele>315.45</ele>
        <time>2011-09-11T08:10:23Z</time>
      </trkpt>
      <trkpt lat="45.55695" lon="5.90575">
        <ele>315.45</ele>
        <time>2011-09-11T08:10:24Z</time>
      </trkpt>
      <trkpt lat="45.55694" lon="5.9057">
        <ele>315.93</ele>
        <time>2011-09-11T08:10:25Z</time>
      </trkpt>
      <trkpt lat="45.55689" lon="5.90544">
        <ele>314.49</ele>
        <time>2011-09-11T08:10:31Z</time>
      </trkpt>
      <trkpt lat="45.5569" lon="5.90541">
        <ele>314.49</ele>
        <time>2011-09-11T08:10:32Z</time>
      </trkpt>
      <trkpt lat="45.55693" lon="5.90534">
        <ele>314.01</ele>
        <time>2011-09-11T08:10:34Z</time>
      </trkpt>
      <trkpt lat="45.55693" lon="5.9053">
        <ele>313.53</ele>
        <time>2011-09-11T08:10:35Z</time>
      </trkpt>
      <trkpt lat="45.55692" lon="5.90524">
        <ele>313.05</ele>
        <time>2011-09-11T08:10:36Z</time>
      </trkpt>
      <trkpt lat="45.55691" lon="5.90507">
        <ele>313.05</ele>
        <time>2011-09-11T08:10:39Z</time>
      </trkpt>
      <trkpt lat="45.55705" lon="5.90462">
        <ele>312.09</ele>
        <time>2011-09-11T08:10:49Z</time>
      </trkpt>
      <trkpt lat="45.55711" lon="5.90448">
        <ele>311.6</ele>
        <time>2011-09-11T08:10:52Z</time>
      </trkpt>
      <trkpt lat="45.5571" lon="5.9041">
        <ele>311.12</ele>
        <time>2011-09-11T08:11:00Z</time>
      </trkpt>
      <trkpt lat="45.55699" lon="5.90394">
        <ele>312.09</ele>
        <time>2011-09-11T08:11:04Z</time>
      </trkpt>
      <trkpt lat="45.55696" lon="5.90389">
        <ele>311.6</ele>
        <time>2011-09-11T08:11:05Z</time>
      </trkpt>
      <trkpt lat="45.55693" lon="5.90385">
        <ele>312.09</ele>
        <time>2011-09-11T08:11:06Z</time>
      </trkpt>
      <trkpt lat="45.55691" lon="5.9038">
        <ele>311.6</ele>
        <time>2011-09-11T08:11:07Z</time>
      </trkpt>
      <trkpt lat="45.55689" lon="5.90375">
        <ele>311.6</ele>
        <time>2011-09-11T08:11:08Z</time>
      </trkpt>
      <trkpt lat="45.55689" lon="5.9037">
        <ele>311.6</ele>
        <time>2011-09-11T08:11:09Z</time>
      </trkpt>
      <trkpt lat="45.5569" lon="5.90366">
        <ele>311.12</ele>
        <time>2011-09-11T08:11:10Z</time>
      </trkpt>
      <trkpt lat="45.55692" lon="5.90363">
        <ele>311.6</ele>
        <time>2011-09-11T08:11:11Z</time>
      </trkpt>
      <trkpt lat="45.55695" lon="5.90361">
        <ele>311.12</ele>
        <time>2011-09-11T08:11:12Z</time>
      </trkpt>
      <trkpt lat="45.55698" lon="5.9036">
        <ele>311.12</ele>
        <time>2011-09-11T08:11:13Z</time>
      </trkpt>
      <trkpt lat="45.55701" lon="5.90361">
        <ele>311.12</ele>
        <time>2011-09-11T08:11:14Z</time>
      </trkpt>
      <trkpt lat="45.55704" lon="5.90362">
        <ele>311.12</ele>
        <time>2011-09-11T08:11:15Z</time>
      </trkpt>
      <trkpt lat="45.55708" lon="5.90365">
        <ele>311.12</ele>
        <time>2011-09-11T08:11:16Z</time>
      </trkpt>
      <trkpt lat="45.55711" lon="5.90368">
        <ele>311.12</ele>
        <time>2011-09-11T08:11:17Z</time>
      </trkpt>
      <trkpt lat="45.5576" lon="5.90383">
        <ele>308.72</ele>
        <time>2011-09-11T08:11:29Z</time>
      </trkpt>
      <trkpt lat="45.55783" lon="5.90352">
        <ele>307.76</ele>
        <time>2011-09-11T08:11:40Z</time>
      </trkpt>
      <trkpt lat="45.55825" lon="5.90284">
        <ele>305.84</ele>
        <time>2011-09-11T08:11:53Z</time>
      </trkpt>
      <trkpt lat="45.55845" lon="5.90257">
        <ele>305.84</ele>
        <time>2011-09-11T08:11:57Z</time>
      </trkpt>
      <trkpt lat="45.5585" lon="5.90251">
        <ele>305.84</ele>
        <time>2011-09-11T08:11:58Z</time>
      </trkpt>
      <trkpt lat="45.55859" lon="5.9024">
        <ele>305.36</ele>
        <time>2011-09-11T08:12:00Z</time>
      </trkpt>
      <trkpt lat="45.55863" lon="5.90235">
        <ele>305.36</ele>
        <time>2011-09-11T08:12:01Z</time>
      </trkpt>
      <trkpt lat="45.55868" lon="5.90231">
        <ele>305.36</ele>
        <time>2011-09-11T08:12:02Z</time>
      </trkpt>
      <trkpt lat="45.55873" lon="5.90226">
        <ele>304.88</ele>
        <time>2011-09-11T08:12:03Z</time>
      </trkpt>
      <trkpt lat="45.55878" lon="5.90222">
        <ele>304.88</ele>
        <time>2011-09-11T08:12:04Z</time>
      </trkpt>
      <trkpt lat="45.55932" lon="5.90166">
        <ele>302.47</ele>
        <time>2011-09-11T08:12:16Z</time>
      </trkpt>
      <trkpt lat="45.55936" lon="5.9016">
        <ele>301.99</ele>
        <time>2011-09-11T08:12:17Z</time>
      </trkpt>
      <trkpt lat="45.55954" lon="5.90131">
        <ele>299.59</ele>
        <time>2011-09-11T08:12:22Z</time>
      </trkpt>
      <trkpt lat="45.55958" lon="5.90126">
        <ele>299.11</ele>
        <time>2011-09-11T08:12:23Z</time>
      </trkpt>
      <trkpt lat="45.55962" lon="5.90121">
        <ele>299.11</ele>
        <time>2011-09-11T08:12:24Z</time>
      </trkpt>
      <trkpt lat="45.55967" lon="5.90117">
        <ele>299.11</ele>
        <time>2011-09-11T08:12:25Z</time>
      </trkpt>
      <trkpt lat="45.55972" lon="5.90113">
        <ele>298.15</ele>
        <time>2011-09-11T08:12:26Z</time>
      </trkpt>
      <trkpt lat="45.55977" lon="5.9011">
        <ele>297.18</ele>
        <time>2011-09-11T08:12:27Z</time>
      </trkpt>
      <trkpt lat="45.55995" lon="5.90102">
        <ele>293.82</ele>
        <time>2011-09-11T08:12:30Z</time>
      </trkpt>
      <trkpt lat="45.56001" lon="5.901">
        <ele>293.82</ele>
        <time>2011-09-11T08:12:31Z</time>
      </trkpt>
      <trkpt lat="45.56008" lon="5.90099">
        <ele>293.82</ele>
        <time>2011-09-11T08:12:32Z</time>
      </trkpt>
      <trkpt lat="45.56039" lon="5.90105">
        <ele>294.3</ele>
        <time>2011-09-11T08:12:37Z</time>
      </trkpt>
      <trkpt lat="45.56044" lon="5.90107">
        <ele>294.3</ele>
        <time>2011-09-11T08:12:38Z</time>
      </trkpt>
      <trkpt lat="45.5605" lon="5.90108">
        <ele>294.3</ele>
        <time>2011-09-11T08:12:39Z</time>
      </trkpt>
      <trkpt lat="45.56081" lon="5.90113">
        <ele>294.3</ele>
        <time>2011-09-11T08:12:45Z</time>
      </trkpt>
      <trkpt lat="45.56126" lon="5.90136">
        <ele>294.3</ele>
        <time>2011-09-11T08:12:54Z</time>
      </trkpt>
      <trkpt lat="45.5613" lon="5.9014">
        <ele>294.3</ele>
        <time>2011-09-11T08:12:55Z</time>
      </trkpt>
      <trkpt lat="45.56143" lon="5.90151">
        <ele>294.78</ele>
        <time>2011-09-11T08:12:59Z</time>
      </trkpt>
      <trkpt lat="45.56174" lon="5.90132">
        <ele>294.3</ele>
        <time>2011-09-11T08:13:09Z</time>
      </trkpt>
      <trkpt lat="45.56196" lon="5.90113">
        <ele>294.3</ele>
        <time>2011-09-11T08:13:15Z</time>
      </trkpt>
      <trkpt lat="45.56191" lon="5.9007">
        <ele>295.26</ele>
        <time>2011-09-11T08:13:25Z</time>
      </trkpt>
      <trkpt lat="45.56171" lon="5.90022">
        <ele>293.34</ele>
        <time>2011-09-11T08:13:35Z</time>
      </trkpt>
      <trkpt lat="45.56167" lon="5.90011">
        <ele>292.38</ele>
        <time>2011-09-11T08:13:37Z</time>
      </trkpt>
      <trkpt lat="45.56164" lon="5.90005">
        <ele>292.86</ele>
        <time>2011-09-11T08:13:38Z</time>
      </trkpt>
      <trkpt lat="45.5616" lon="5.90002">
        <ele>292.86</ele>
        <time>2011-09-11T08:13:39Z</time>
      </trkpt>
      <trkpt lat="45.56155" lon="5.9">
        <ele>292.86</ele>
        <time>2011-09-11T08:13:40Z</time>
      </trkpt>
      <trkpt lat="45.5615" lon="5.89998">
        <ele>292.86</ele>
        <time>2011-09-11T08:13:41Z</time>
      </trkpt>
      <trkpt lat="45.56146" lon="5.89997">
        <ele>292.86</ele>
        <time>2011-09-11T08:13:42Z</time>
      </trkpt>
      <trkpt lat="45.56141" lon="5.89997">
        <ele>292.38</ele>
        <time>2011-09-11T08:13:43Z</time>
      </trkpt>
      <trkpt lat="45.56136" lon="5.89998">
        <ele>292.86</ele>
        <time>2011-09-11T08:13:44Z</time>
      </trkpt>
      <trkpt lat="45.56087" lon="5.89987">
        <ele>293.82</ele>
        <time>2011-09-11T08:13:57Z</time>
      </trkpt>
      <trkpt lat="45.56047" lon="5.89899">
        <ele>296.22</ele>
        <time>2011-09-11T08:14:16Z</time>
      </trkpt>
      <trkpt lat="45.5602" lon="5.89845">
        <ele>298.63</ele>
        <time>2011-09-11T08:14:32Z</time>
      </trkpt>
      <trkpt lat="45.55968" lon="5.8982">
        <ele>298.63</ele>
        <time>2011-09-11T08:14:47Z</time>
      </trkpt>
      <trkpt lat="45.5591" lon="5.89792">
        <ele>299.59</ele>
        <time>2011-09-11T08:15:02Z</time>
      </trkpt>
      <trkpt lat="45.55862" lon="5.89736">
        <ele>301.51</ele>
        <time>2011-09-11T08:15:19Z</time>
      </trkpt>
      <trkpt lat="45.55891" lon="5.89695">
        <ele>303.43</ele>
        <time>2011-09-11T08:15:30Z</time>
      </trkpt>
      <trkpt lat="45.55926" lon="5.89658">
        <ele>302.47</ele>
        <time>2011-09-11T08:15:41Z</time>
      </trkpt>
      <trkpt lat="45.55931" lon="5.89656">
        <ele>302.95</ele>
        <time>2011-09-11T08:15:42Z</time>
      </trkpt>
      <trkpt lat="45.55941" lon="5.89648">
        <ele>302.95</ele>
        <time>2011-09-11T08:15:44Z</time>
      </trkpt>
      <trkpt lat="45.55945" lon="5.8964">
        <ele>302.95</ele>
        <time>2011-09-11T08:15:45Z</time>
      </trkpt>
      <trkpt lat="45.55947" lon="5.89632">
        <ele>302.95</ele>
        <time>2011-09-11T08:15:46Z</time>
      </trkpt>
      <trkpt lat="45.55948" lon="5.89624">
        <ele>303.43</ele>
        <time>2011-09-11T08:15:47Z</time>
      </trkpt>
      <trkpt lat="45.55948" lon="5.89617">
        <ele>303.43</ele>
        <time>2011-09-11T08:15:48Z</time>
      </trkpt>
      <trkpt lat="45.55946" lon="5.8961">
        <ele>303.43</ele>
        <time>2011-09-11T08:15:49Z</time>
      </trkpt>
      <trkpt lat="45.55942" lon="5.89604">
        <ele>303.43</ele>
        <time>2011-09-11T08:15:50Z</time>
      </trkpt>
      <trkpt lat="45.55938" lon="5.89598">
        <ele>303.91</ele>
        <time>2011-09-11T08:15:51Z</time>
      </trkpt>
      <trkpt lat="45.55934" lon="5.89593">
        <ele>303.91</ele>
        <time>2011-09-11T08:15:52Z</time>
      </trkpt>
      <trkpt lat="45.5593" lon="5.89587">
        <ele>303.91</ele>
        <time>2011-09-11T08:15:53Z</time>
      </trkpt>
      <trkpt lat="45.55928" lon="5.8958">
        <ele>303.91</ele>
        <time>2011-09-11T08:15:54Z</time>
      </trkpt>
      <trkpt lat="45.55926" lon="5.89573">
        <ele>303.91</ele>
        <time>2011-09-11T08:15:55Z</time>
      </trkpt>
      <trkpt lat="45.55925" lon="5.89566">
        <ele>303.91</ele>
        <time>2011-09-11T08:15:56Z</time>
      </trkpt>
      <trkpt lat="45.55924" lon="5.89559">
        <ele>304.39</ele>
        <time>2011-09-11T08:15:57Z</time>
      </trkpt>
      <trkpt lat="45.55921" lon="5.89553">
        <ele>304.39</ele>
        <time>2011-09-11T08:15:58Z</time>
      </trkpt>
      <trkpt lat="45.55919" lon="5.89547">
        <ele>304.39</ele>
        <time>2011-09-11T08:15:59Z</time>
      </trkpt>
      <trkpt lat="45.55916" lon="5.89542">
        <ele>304.39</ele>
        <time>2011-09-11T08:16:00Z</time>
      </trkpt>
      <trkpt lat="45.55912" lon="5.89537">
        <ele>304.88</ele>
        <time>2011-09-11T08:16:01Z</time>
      </trkpt>
      <trkpt lat="45.55908" lon="5.89533">
        <ele>304.88</ele>
        <time>2011-09-11T08:16:02Z</time>
      </trkpt>
      <trkpt lat="45.55905" lon="5.8953">
        <ele>304.88</ele>
        <time>2011-09-11T08:16:03Z</time>
      </trkpt>
      <trkpt lat="45.55901" lon="5.89526">
        <ele>304.88</ele>
        <time>2011-09-11T08:16:04Z</time>
      </trkpt>
      <trkpt lat="45.55898" lon="5.89522">
        <ele>305.36</ele>
        <time>2011-09-11T08:16:05Z</time>
      </trkpt>
      <trkpt lat="45.55877" lon="5.89498">
        <ele>305.36</ele>
        <time>2011-09-11T08:16:11Z</time>
      </trkpt>
      <trkpt lat="45.55862" lon="5.89476">
        <ele>305.84</ele>
        <time>2011-09-11T08:16:16Z</time>
      </trkpt>
      <trkpt lat="45.55859" lon="5.89471">
        <ele>305.36</ele>
        <time>2011-09-11T08:16:17Z</time>
      </trkpt>
      <trkpt lat="45.55854" lon="5.89459">
        <ele>305.84</ele>
        <time>2011-09-11T08:16:19Z</time>
      </trkpt>
      <trkpt lat="45.55838" lon="5.89357">
        <ele>305.36</ele>
        <time>2011-09-11T08:16:36Z</time>
      </trkpt>
      <trkpt lat="45.55839" lon="5.89351">
        <ele>305.84</ele>
        <time>2011-09-11T08:16:37Z</time>
      </trkpt>
      <trkpt lat="45.5584" lon="5.89288">
        <ele>306.32</ele>
        <time>2011-09-11T08:16:48Z</time>
      </trkpt>
      <trkpt lat="45.55833" lon="5.89229">
        <ele>306.32</ele>
        <time>2011-09-11T08:16:58Z</time>
      </trkpt>
      <trkpt lat="45.55833" lon="5.89211">
        <ele>306.32</ele>
        <time>2011-09-11T08:17:01Z</time>
      </trkpt>
      <trkpt lat="45.55827" lon="5.89105">
        <ele>306.8</ele>
        <time>2011-09-11T08:17:18Z</time>
      </trkpt>
      <trkpt lat="45.558" lon="5.89044">
        <ele>307.76</ele>
        <time>2011-09-11T08:17:31Z</time>
      </trkpt>
      <trkpt lat="45.5577" lon="5.88986">
        <ele>309.68</ele>
        <time>2011-09-11T08:17:45Z</time>
      </trkpt>
      <trkpt lat="45.55737" lon="5.88906">
        <ele>310.64</ele>
        <time>2011-09-11T08:18:03Z</time>
      </trkpt>
      <trkpt lat="45.55729" lon="5.88896">
        <ele>311.12</ele>
        <time>2011-09-11T08:18:16Z</time>
      </trkpt>
      <trkpt lat="45.55729" lon="5.88894">
        <ele>311.12</ele>
        <time>2011-09-11T08:18:29Z</time>
      </trkpt>
      <trkpt lat="45.55716" lon="5.88857">
        <ele>311.12</ele>
        <time>2011-09-11T08:18:40Z</time>
      </trkpt>
      <trkpt lat="45.55678" lon="5.88801">
        <ele>312.57</ele>
        <time>2011-09-11T08:18:55Z</time>
      </trkpt>
      <trkpt lat="45.55668" lon="5.88791">
        <ele>311.6</ele>
        <time>2011-09-11T08:18:58Z</time>
      </trkpt>
      <trkpt lat="45.55647" lon="5.88732">
        <ele>313.05</ele>
        <time>2011-09-11T08:19:11Z</time>
      </trkpt>
      <trkpt lat="45.5564" lon="5.88723">
        <ele>313.53</ele>
        <time>2011-09-11T08:19:24Z</time>
      </trkpt>
      <trkpt lat="45.5564" lon="5.88723">
        <ele>313.53</ele>
        <time>2011-09-11T08:19:46Z</time>
      </trkpt>
      <trkpt lat="45.5564" lon="5.88723">
        <ele>313.53</ele>
        <time>2011-09-11T08:20:15Z</time>
      </trkpt>
      <trkpt lat="45.5564" lon="5.88721">
        <ele>313.05</ele>
        <time>2011-09-11T08:20:39Z</time>
      </trkpt>
      <trkpt lat="45.55641" lon="5.88719">
        <ele>313.53</ele>
        <time>2011-09-11T08:20:40Z</time>
      </trkpt>
      <trkpt lat="45.55641" lon="5.88717">
        <ele>313.05</ele>
        <time>2011-09-11T08:20:41Z</time>
      </trkpt>
      <trkpt lat="45.55626" lon="5.8868">
        <ele>314.49</ele>
        <time>2011-09-11T08:20:55Z</time>
      </trkpt>
      <trkpt lat="45.55604" lon="5.88658">
        <ele>315.93</ele>
        <time>2011-09-11T08:21:08Z</time>
      </trkpt>
      <trkpt lat="45.55595" lon="5.88638">
        <ele>318.81</ele>
        <time>2011-09-11T08:21:18Z</time>
      </trkpt>
      <trkpt lat="45.55591" lon="5.88625">
        <ele>319.78</ele>
        <time>2011-09-11T08:21:26Z</time>
      </trkpt>
      <trkpt lat="45.55583" lon="5.88608">
        <ele>322.66</ele>
        <time>2011-09-11T08:21:37Z</time>
      </trkpt>
      <trkpt lat="45.55582" lon="5.88607">
        <ele>322.66</ele>
        <time>2011-09-11T08:21:38Z</time>
      </trkpt>
      <trkpt lat="45.55574" lon="5.88589">
        <ele>326.02</ele>
        <time>2011-09-11T08:21:51Z</time>
      </trkpt>
      <trkpt lat="45.55574" lon="5.88587">
        <ele>326.5</ele>
        <time>2011-09-11T08:21:52Z</time>
      </trkpt>
      <trkpt lat="45.55573" lon="5.88585">
        <ele>326.5</ele>
        <time>2011-09-11T08:21:53Z</time>
      </trkpt>
      <trkpt lat="45.55573" lon="5.88583">
        <ele>326.99</ele>
        <time>2011-09-11T08:21:54Z</time>
      </trkpt>
      <trkpt lat="45.55573" lon="5.88582">
        <ele>326.99</ele>
        <time>2011-09-11T08:21:55Z</time>
      </trkpt>
      <trkpt lat="45.55572" lon="5.8858">
        <ele>327.47</ele>
        <time>2011-09-11T08:21:56Z</time>
      </trkpt>
      <trkpt lat="45.55571" lon="5.88579">
        <ele>327.47</ele>
        <time>2011-09-11T08:21:57Z</time>
      </trkpt>
      <trkpt lat="45.5556" lon="5.8856">
        <ele>330.35</ele>
        <time>2011-09-11T08:22:12Z</time>
      </trkpt>
      <trkpt lat="45.55556" lon="5.88556">
        <ele>331.31</ele>
        <time>2011-09-11T08:22:16Z</time>
      </trkpt>
      <trkpt lat="45.55555" lon="5.88555">
        <ele>331.79</ele>
        <time>2011-09-11T08:22:17Z</time>
      </trkpt>
      <trkpt lat="45.55545" lon="5.88535">
        <ele>335.16</ele>
        <time>2011-09-11T08:22:30Z</time>
      </trkpt>
      <trkpt lat="45.55537" lon="5.88518">
        <ele>338.04</ele>
        <time>2011-09-11T08:22:41Z</time>
      </trkpt>
      <trkpt lat="45.55528" lon="5.88503">
        <ele>341.41</ele>
        <time>2011-09-11T08:22:52Z</time>
      </trkpt>
      <trkpt lat="45.55526" lon="5.88491">
        <ele>342.85</ele>
        <time>2011-09-11T08:22:59Z</time>
      </trkpt>
      <trkpt lat="45.55526" lon="5.88489">
        <ele>343.33</ele>
        <time>2011-09-11T08:23:00Z</time>
      </trkpt>
      <trkpt lat="45.55524" lon="5.88476">
        <ele>345.25</ele>
        <time>2011-09-11T08:23:08Z</time>
      </trkpt>
      <trkpt lat="45.55525" lon="5.88474">
        <ele>345.25</ele>
        <time>2011-09-11T08:23:09Z</time>
      </trkpt>
      <trkpt lat="45.55526" lon="5.88472">
        <ele>345.25</ele>
        <time>2011-09-11T08:23:10Z</time>
      </trkpt>
      <trkpt lat="45.55526" lon="5.88471">
        <ele>345.25</ele>
        <time>2011-09-11T08:23:11Z</time>
      </trkpt>
      <trkpt lat="45.55525" lon="5.88469">
        <ele>345.73</ele>
        <time>2011-09-11T08:23:12Z</time>
      </trkpt>
      <trkpt lat="45.55525" lon="5.88468">
        <ele>345.73</ele>
        <time>2011-09-11T08:23:13Z</time>
      </trkpt>
      <trkpt lat="45.55524" lon="5.88467">
        <ele>346.21</ele>
        <time>2011-09-11T08:23:14Z</time>
      </trkpt>
      <trkpt lat="45.55524" lon="5.88466">
        <ele>346.21</ele>
        <time>2011-09-11T08:23:15Z</time>
      </trkpt>
      <trkpt lat="45.55524" lon="5.88464">
        <ele>346.69</ele>
        <time>2011-09-11T08:23:16Z</time>
      </trkpt>
      <trkpt lat="45.55523" lon="5.88462">
        <ele>346.69</ele>
        <time>2011-09-11T08:23:17Z</time>
      </trkpt>
      <trkpt lat="45.55523" lon="5.8846">
        <ele>346.69</ele>
        <time>2011-09-11T08:23:18Z</time>
      </trkpt>
      <trkpt lat="45.55524" lon="5.88459">
        <ele>347.17</ele>
        <time>2011-09-11T08:23:19Z</time>
      </trkpt>
      <trkpt lat="45.55524" lon="5.88457">
        <ele>347.17</ele>
        <time>2011-09-11T08:23:20Z</time>
      </trkpt>
      <trkpt lat="45.5552" lon="5.88441">
        <ele>350.54</ele>
        <time>2011-09-11T08:23:31Z</time>
      </trkpt>
      <trkpt lat="45.55518" lon="5.8844">
        <ele>350.54</ele>
        <time>2011-09-11T08:23:32Z</time>
      </trkpt>
      <trkpt lat="45.55518" lon="5.88438">
        <ele>350.54</ele>
        <time>2011-09-11T08:23:33Z</time>
      </trkpt>
      <trkpt lat="45.55517" lon="5.88437">
        <ele>350.54</ele>
        <time>2011-09-11T08:23:34Z</time>
      </trkpt>
      <trkpt lat="45.55518" lon="5.88431">
        <ele>351.02</ele>
        <time>2011-09-11T08:23:50Z</time>
      </trkpt>
      <trkpt lat="45.55518" lon="5.8843">
        <ele>351.5</ele>
        <time>2011-09-11T08:24:22Z</time>
      </trkpt>
      <trkpt lat="45.55518" lon="5.8843">
        <ele>351.02</ele>
        <time>2011-09-11T08:24:57Z</time>
      </trkpt>
      <trkpt lat="45.5552" lon="5.88424">
        <ele>351.5</ele>
        <time>2011-09-11T08:25:29Z</time>
      </trkpt>
      <trkpt lat="45.5552" lon="5.88422">
        <ele>351.98</ele>
        <time>2011-09-11T08:25:30Z</time>
      </trkpt>
      <trkpt lat="45.55521" lon="5.88421">
        <ele>351.98</ele>
        <time>2011-09-11T08:25:31Z</time>
      </trkpt>
      <trkpt lat="45.55522" lon="5.88419">
        <ele>351.98</ele>
        <time>2011-09-11T08:25:32Z</time>
      </trkpt>
      <trkpt lat="45.55523" lon="5.88418">
        <ele>352.46</ele>
        <time>2011-09-11T08:25:33Z</time>
      </trkpt>
      <trkpt lat="45.55525" lon="5.88416">
        <ele>352.94</ele>
        <time>2011-09-11T08:25:34Z</time>
      </trkpt>
      <trkpt lat="45.55526" lon="5.88416">
        <ele>352.94</ele>
        <time>2011-09-11T08:25:35Z</time>
      </trkpt>
      <trkpt lat="45.55528" lon="5.88415">
        <ele>352.94</ele>
        <time>2011-09-11T08:25:36Z</time>
      </trkpt>
      <trkpt lat="45.5553" lon="5.88414">
        <ele>352.94</ele>
        <time>2011-09-11T08:25:37Z</time>
      </trkpt>
      <trkpt lat="45.55532" lon="5.88413">
        <ele>353.42</ele>
        <time>2011-09-11T08:25:38Z</time>
      </trkpt>
      <trkpt lat="45.55565" lon="5.88399">
        <ele>354.86</ele>
        <time>2011-09-11T08:25:56Z</time>
      </trkpt>
      <trkpt lat="45.55582" lon="5.88378">
        <ele>357.27</ele>
        <time>2011-09-11T08:26:11Z</time>
      </trkpt>
      <trkpt lat="45.5558" lon="5.88362">
        <ele>357.75</ele>
        <time>2011-09-11T08:26:21Z</time>
      </trkpt>
      <trkpt lat="45.55582" lon="5.88376">
        <ele>357.27</ele>
        <time>2011-09-11T08:26:33Z</time>
      </trkpt>
      <trkpt lat="45.55582" lon="5.88378">
        <ele>357.27</ele>
        <time>2011-09-11T08:26:45Z</time>
      </trkpt>
      <trkpt lat="45.55582" lon="5.88381">
        <ele>356.79</ele>
        <time>2011-09-11T08:26:46Z</time>
      </trkpt>
      <trkpt lat="45.55582" lon="5.88384">
        <ele>356.79</ele>
        <time>2011-09-11T08:26:47Z</time>
      </trkpt>
      <trkpt lat="45.55582" lon="5.88387">
        <ele>356.31</ele>
        <time>2011-09-11T08:26:48Z</time>
      </trkpt>
      <trkpt lat="45.55581" lon="5.8839">
        <ele>355.83</ele>
        <time>2011-09-11T08:26:49Z</time>
      </trkpt>
      <trkpt lat="45.5558" lon="5.88393">
        <ele>355.83</ele>
        <time>2011-09-11T08:26:50Z</time>
      </trkpt>
      <trkpt lat="45.55576" lon="5.88396">
        <ele>355.34</ele>
        <time>2011-09-11T08:26:51Z</time>
      </trkpt>
      <trkpt lat="45.55573" lon="5.88397">
        <ele>355.34</ele>
        <time>2011-09-11T08:26:52Z</time>
      </trkpt>
      <trkpt lat="45.55568" lon="5.88398">
        <ele>354.86</ele>
        <time>2011-09-11T08:26:53Z</time>
      </trkpt>
      <trkpt lat="45.55562" lon="5.88399">
        <ele>354.86</ele>
        <time>2011-09-11T08:26:54Z</time>
      </trkpt>
      <trkpt lat="45.55557" lon="5.884">
        <ele>354.38</ele>
        <time>2011-09-11T08:26:55Z</time>
      </trkpt>
      <trkpt lat="45.55552" lon="5.88401">
        <ele>354.38</ele>
        <time>2011-09-11T08:26:56Z</time>
      </trkpt>
      <trkpt lat="45.55547" lon="5.88403">
        <ele>354.38</ele>
        <time>2011-09-11T08:26:57Z</time>
      </trkpt>
      <trkpt lat="45.55532" lon="5.88412">
        <ele>353.42</ele>
        <time>2011-09-11T08:27:00Z</time>
      </trkpt>
      <trkpt lat="45.55528" lon="5.88415">
        <ele>352.94</ele>
        <time>2011-09-11T08:27:01Z</time>
      </trkpt>
      <trkpt lat="45.55523" lon="5.88416">
        <ele>352.46</ele>
        <time>2011-09-11T08:27:02Z</time>
      </trkpt>
      <trkpt lat="45.55519" lon="5.88416">
        <ele>352.46</ele>
        <time>2011-09-11T08:27:03Z</time>
      </trkpt>
      <trkpt lat="45.55515" lon="5.88414">
        <ele>352.46</ele>
        <time>2011-09-11T08:27:04Z</time>
      </trkpt>
      <trkpt lat="45.55512" lon="5.88411">
        <ele>352.46</ele>
        <time>2011-09-11T08:27:05Z</time>
      </trkpt>
      <trkpt lat="45.55509" lon="5.88407">
        <ele>353.42</ele>
        <time>2011-09-11T08:27:06Z</time>
      </trkpt>
      <trkpt lat="45.55508" lon="5.88404">
        <ele>353.9</ele>
        <time>2011-09-11T08:27:07Z</time>
      </trkpt>
      <trkpt lat="45.55507" lon="5.88401">
        <ele>353.9</ele>
        <time>2011-09-11T08:27:08Z</time>
      </trkpt>
      <trkpt lat="45.55495" lon="5.88368">
        <ele>357.27</ele>
        <time>2011-09-11T08:27:22Z</time>
      </trkpt>
      <trkpt lat="45.55485" lon="5.88342">
        <ele>360.15</ele>
        <time>2011-09-11T08:27:35Z</time>
      </trkpt>
      <trkpt lat="45.55485" lon="5.88341">
        <ele>359.67</ele>
        <time>2011-09-11T08:27:36Z</time>
      </trkpt>
      <trkpt lat="45.55486" lon="5.88332">
        <ele>360.63</ele>
        <time>2011-09-11T08:27:40Z</time>
      </trkpt>
      <trkpt lat="45.55487" lon="5.8833">
        <ele>360.63</ele>
        <time>2011-09-11T08:27:41Z</time>
      </trkpt>
      <trkpt lat="45.55488" lon="5.88329">
        <ele>361.11</ele>
        <time>2011-09-11T08:27:42Z</time>
      </trkpt>
      <trkpt lat="45.5549" lon="5.88327">
        <ele>361.59</ele>
        <time>2011-09-11T08:27:43Z</time>
      </trkpt>
      <trkpt lat="45.55491" lon="5.88327">
        <ele>362.07</ele>
        <time>2011-09-11T08:27:44Z</time>
      </trkpt>
      <trkpt lat="45.55493" lon="5.88326">
        <ele>362.07</ele>
        <time>2011-09-11T08:27:45Z</time>
      </trkpt>
      <trkpt lat="45.55495" lon="5.88326">
        <ele>361.59</ele>
        <time>2011-09-11T08:27:46Z</time>
      </trkpt>
      <trkpt lat="45.55496" lon="5.88325">
        <ele>362.07</ele>
        <time>2011-09-11T08:27:47Z</time>
      </trkpt>
      <trkpt lat="45.55513" lon="5.88315">
        <ele>363.52</ele>
        <time>2011-09-11T08:27:58Z</time>
      </trkpt>
      <trkpt lat="45.55515" lon="5.88314">
        <ele>363.52</ele>
        <time>2011-09-11T08:27:59Z</time>
      </trkpt>
      <trkpt lat="45.55516" lon="5.88314">
        <ele>363.52</ele>
        <time>2011-09-11T08:28:00Z</time>
      </trkpt>
      <trkpt lat="45.55518" lon="5.88313">
        <ele>364</ele>
        <time>2011-09-11T08:28:01Z</time>
      </trkpt>
      <trkpt lat="45.5552" lon="5.88313">
        <ele>363.52</ele>
        <time>2011-09-11T08:28:02Z</time>
      </trkpt>
      <trkpt lat="45.55521" lon="5.88311">
        <ele>364</ele>
        <time>2011-09-11T08:28:03Z</time>
      </trkpt>
      <trkpt lat="45.55522" lon="5.8831">
        <ele>364</ele>
        <time>2011-09-11T08:28:04Z</time>
      </trkpt>
      <trkpt lat="45.55524" lon="5.88309">
        <ele>364</ele>
        <time>2011-09-11T08:28:05Z</time>
      </trkpt>
      <trkpt lat="45.55525" lon="5.88308">
        <ele>364.96</ele>
        <time>2011-09-11T08:28:06Z</time>
      </trkpt>
      <trkpt lat="45.55527" lon="5.88307">
        <ele>364.48</ele>
        <time>2011-09-11T08:28:07Z</time>
      </trkpt>
      <trkpt lat="45.55528" lon="5.88306">
        <ele>364.96</ele>
        <time>2011-09-11T08:28:08Z</time>
      </trkpt>
      <trkpt lat="45.5553" lon="5.88305">
        <ele>364.48</ele>
        <time>2011-09-11T08:28:09Z</time>
      </trkpt>
      <trkpt lat="45.55531" lon="5.88304">
        <ele>364.96</ele>
        <time>2011-09-11T08:28:10Z</time>
      </trkpt>
      <trkpt lat="45.55546" lon="5.8828">
        <ele>367.84</ele>
        <time>2011-09-11T08:28:26Z</time>
      </trkpt>
      <trkpt lat="45.55548" lon="5.88274">
        <ele>369.28</ele>
        <time>2011-09-11T08:28:29Z</time>
      </trkpt>
      <trkpt lat="45.55559" lon="5.88257">
        <ele>372.65</ele>
        <time>2011-09-11T08:28:42Z</time>
      </trkpt>
      <trkpt lat="45.55578" lon="5.88242">
        <ele>375.05</ele>
        <time>2011-09-11T08:28:58Z</time>
      </trkpt>
      <trkpt lat="45.556" lon="5.88234">
        <ele>377.45</ele>
        <time>2011-09-11T08:29:15Z</time>
      </trkpt>
      <trkpt lat="45.55612" lon="5.8823">
        <ele>379.86</ele>
        <time>2011-09-11T08:29:33Z</time>
      </trkpt>
      <trkpt lat="45.55604" lon="5.88233">
        <ele>378.42</ele>
        <time>2011-09-11T08:29:41Z</time>
      </trkpt>
      <trkpt lat="45.55602" lon="5.88233">
        <ele>378.42</ele>
        <time>2011-09-11T08:29:42Z</time>
      </trkpt>
      <trkpt lat="45.556" lon="5.88234">
        <ele>377.94</ele>
        <time>2011-09-11T08:29:43Z</time>
      </trkpt>
      <trkpt lat="45.55598" lon="5.88234">
        <ele>377.94</ele>
        <time>2011-09-11T08:29:44Z</time>
      </trkpt>
      <trkpt lat="45.55596" lon="5.88235">
        <ele>377.45</ele>
        <time>2011-09-11T08:29:45Z</time>
      </trkpt>
      <trkpt lat="45.55594" lon="5.88235">
        <ele>376.97</ele>
        <time>2011-09-11T08:29:46Z</time>
      </trkpt>
      <trkpt lat="45.55564" lon="5.88251">
        <ele>373.61</ele>
        <time>2011-09-11T08:29:55Z</time>
      </trkpt>
      <trkpt lat="45.55558" lon="5.88257">
        <ele>373.13</ele>
        <time>2011-09-11T08:29:57Z</time>
      </trkpt>
      <trkpt lat="45.55548" lon="5.88273">
        <ele>369.76</ele>
        <time>2011-09-11T08:30:01Z</time>
      </trkpt>
      <trkpt lat="45.55539" lon="5.88293">
        <ele>366.88</ele>
        <time>2011-09-11T08:30:06Z</time>
      </trkpt>
      <trkpt lat="45.55537" lon="5.88301">
        <ele>365.92</ele>
        <time>2011-09-11T08:30:11Z</time>
      </trkpt>
      <trkpt lat="45.55542" lon="5.88297">
        <ele>365.92</ele>
        <time>2011-09-11T08:30:13Z</time>
      </trkpt>
      <trkpt lat="45.55574" lon="5.88284">
        <ele>365.92</ele>
        <time>2011-09-11T08:30:26Z</time>
      </trkpt>
      <trkpt lat="45.55595" lon="5.88277">
        <ele>366.88</ele>
        <time>2011-09-11T08:30:37Z</time>
      </trkpt>
      <trkpt lat="45.55618" lon="5.88274">
        <ele>367.84</ele>
        <time>2011-09-11T08:30:49Z</time>
      </trkpt>
      <trkpt lat="45.55624" lon="5.88274">
        <ele>368.32</ele>
        <time>2011-09-11T08:30:53Z</time>
      </trkpt>
      <trkpt lat="45.55632" lon="5.88256">
        <ele>372.65</ele>
        <time>2011-09-11T08:31:06Z</time>
      </trkpt>
      <trkpt lat="45.55633" lon="5.88252">
        <ele>370.73</ele>
        <time>2011-09-11T08:31:09Z</time>
      </trkpt>
      <trkpt lat="45.55633" lon="5.88244">
        <ele>371.69</ele>
        <time>2011-09-11T08:31:13Z</time>
      </trkpt>
      <trkpt lat="45.55637" lon="5.8823">
        <ele>375.05</ele>
        <time>2011-09-11T08:31:25Z</time>
      </trkpt>
      <trkpt lat="45.55639" lon="5.88207">
        <ele>378.42</ele>
        <time>2011-09-11T08:31:40Z</time>
      </trkpt>
      <trkpt lat="45.55632" lon="5.88191">
        <ele>381.3</ele>
        <time>2011-09-11T08:31:53Z</time>
      </trkpt>
      <trkpt lat="45.55628" lon="5.88177">
        <ele>384.66</ele>
        <time>2011-09-11T08:32:08Z</time>
      </trkpt>
      <trkpt lat="45.55621" lon="5.88167">
        <ele>387.55</ele>
        <time>2011-09-11T08:32:21Z</time>
      </trkpt>
      <trkpt lat="45.55618" lon="5.88158">
        <ele>390.91</ele>
        <time>2011-09-11T08:32:32Z</time>
      </trkpt>
      <trkpt lat="45.55615" lon="5.88146">
        <ele>393.8</ele>
        <time>2011-09-11T08:32:46Z</time>
      </trkpt>
      <trkpt lat="45.55614" lon="5.88132">
        <ele>397.16</ele>
        <time>2011-09-11T08:33:01Z</time>
      </trkpt>
      <trkpt lat="45.55612" lon="5.88123">
        <ele>398.12</ele>
        <time>2011-09-11T08:33:15Z</time>
      </trkpt>
      <trkpt lat="45.5561" lon="5.88119">
        <ele>398.6</ele>
        <time>2011-09-11T08:33:17Z</time>
      </trkpt>
      <trkpt lat="45.55605" lon="5.88085">
        <ele>401.49</ele>
        <time>2011-09-11T08:33:33Z</time>
      </trkpt>
      <trkpt lat="45.55606" lon="5.88055">
        <ele>404.37</ele>
        <time>2011-09-11T08:33:49Z</time>
      </trkpt>
      <trkpt lat="45.5561" lon="5.88025">
        <ele>407.74</ele>
        <time>2011-09-11T08:34:05Z</time>
      </trkpt>
      <trkpt lat="45.55611" lon="5.88002">
        <ele>410.14</ele>
        <time>2011-09-11T08:34:18Z</time>
      </trkpt>
      <trkpt lat="45.55611" lon="5.87996">
        <ele>410.62</ele>
        <time>2011-09-11T08:34:21Z</time>
      </trkpt>
      <trkpt lat="45.55613" lon="5.87993">
        <ele>411.58</ele>
        <time>2011-09-11T08:34:23Z</time>
      </trkpt>
      <trkpt lat="45.55615" lon="5.87983">
        <ele>412.54</ele>
        <time>2011-09-11T08:34:29Z</time>
      </trkpt>
      <trkpt lat="45.55616" lon="5.87956">
        <ele>415.91</ele>
        <time>2011-09-11T08:34:44Z</time>
      </trkpt>
      <trkpt lat="45.55615" lon="5.8793">
        <ele>417.83</ele>
        <time>2011-09-11T08:34:59Z</time>
      </trkpt>
      <trkpt lat="45.55613" lon="5.87905">
        <ele>419.75</ele>
        <time>2011-09-11T08:35:12Z</time>
      </trkpt>
      <trkpt lat="45.55612" lon="5.87871">
        <ele>421.19</ele>
        <time>2011-09-11T08:35:27Z</time>
      </trkpt>
      <trkpt lat="45.55597" lon="5.87842">
        <ele>424.08</ele>
        <time>2011-09-11T08:35:42Z</time>
      </trkpt>
      <trkpt lat="45.5557" lon="5.87823">
        <ele>426.48</ele>
        <time>2011-09-11T08:36:01Z</time>
      </trkpt>
      <trkpt lat="45.55555" lon="5.87791">
        <ele>428.4</ele>
        <time>2011-09-11T08:36:18Z</time>
      </trkpt>
      <trkpt lat="45.55542" lon="5.87747">
        <ele>430.81</ele>
        <time>2011-09-11T08:36:37Z</time>
      </trkpt>
      <trkpt lat="45.55524" lon="5.87719">
        <ele>433.21</ele>
        <time>2011-09-11T08:36:53Z</time>
      </trkpt>
      <trkpt lat="45.55507" lon="5.87693">
        <ele>435.61</ele>
        <time>2011-09-11T08:37:09Z</time>
      </trkpt>
      <trkpt lat="45.55498" lon="5.87684">
        <ele>435.13</ele>
        <time>2011-09-11T08:37:16Z</time>
      </trkpt>
      <trkpt lat="45.55493" lon="5.87678">
        <ele>437.54</ele>
        <time>2011-09-11T08:37:21Z</time>
      </trkpt>
      <trkpt lat="45.55484" lon="5.87669">
        <ele>439.46</ele>
        <time>2011-09-11T08:37:29Z</time>
      </trkpt>
      <trkpt lat="45.55475" lon="5.87664">
        <ele>440.9</ele>
        <time>2011-09-11T08:37:36Z</time>
      </trkpt>
      <trkpt lat="45.55458" lon="5.87654">
        <ele>444.27</ele>
        <time>2011-09-11T08:37:50Z</time>
      </trkpt>
      <trkpt lat="45.5545" lon="5.87652">
        <ele>445.23</ele>
        <time>2011-09-11T08:37:57Z</time>
      </trkpt>
      <trkpt lat="45.55448" lon="5.8765">
        <ele>445.71</ele>
        <time>2011-09-11T08:37:59Z</time>
      </trkpt>
      <trkpt lat="45.55446" lon="5.87645">
        <ele>445.71</ele>
        <time>2011-09-11T08:38:09Z</time>
      </trkpt>
      <trkpt lat="45.55439" lon="5.87647">
        <ele>447.63</ele>
        <time>2011-09-11T08:38:25Z</time>
      </trkpt>
      <trkpt lat="45.55436" lon="5.87641">
        <ele>449.07</ele>
        <time>2011-09-11T08:38:33Z</time>
      </trkpt>
      <trkpt lat="45.55422" lon="5.87632">
        <ele>452.44</ele>
        <time>2011-09-11T08:38:49Z</time>
      </trkpt>
      <trkpt lat="45.55413" lon="5.87632">
        <ele>454.84</ele>
        <time>2011-09-11T08:39:04Z</time>
      </trkpt>
      <trkpt lat="45.55404" lon="5.87632">
        <ele>456.76</ele>
        <time>2011-09-11T08:39:30Z</time>
      </trkpt>
      <trkpt lat="45.55396" lon="5.87631">
        <ele>460.13</ele>
        <time>2011-09-11T08:39:42Z</time>
      </trkpt>
      <trkpt lat="45.55388" lon="5.87624">
        <ele>462.53</ele>
        <time>2011-09-11T08:39:57Z</time>
      </trkpt>
      <trkpt lat="45.55377" lon="5.87616">
        <ele>465.42</ele>
        <time>2011-09-11T08:40:11Z</time>
      </trkpt>
      <trkpt lat="45.55371" lon="5.8761">
        <ele>468.78</ele>
        <time>2011-09-11T08:40:23Z</time>
      </trkpt>
      <trkpt lat="45.55364" lon="5.87602">
        <ele>470.22</ele>
        <time>2011-09-11T08:40:33Z</time>
      </trkpt>
      <trkpt lat="45.55354" lon="5.87593">
        <ele>472.63</ele>
        <time>2011-09-11T08:40:50Z</time>
      </trkpt>
      <trkpt lat="45.5534" lon="5.87586">
        <ele>475.99</ele>
        <time>2011-09-11T08:41:06Z</time>
      </trkpt>
      <trkpt lat="45.55333" lon="5.8758">
        <ele>477.91</ele>
        <time>2011-09-11T08:41:19Z</time>
      </trkpt>
      <trkpt lat="45.55327" lon="5.87571">
        <ele>479.35</ele>
        <time>2011-09-11T08:41:31Z</time>
      </trkpt>
      <trkpt lat="45.55326" lon="5.87569">
        <ele>479.35</ele>
        <time>2011-09-11T08:41:39Z</time>
      </trkpt>
      <trkpt lat="45.55326" lon="5.87559">
        <ele>480.8</ele>
        <time>2011-09-11T08:41:43Z</time>
      </trkpt>
      <trkpt lat="45.55315" lon="5.87535">
        <ele>483.68</ele>
        <time>2011-09-11T08:41:57Z</time>
      </trkpt>
      <trkpt lat="45.55305" lon="5.87514">
        <ele>485.12</ele>
        <time>2011-09-11T08:42:09Z</time>
      </trkpt>
      <trkpt lat="45.55304" lon="5.87504">
        <ele>486.08</ele>
        <time>2011-09-11T08:42:14Z</time>
      </trkpt>
      <trkpt lat="45.55287" lon="5.8748">
        <ele>488.97</ele>
        <time>2011-09-11T08:42:29Z</time>
      </trkpt>
      <trkpt lat="45.55272" lon="5.87457">
        <ele>490.89</ele>
        <time>2011-09-11T08:42:44Z</time>
      </trkpt>
      <trkpt lat="45.55265" lon="5.87444">
        <ele>494.26</ele>
        <time>2011-09-11T08:43:00Z</time>
      </trkpt>
      <trkpt lat="45.55254" lon="5.87438">
        <ele>496.66</ele>
        <time>2011-09-11T08:43:15Z</time>
      </trkpt>
      <trkpt lat="45.55242" lon="5.87428">
        <ele>499.54</ele>
        <time>2011-09-11T08:43:30Z</time>
      </trkpt>
      <trkpt lat="45.55233" lon="5.87421">
        <ele>501.95</ele>
        <time>2011-09-11T08:43:42Z</time>
      </trkpt>
      <trkpt lat="45.55229" lon="5.87411">
        <ele>502.91</ele>
        <time>2011-09-11T08:43:51Z</time>
      </trkpt>
      <trkpt lat="45.55235" lon="5.87403">
        <ele>504.83</ele>
        <time>2011-09-11T08:44:07Z</time>
      </trkpt>
      <trkpt lat="45.55244" lon="5.87392">
        <ele>505.31</ele>
        <time>2011-09-11T08:44:13Z</time>
      </trkpt>
      <trkpt lat="45.55238" lon="5.87358">
        <ele>506.75</ele>
        <time>2011-09-11T08:44:28Z</time>
      </trkpt>
      <trkpt lat="45.55207" lon="5.87345">
        <ele>508.19</ele>
        <time>2011-09-11T08:44:45Z</time>
      </trkpt>
      <trkpt lat="45.55186" lon="5.87324">
        <ele>509.64</ele>
        <time>2011-09-11T08:45:00Z</time>
      </trkpt>
      <trkpt lat="45.5517" lon="5.87289">
        <ele>511.08</ele>
        <time>2011-09-11T08:45:16Z</time>
      </trkpt>
      <trkpt lat="45.55151" lon="5.87234">
        <ele>512.04</ele>
        <time>2011-09-11T08:45:33Z</time>
      </trkpt>
      <trkpt lat="45.55129" lon="5.87176">
        <ele>513</ele>
        <time>2011-09-11T08:45:50Z</time>
      </trkpt>
      <trkpt lat="45.55111" lon="5.87129">
        <ele>513.96</ele>
        <time>2011-09-11T08:46:04Z</time>
      </trkpt>
      <trkpt lat="45.55078" lon="5.87089">
        <ele>514.92</ele>
        <time>2011-09-11T08:46:19Z</time>
      </trkpt>
      <trkpt lat="45.55046" lon="5.87054">
        <ele>516.85</ele>
        <time>2011-09-11T08:46:35Z</time>
      </trkpt>
      <trkpt lat="45.55045" lon="5.87052">
        <ele>516.85</ele>
        <time>2011-09-11T08:46:37Z</time>
      </trkpt>
      <trkpt lat="45.55048" lon="5.87045">
        <ele>516.37</ele>
        <time>2011-09-11T08:46:41Z</time>
      </trkpt>
      <trkpt lat="45.5504" lon="5.86978">
        <ele>516.37</ele>
        <time>2011-09-11T08:46:58Z</time>
      </trkpt>
      <trkpt lat="45.55026" lon="5.86887">
        <ele>516.37</ele>
        <time>2011-09-11T08:47:16Z</time>
      </trkpt>
      <trkpt lat="45.55016" lon="5.86814">
        <ele>516.37</ele>
        <time>2011-09-11T08:47:30Z</time>
      </trkpt>
      <trkpt lat="45.55009" lon="5.86747">
        <ele>516.85</ele>
        <time>2011-09-11T08:47:43Z</time>
      </trkpt>
      <trkpt lat="45.55006" lon="5.86655">
        <ele>514.92</ele>
        <time>2011-09-11T08:47:58Z</time>
      </trkpt>
      <trkpt lat="45.55003" lon="5.86592">
        <ele>513.48</ele>
        <time>2011-09-11T08:48:07Z</time>
      </trkpt>
      <trkpt lat="45.55001" lon="5.86579">
        <ele>513</ele>
        <time>2011-09-11T08:48:09Z</time>
      </trkpt>
      <trkpt lat="45.55001" lon="5.86574">
        <ele>513</ele>
        <time>2011-09-11T08:48:10Z</time>
      </trkpt>
      <trkpt lat="45.54992" lon="5.8652">
        <ele>512.52</ele>
        <time>2011-09-11T08:48:19Z</time>
      </trkpt>
      <trkpt lat="45.54991" lon="5.86513">
        <ele>512.52</ele>
        <time>2011-09-11T08:48:20Z</time>
      </trkpt>
      <trkpt lat="45.5499" lon="5.86507">
        <ele>512.52</ele>
        <time>2011-09-11T08:48:21Z</time>
      </trkpt>
      <trkpt lat="45.54983" lon="5.8644">
        <ele>511.08</ele>
        <time>2011-09-11T08:48:33Z</time>
      </trkpt>
      <trkpt lat="45.54984" lon="5.86352">
        <ele>508.19</ele>
        <time>2011-09-11T08:48:44Z</time>
      </trkpt>
      <trkpt lat="45.54985" lon="5.86239">
        <ele>505.31</ele>
        <time>2011-09-11T08:48:56Z</time>
      </trkpt>
      <trkpt lat="45.54985" lon="5.86224">
        <ele>504.35</ele>
        <time>2011-09-11T08:48:58Z</time>
      </trkpt>
      <trkpt lat="45.54985" lon="5.86218">
        <ele>504.35</ele>
        <time>2011-09-11T08:48:59Z</time>
      </trkpt>
      <trkpt lat="45.54985" lon="5.86213">
        <ele>504.83</ele>
        <time>2011-09-11T08:49:00Z</time>
      </trkpt>
      <trkpt lat="45.54985" lon="5.86208">
        <ele>504.83</ele>
        <time>2011-09-11T08:49:01Z</time>
      </trkpt>
      <trkpt lat="45.54985" lon="5.86203">
        <ele>504.35</ele>
        <time>2011-09-11T08:49:02Z</time>
      </trkpt>
      <trkpt lat="45.54985" lon="5.86199">
        <ele>504.35</ele>
        <time>2011-09-11T08:49:03Z</time>
      </trkpt>
      <trkpt lat="45.54984" lon="5.86194">
        <ele>504.35</ele>
        <time>2011-09-11T08:49:13Z</time>
      </trkpt>
      <trkpt lat="45.54977" lon="5.86159">
        <ele>504.35</ele>
        <time>2011-09-11T08:49:24Z</time>
      </trkpt>
      <trkpt lat="45.54965" lon="5.86111">
        <ele>503.87</ele>
        <time>2011-09-11T08:49:33Z</time>
      </trkpt>
      <trkpt lat="45.54964" lon="5.86105">
        <ele>503.39</ele>
        <time>2011-09-11T08:49:34Z</time>
      </trkpt>
      <trkpt lat="45.54955" lon="5.86069">
        <ele>503.87</ele>
        <time>2011-09-11T08:49:40Z</time>
      </trkpt>
      <trkpt lat="45.54953" lon="5.86064">
        <ele>504.35</ele>
        <time>2011-09-11T08:49:41Z</time>
      </trkpt>
      <trkpt lat="45.54926" lon="5.86006">
        <ele>506.27</ele>
        <time>2011-09-11T08:49:56Z</time>
      </trkpt>
      <trkpt lat="45.54897" lon="5.85948">
        <ele>508.19</ele>
        <time>2011-09-11T08:50:12Z</time>
      </trkpt>
      <trkpt lat="45.54876" lon="5.85888">
        <ele>507.23</ele>
        <time>2011-09-11T08:50:26Z</time>
      </trkpt>
      <trkpt lat="45.54889" lon="5.85852">
        <ele>506.75</ele>
        <time>2011-09-11T08:50:39Z</time>
      </trkpt>
      <trkpt lat="45.54893" lon="5.85856">
        <ele>506.27</ele>
        <time>2011-09-11T08:50:53Z</time>
      </trkpt>
      <trkpt lat="45.54898" lon="5.85859">
        <ele>505.79</ele>
        <time>2011-09-11T08:51:02Z</time>
      </trkpt>
      <trkpt lat="45.54908" lon="5.85857">
        <ele>504.35</ele>
        <time>2011-09-11T08:51:05Z</time>
      </trkpt>
      <trkpt lat="45.54926" lon="5.85824">
        <ele>500.98</ele>
        <time>2011-09-11T08:51:12Z</time>
      </trkpt>
      <trkpt lat="45.54943" lon="5.85776">
        <ele>498.1</ele>
        <time>2011-09-11T08:51:24Z</time>
      </trkpt>
      <trkpt lat="45.5496" lon="5.85748">
        <ele>493.77</ele>
        <time>2011-09-11T08:51:31Z</time>
      </trkpt>
      <trkpt lat="45.54981" lon="5.857">
        <ele>490.89</ele>
        <time>2011-09-11T08:51:38Z</time>
      </trkpt>
      <trkpt lat="45.54985" lon="5.85677">
        <ele>488.97</ele>
        <time>2011-09-11T08:51:42Z</time>
      </trkpt>
      <trkpt lat="45.54989" lon="5.85656">
        <ele>487.53</ele>
        <time>2011-09-11T08:51:46Z</time>
      </trkpt>
      <trkpt lat="45.54986" lon="5.8564">
        <ele>485.12</ele>
        <time>2011-09-11T08:51:51Z</time>
      </trkpt>
      <trkpt lat="45.54986" lon="5.8563">
        <ele>481.76</ele>
        <time>2011-09-11T08:51:55Z</time>
      </trkpt>
      <trkpt lat="45.54979" lon="5.85616">
        <ele>478.39</ele>
        <time>2011-09-11T08:52:02Z</time>
      </trkpt>
      <trkpt lat="45.54936" lon="5.85617">
        <ele>476.95</ele>
        <time>2011-09-11T08:52:19Z</time>
      </trkpt>
      <trkpt lat="45.54936" lon="5.85617">
        <ele>477.91</ele>
        <time>2011-09-11T08:52:49Z</time>
      </trkpt>
      <trkpt lat="45.54936" lon="5.85617">
        <ele>477.43</ele>
        <time>2011-09-11T08:53:19Z</time>
      </trkpt>
      <trkpt lat="45.54934" lon="5.85615">
        <ele>477.43</ele>
        <time>2011-09-11T08:53:30Z</time>
      </trkpt>
      <trkpt lat="45.54935" lon="5.85612">
        <ele>476.47</ele>
        <time>2011-09-11T08:53:32Z</time>
      </trkpt>
      <trkpt lat="45.54937" lon="5.85606">
        <ele>475.03</ele>
        <time>2011-09-11T08:53:35Z</time>
      </trkpt>
      <trkpt lat="45.54952" lon="5.85593">
        <ele>471.66</ele>
        <time>2011-09-11T08:53:43Z</time>
      </trkpt>
      <trkpt lat="45.54955" lon="5.8559">
        <ele>471.18</ele>
        <time>2011-09-11T08:53:44Z</time>
      </trkpt>
      <trkpt lat="45.5496" lon="5.85585">
        <ele>469.26</ele>
        <time>2011-09-11T08:53:46Z</time>
      </trkpt>
      <trkpt lat="45.54964" lon="5.8558">
        <ele>467.82</ele>
        <time>2011-09-11T08:53:48Z</time>
      </trkpt>
      <trkpt lat="45.54975" lon="5.85568">
        <ele>464.45</ele>
        <time>2011-09-11T08:53:53Z</time>
      </trkpt>
      <trkpt lat="45.54981" lon="5.85554">
        <ele>460.61</ele>
        <time>2011-09-11T08:53:58Z</time>
      </trkpt>
      <trkpt lat="45.54987" lon="5.85547">
        <ele>457.24</ele>
        <time>2011-09-11T08:54:01Z</time>
      </trkpt>
      <trkpt lat="45.54988" lon="5.85546">
        <ele>457.72</ele>
        <time>2011-09-11T08:54:02Z</time>
      </trkpt>
      <trkpt lat="45.55009" lon="5.85559">
        <ele>454.84</ele>
        <time>2011-09-11T08:54:11Z</time>
      </trkpt>
      <trkpt lat="45.5501" lon="5.85564">
        <ele>454.84</ele>
        <time>2011-09-11T08:54:29Z</time>
      </trkpt>
      <trkpt lat="45.5501" lon="5.85564">
        <ele>455.32</ele>
        <time>2011-09-11T08:54:59Z</time>
      </trkpt>
      <trkpt lat="45.55009" lon="5.85564">
        <ele>455.32</ele>
        <time>2011-09-11T08:55:21Z</time>
      </trkpt>
      <trkpt lat="45.55013" lon="5.85578">
        <ele>456.76</ele>
        <time>2011-09-11T08:55:27Z</time>
      </trkpt>
      <trkpt lat="45.55021" lon="5.85593">
        <ele>459.17</ele>
        <time>2011-09-11T08:55:36Z</time>
      </trkpt>
      <trkpt lat="45.55037" lon="5.85587">
        <ele>462.53</ele>
        <time>2011-09-11T08:55:48Z</time>
      </trkpt>
      <trkpt lat="45.55045" lon="5.8559">
        <ele>462.05</ele>
        <time>2011-09-11T08:56:03Z</time>
      </trkpt>
      <trkpt lat="45.55046" lon="5.85589">
        <ele>463.01</ele>
        <time>2011-09-11T08:56:12Z</time>
      </trkpt>
      <trkpt lat="45.55046" lon="5.85584">
        <ele>463.01</ele>
        <time>2011-09-11T08:56:27Z</time>
      </trkpt>
      <trkpt lat="45.55046" lon="5.85583">
        <ele>462.05</ele>
        <time>2011-09-11T08:57:03Z</time>
      </trkpt>
      <trkpt lat="45.55046" lon="5.85583">
        <ele>462.05</ele>
        <time>2011-09-11T08:57:32Z</time>
      </trkpt>
      <trkpt lat="45.55047" lon="5.85581">
        <ele>463.97</ele>
        <time>2011-09-11T08:58:00Z</time>
      </trkpt>
      <trkpt lat="45.55047" lon="5.8558">
        <ele>463.97</ele>
        <time>2011-09-11T08:58:01Z</time>
      </trkpt>
      <trkpt lat="45.55061" lon="5.8556">
        <ele>467.34</ele>
        <time>2011-09-11T08:58:16Z</time>
      </trkpt>
      <trkpt lat="45.55066" lon="5.85549">
        <ele>468.3</ele>
        <time>2011-09-11T08:58:22Z</time>
      </trkpt>
      <trkpt lat="45.55071" lon="5.85539">
        <ele>469.26</ele>
        <time>2011-09-11T08:58:29Z</time>
      </trkpt>
      <trkpt lat="45.55077" lon="5.8553">
        <ele>469.26</ele>
        <time>2011-09-11T08:58:35Z</time>
      </trkpt>
      <trkpt lat="45.55088" lon="5.85499">
        <ele>465.9</ele>
        <time>2011-09-11T08:58:49Z</time>
      </trkpt>
      <trkpt lat="45.55087" lon="5.85494">
        <ele>465.42</ele>
        <time>2011-09-11T08:59:07Z</time>
      </trkpt>
      <trkpt lat="45.55087" lon="5.85492">
        <ele>463.97</ele>
        <time>2011-09-11T08:59:14Z</time>
      </trkpt>
      <trkpt lat="45.55096" lon="5.85484">
        <ele>466.38</ele>
        <time>2011-09-11T08:59:24Z</time>
      </trkpt>
      <trkpt lat="45.55112" lon="5.85484">
        <ele>469.26</ele>
        <time>2011-09-11T08:59:38Z</time>
      </trkpt>
      <trkpt lat="45.55114" lon="5.85478">
        <ele>471.18</ele>
        <time>2011-09-11T08:59:46Z</time>
      </trkpt>
      <trkpt lat="45.55118" lon="5.85464">
        <ele>474.07</ele>
        <time>2011-09-11T09:00:00Z</time>
      </trkpt>
      <trkpt lat="45.55122" lon="5.85451">
        <ele>477.43</ele>
        <time>2011-09-11T09:00:13Z</time>
      </trkpt>
      <trkpt lat="45.55125" lon="5.85438">
        <ele>480.32</ele>
        <time>2011-09-11T09:00:27Z</time>
      </trkpt>
      <trkpt lat="45.5512" lon="5.85425">
        <ele>483.68</ele>
        <time>2011-09-11T09:00:42Z</time>
      </trkpt>
      <trkpt lat="45.55117" lon="5.8541">
        <ele>486.08</ele>
        <time>2011-09-11T09:00:55Z</time>
      </trkpt>
      <trkpt lat="45.55114" lon="5.85399">
        <ele>488.97</ele>
        <time>2011-09-11T09:01:10Z</time>
      </trkpt>
      <trkpt lat="45.55113" lon="5.85393">
        <ele>490.41</ele>
        <time>2011-09-11T09:01:22Z</time>
      </trkpt>
      <trkpt lat="45.55112" lon="5.85382">
        <ele>493.29</ele>
        <time>2011-09-11T09:01:35Z</time>
      </trkpt>
      <trkpt lat="45.55113" lon="5.85367">
        <ele>496.18</ele>
        <time>2011-09-11T09:01:50Z</time>
      </trkpt>
      <trkpt lat="45.5511" lon="5.85353">
        <ele>499.54</ele>
        <time>2011-09-11T09:02:04Z</time>
      </trkpt>
      <trkpt lat="45.55111" lon="5.85341">
        <ele>502.43</ele>
        <time>2011-09-11T09:02:20Z</time>
      </trkpt>
      <trkpt lat="45.55118" lon="5.85334">
        <ele>505.31</ele>
        <time>2011-09-11T09:02:36Z</time>
      </trkpt>
      <trkpt lat="45.55124" lon="5.85331">
        <ele>507.71</ele>
        <time>2011-09-11T09:03:01Z</time>
      </trkpt>
      <trkpt lat="45.55134" lon="5.85327">
        <ele>510.12</ele>
        <time>2011-09-11T09:03:15Z</time>
      </trkpt>
      <trkpt lat="45.55138" lon="5.85321">
        <ele>511.56</ele>
        <time>2011-09-11T09:03:29Z</time>
      </trkpt>
      <trkpt lat="45.55138" lon="5.85321">
        <ele>511.56</ele>
        <time>2011-09-11T09:03:44Z</time>
      </trkpt>
      <trkpt lat="45.5515" lon="5.85305">
        <ele>512.04</ele>
        <time>2011-09-11T09:03:53Z</time>
      </trkpt>
      <trkpt lat="45.5517" lon="5.85269">
        <ele>513</ele>
        <time>2011-09-11T09:04:08Z</time>
      </trkpt>
      <trkpt lat="45.55188" lon="5.85229">
        <ele>515.88</ele>
        <time>2011-09-11T09:04:26Z</time>
      </trkpt>
      <trkpt lat="45.55203" lon="5.85191">
        <ele>517.81</ele>
        <time>2011-09-11T09:04:43Z</time>
      </trkpt>
      <trkpt lat="45.5522" lon="5.85152">
        <ele>520.69</ele>
        <time>2011-09-11T09:05:01Z</time>
      </trkpt>
      <trkpt lat="45.55238" lon="5.85124">
        <ele>523.58</ele>
        <time>2011-09-11T09:05:17Z</time>
      </trkpt>
      <trkpt lat="45.55253" lon="5.85101">
        <ele>526.46</ele>
        <time>2011-09-11T09:05:32Z</time>
      </trkpt>
      <trkpt lat="45.55269" lon="5.85069">
        <ele>529.34</ele>
        <time>2011-09-11T09:05:50Z</time>
      </trkpt>
      <trkpt lat="45.55275" lon="5.85022">
        <ele>531.75</ele>
        <time>2011-09-11T09:06:09Z</time>
      </trkpt>
      <trkpt lat="45.55275" lon="5.84976">
        <ele>532.71</ele>
        <time>2011-09-11T09:06:26Z</time>
      </trkpt>
      <trkpt lat="45.55284" lon="5.84936">
        <ele>534.15</ele>
        <time>2011-09-11T09:06:41Z</time>
      </trkpt>
      <trkpt lat="45.55287" lon="5.84902">
        <ele>535.59</ele>
        <time>2011-09-11T09:06:53Z</time>
      </trkpt>
      <trkpt lat="45.55275" lon="5.84852">
        <ele>538.48</ele>
        <time>2011-09-11T09:07:12Z</time>
      </trkpt>
      <trkpt lat="45.55273" lon="5.84826">
        <ele>538.96</ele>
        <time>2011-09-11T09:07:23Z</time>
      </trkpt>
      <trkpt lat="45.55275" lon="5.84821">
        <ele>538.96</ele>
        <time>2011-09-11T09:07:35Z</time>
      </trkpt>
      <trkpt lat="45.55275" lon="5.84821">
        <ele>539.44</ele>
        <time>2011-09-11T09:07:48Z</time>
      </trkpt>
      <trkpt lat="45.55275" lon="5.84821">
        <ele>538.96</ele>
        <time>2011-09-11T09:08:15Z</time>
      </trkpt>
      <trkpt lat="45.55275" lon="5.84821">
        <ele>538.96</ele>
        <time>2011-09-11T09:08:41Z</time>
      </trkpt>
      <trkpt lat="45.55279" lon="5.84818">
        <ele>538.48</ele>
        <time>2011-09-11T09:08:50Z</time>
      </trkpt>
      <trkpt lat="45.55285" lon="5.84819">
        <ele>539.92</ele>
        <time>2011-09-11T09:08:53Z</time>
      </trkpt>
      <trkpt lat="45.55335" lon="5.84827">
        <ele>539.92</ele>
        <time>2011-09-11T09:09:09Z</time>
      </trkpt>
      <trkpt lat="45.55387" lon="5.84838">
        <ele>539.44</ele>
        <time>2011-09-11T09:09:23Z</time>
      </trkpt>
      <trkpt lat="45.5541" lon="5.84849">
        <ele>540.88</ele>
        <time>2011-09-11T09:09:35Z</time>
      </trkpt>
      <trkpt lat="45.55411" lon="5.8485">
        <ele>541.36</ele>
        <time>2011-09-11T09:09:36Z</time>
      </trkpt>
      <trkpt lat="45.55412" lon="5.84851">
        <ele>541.36</ele>
        <time>2011-09-11T09:09:37Z</time>
      </trkpt>
      <trkpt lat="45.55413" lon="5.84852">
        <ele>541.36</ele>
        <time>2011-09-11T09:09:38Z</time>
      </trkpt>
      <trkpt lat="45.55415" lon="5.84852">
        <ele>541.36</ele>
        <time>2011-09-11T09:09:39Z</time>
      </trkpt>
      <trkpt lat="45.55417" lon="5.84852">
        <ele>541.36</ele>
        <time>2011-09-11T09:09:40Z</time>
      </trkpt>
      <trkpt lat="45.55417" lon="5.8485">
        <ele>540.4</ele>
        <time>2011-09-11T09:09:43Z</time>
      </trkpt>
      <trkpt lat="45.55399" lon="5.84844">
        <ele>540.4</ele>
        <time>2011-09-11T09:09:53Z</time>
      </trkpt>
      <trkpt lat="45.55404" lon="5.8484">
        <ele>540.4</ele>
        <time>2011-09-11T09:09:58Z</time>
      </trkpt>
      <trkpt lat="45.55415" lon="5.84841">
        <ele>541.84</ele>
        <time>2011-09-11T09:10:02Z</time>
      </trkpt>
      <trkpt lat="45.55433" lon="5.84823">
        <ele>544.24</ele>
        <time>2011-09-11T09:10:15Z</time>
      </trkpt>
      <trkpt lat="45.55447" lon="5.84802">
        <ele>547.61</ele>
        <time>2011-09-11T09:10:30Z</time>
      </trkpt>
      <trkpt lat="45.55462" lon="5.84779">
        <ele>549.53</ele>
        <time>2011-09-11T09:10:45Z</time>
      </trkpt>
      <trkpt lat="45.55473" lon="5.84751">
        <ele>550.97</ele>
        <time>2011-09-11T09:11:00Z</time>
      </trkpt>
      <trkpt lat="45.55495" lon="5.84737">
        <ele>552.41</ele>
        <time>2011-09-11T09:11:16Z</time>
      </trkpt>
      <trkpt lat="45.55508" lon="5.84714">
        <ele>553.86</ele>
        <time>2011-09-11T09:11:30Z</time>
      </trkpt>
      <trkpt lat="45.5551" lon="5.847">
        <ele>555.3</ele>
        <time>2011-09-11T09:11:37Z</time>
      </trkpt>
      <trkpt lat="45.55508" lon="5.8469">
        <ele>556.26</ele>
        <time>2011-09-11T09:11:42Z</time>
      </trkpt>
      <trkpt lat="45.55498" lon="5.8467">
        <ele>558.66</ele>
        <time>2011-09-11T09:11:55Z</time>
      </trkpt>
      <trkpt lat="45.55483" lon="5.84656">
        <ele>561.55</ele>
        <time>2011-09-11T09:12:09Z</time>
      </trkpt>
      <trkpt lat="45.55471" lon="5.84644">
        <ele>564.91</ele>
        <time>2011-09-11T09:12:22Z</time>
      </trkpt>
      <trkpt lat="45.55457" lon="5.84627">
        <ele>567.32</ele>
        <time>2011-09-11T09:12:36Z</time>
      </trkpt>
      <trkpt lat="45.55446" lon="5.84608">
        <ele>570.2</ele>
        <time>2011-09-11T09:12:50Z</time>
      </trkpt>
      <trkpt lat="45.55443" lon="5.84586">
        <ele>573.56</ele>
        <time>2011-09-11T09:13:03Z</time>
      </trkpt>
      <trkpt lat="45.55445" lon="5.84558">
        <ele>576.45</ele>
        <time>2011-09-11T09:13:18Z</time>
      </trkpt>
      <trkpt lat="45.55454" lon="5.84527">
        <ele>578.37</ele>
        <time>2011-09-11T09:13:35Z</time>
      </trkpt>
      <trkpt lat="45.55457" lon="5.84512">
        <ele>579.33</ele>
        <time>2011-09-11T09:13:43Z</time>
      </trkpt>
      <trkpt lat="45.55458" lon="5.84484">
        <ele>581.73</ele>
        <time>2011-09-11T09:13:57Z</time>
      </trkpt>
      <trkpt lat="45.5546" lon="5.84477">
        <ele>582.22</ele>
        <time>2011-09-11T09:14:01Z</time>
      </trkpt>
      <trkpt lat="45.55465" lon="5.84463">
        <ele>583.66</ele>
        <time>2011-09-11T09:14:10Z</time>
      </trkpt>
      <trkpt lat="45.55475" lon="5.84436">
        <ele>586.54</ele>
        <time>2011-09-11T09:14:25Z</time>
      </trkpt>
      <trkpt lat="45.55476" lon="5.84404">
        <ele>588.95</ele>
        <time>2011-09-11T09:14:41Z</time>
      </trkpt>
      <trkpt lat="45.55481" lon="5.84368">
        <ele>591.35</ele>
        <time>2011-09-11T09:14:57Z</time>
      </trkpt>
      <trkpt lat="45.55478" lon="5.8434">
        <ele>593.27</ele>
        <time>2011-09-11T09:15:11Z</time>
      </trkpt>
      <trkpt lat="45.55473" lon="5.84311">
        <ele>596.15</ele>
        <time>2011-09-11T09:15:25Z</time>
      </trkpt>
      <trkpt lat="45.55465" lon="5.84285">
        <ele>597.6</ele>
        <time>2011-09-11T09:15:40Z</time>
      </trkpt>
      <trkpt lat="45.55458" lon="5.84268">
        <ele>599.04</ele>
        <time>2011-09-11T09:15:51Z</time>
      </trkpt>
      <trkpt lat="45.55454" lon="5.84249">
        <ele>602.88</ele>
        <time>2011-09-11T09:16:03Z</time>
      </trkpt>
      <trkpt lat="45.55452" lon="5.84245">
        <ele>603.36</ele>
        <time>2011-09-11T09:16:05Z</time>
      </trkpt>
      <trkpt lat="45.55441" lon="5.84221">
        <ele>607.69</ele>
        <time>2011-09-11T09:16:20Z</time>
      </trkpt>
      <trkpt lat="45.55429" lon="5.84205">
        <ele>610.09</ele>
        <time>2011-09-11T09:16:35Z</time>
      </trkpt>
      <trkpt lat="45.55419" lon="5.8417">
        <ele>610.57</ele>
        <time>2011-09-11T09:16:50Z</time>
      </trkpt>
      <trkpt lat="45.55404" lon="5.84128">
        <ele>611.06</ele>
        <time>2011-09-11T09:17:04Z</time>
      </trkpt>
      <trkpt lat="45.55399" lon="5.84102">
        <ele>612.5</ele>
        <time>2011-09-11T09:17:15Z</time>
      </trkpt>
      <trkpt lat="45.55397" lon="5.84101">
        <ele>612.02</ele>
        <time>2011-09-11T09:17:36Z</time>
      </trkpt>
      <trkpt lat="45.55397" lon="5.84101">
        <ele>610.09</ele>
        <time>2011-09-11T09:17:38Z</time>
      </trkpt>
      <trkpt lat="45.55397" lon="5.84101">
        <ele>612.02</ele>
        <time>2011-09-11T09:17:42Z</time>
      </trkpt>
      <trkpt lat="45.55396" lon="5.84101">
        <ele>612.5</ele>
        <time>2011-09-11T09:18:07Z</time>
      </trkpt>
      <trkpt lat="45.55396" lon="5.84101">
        <ele>612.98</ele>
        <time>2011-09-11T09:18:36Z</time>
      </trkpt>
      <trkpt lat="45.55396" lon="5.84101">
        <ele>612.5</ele>
        <time>2011-09-11T09:19:05Z</time>
      </trkpt>
      <trkpt lat="45.55397" lon="5.84102">
        <ele>612.02</ele>
        <time>2011-09-11T09:19:30Z</time>
      </trkpt>
      <trkpt lat="45.55396" lon="5.84101">
        <ele>612.02</ele>
        <time>2011-09-11T09:19:58Z</time>
      </trkpt>
      <trkpt lat="45.55397" lon="5.84101">
        <ele>612.02</ele>
        <time>2011-09-11T09:20:22Z</time>
      </trkpt>
      <trkpt lat="45.55397" lon="5.84101">
        <ele>612.5</ele>
        <time>2011-09-11T09:20:50Z</time>
      </trkpt>
      <trkpt lat="45.55397" lon="5.84099">
        <ele>612.5</ele>
        <time>2011-09-11T09:21:15Z</time>
      </trkpt>
      <trkpt lat="45.55405" lon="5.84084">
        <ele>613.46</ele>
        <time>2011-09-11T09:21:26Z</time>
      </trkpt>
      <trkpt lat="45.55417" lon="5.84078">
        <ele>614.9</ele>
        <time>2011-09-11T09:21:34Z</time>
      </trkpt>
      <trkpt lat="45.55426" lon="5.84074">
        <ele>615.38</ele>
        <time>2011-09-11T09:21:42Z</time>
      </trkpt>
      <trkpt lat="45.55434" lon="5.84072">
        <ele>616.34</ele>
        <time>2011-09-11T09:21:47Z</time>
      </trkpt>
      <trkpt lat="45.55444" lon="5.84068">
        <ele>617.3</ele>
        <time>2011-09-11T09:21:52Z</time>
      </trkpt>
      <trkpt lat="45.55463" lon="5.84047">
        <ele>619.23</ele>
        <time>2011-09-11T09:22:05Z</time>
      </trkpt>
      <trkpt lat="45.55476" lon="5.84011">
        <ele>618.75</ele>
        <time>2011-09-11T09:22:16Z</time>
      </trkpt>
      <trkpt lat="45.55495" lon="5.83957">
        <ele>615.38</ele>
        <time>2011-09-11T09:22:28Z</time>
      </trkpt>
      <trkpt lat="45.55496" lon="5.8395">
        <ele>615.38</ele>
        <time>2011-09-11T09:22:29Z</time>
      </trkpt>
      <trkpt lat="45.55505" lon="5.83913">
        <ele>614.42</ele>
        <time>2011-09-11T09:22:38Z</time>
      </trkpt>
      <trkpt lat="45.55528" lon="5.83918">
        <ele>615.38</ele>
        <time>2011-09-11T09:22:51Z</time>
      </trkpt>
      <trkpt lat="45.55537" lon="5.83912">
        <ele>615.38</ele>
        <time>2011-09-11T09:22:58Z</time>
      </trkpt>
      <trkpt lat="45.5554" lon="5.8391">
        <ele>614.9</ele>
        <time>2011-09-11T09:23:08Z</time>
      </trkpt>
      <trkpt lat="45.55534" lon="5.8391">
        <ele>616.34</ele>
        <time>2011-09-11T09:23:14Z</time>
      </trkpt>
      <trkpt lat="45.55523" lon="5.83892">
        <ele>619.23</ele>
        <time>2011-09-11T09:23:29Z</time>
      </trkpt>
      <trkpt lat="45.55522" lon="5.83883">
        <ele>621.15</ele>
        <time>2011-09-11T09:23:39Z</time>
      </trkpt>
      <trkpt lat="45.55516" lon="5.83875">
        <ele>623.55</ele>
        <time>2011-09-11T09:23:54Z</time>
      </trkpt>
      <trkpt lat="45.55515" lon="5.83872">
        <ele>624.03</ele>
        <time>2011-09-11T09:23:57Z</time>
      </trkpt>
      <trkpt lat="45.55506" lon="5.83859">
        <ele>626.92</ele>
        <time>2011-09-11T09:24:10Z</time>
      </trkpt>
      <trkpt lat="45.55497" lon="5.83843">
        <ele>629.32</ele>
        <time>2011-09-11T09:24:25Z</time>
      </trkpt>
      <trkpt lat="45.55496" lon="5.83835">
        <ele>632.2</ele>
        <time>2011-09-11T09:24:39Z</time>
      </trkpt>
      <trkpt lat="45.55492" lon="5.83827">
        <ele>635.57</ele>
        <time>2011-09-11T09:24:55Z</time>
      </trkpt>
      <trkpt lat="45.55486" lon="5.83822">
        <ele>637.49</ele>
        <time>2011-09-11T09:25:08Z</time>
      </trkpt>
      <trkpt lat="45.55485" lon="5.8382">
        <ele>640.38</ele>
        <time>2011-09-11T09:25:22Z</time>
      </trkpt>
      <trkpt lat="45.55481" lon="5.83815">
        <ele>643.74</ele>
        <time>2011-09-11T09:25:37Z</time>
      </trkpt>
      <trkpt lat="45.55474" lon="5.83798">
        <ele>645.18</ele>
        <time>2011-09-11T09:25:47Z</time>
      </trkpt>
      <trkpt lat="45.55467" lon="5.83789">
        <ele>646.14</ele>
        <time>2011-09-11T09:26:01Z</time>
      </trkpt>
      <trkpt lat="45.55467" lon="5.83789">
        <ele>646.14</ele>
        <time>2011-09-11T09:26:04Z</time>
      </trkpt>
      <trkpt lat="45.55465" lon="5.83789">
        <ele>646.62</ele>
        <time>2011-09-11T09:26:28Z</time>
      </trkpt>
      <trkpt lat="45.55466" lon="5.83788">
        <ele>647.1</ele>
        <time>2011-09-11T09:26:29Z</time>
      </trkpt>
      <trkpt lat="45.55473" lon="5.83772">
        <ele>648.55</ele>
        <time>2011-09-11T09:26:43Z</time>
      </trkpt>
      <trkpt lat="45.55474" lon="5.8377">
        <ele>648.07</ele>
        <time>2011-09-11T09:26:44Z</time>
      </trkpt>
      <trkpt lat="45.5549" lon="5.83757">
        <ele>648.07</ele>
        <time>2011-09-11T09:26:57Z</time>
      </trkpt>
      <trkpt lat="45.55513" lon="5.83751">
        <ele>648.55</ele>
        <time>2011-09-11T09:27:11Z</time>
      </trkpt>
      <trkpt lat="45.5554" lon="5.83747">
        <ele>649.99</ele>
        <time>2011-09-11T09:27:22Z</time>
      </trkpt>
      <trkpt lat="45.55568" lon="5.83749">
        <ele>652.39</ele>
        <time>2011-09-11T09:27:37Z</time>
      </trkpt>
      <trkpt lat="45.55586" lon="5.83749">
        <ele>655.28</ele>
        <time>2011-09-11T09:27:50Z</time>
      </trkpt>
      <trkpt lat="45.5559" lon="5.83743">
        <ele>655.28</ele>
        <time>2011-09-11T09:27:55Z</time>
      </trkpt>
      <trkpt lat="45.55581" lon="5.83726">
        <ele>659.6</ele>
        <time>2011-09-11T09:28:08Z</time>
      </trkpt>
      <trkpt lat="45.55572" lon="5.8371">
        <ele>661.52</ele>
        <time>2011-09-11T09:28:20Z</time>
      </trkpt>
      <trkpt lat="45.5557" lon="5.83706">
        <ele>662.97</ele>
        <time>2011-09-11T09:28:39Z</time>
      </trkpt>
      <trkpt lat="45.55567" lon="5.83701">
        <ele>665.37</ele>
        <time>2011-09-11T09:28:55Z</time>
      </trkpt>
      <trkpt lat="45.55558" lon="5.83686">
        <ele>667.77</ele>
        <time>2011-09-11T09:29:09Z</time>
      </trkpt>
      <trkpt lat="45.55541" lon="5.83677">
        <ele>670.66</ele>
        <time>2011-09-11T09:29:24Z</time>
      </trkpt>
      <trkpt lat="45.55524" lon="5.83681">
        <ele>673.06</ele>
        <time>2011-09-11T09:29:40Z</time>
      </trkpt>
      <trkpt lat="45.5551" lon="5.83677">
        <ele>676.42</ele>
        <time>2011-09-11T09:29:54Z</time>
      </trkpt>
      <trkpt lat="45.55497" lon="5.83679">
        <ele>678.35</ele>
        <time>2011-09-11T09:30:09Z</time>
      </trkpt>
      <trkpt lat="45.55491" lon="5.83684">
        <ele>680.27</ele>
        <time>2011-09-11T09:30:24Z</time>
      </trkpt>
      <trkpt lat="45.55491" lon="5.83684">
        <ele>680.27</ele>
        <time>2011-09-11T09:30:29Z</time>
      </trkpt>
      <trkpt lat="45.5548" lon="5.83691">
        <ele>683.15</ele>
        <time>2011-09-11T09:30:42Z</time>
      </trkpt>
      <trkpt lat="45.55473" lon="5.83699">
        <ele>685.08</ele>
        <time>2011-09-11T09:30:55Z</time>
      </trkpt>
      <trkpt lat="45.5547" lon="5.83703">
        <ele>685.56</ele>
        <time>2011-09-11T09:30:59Z</time>
      </trkpt>
      <trkpt lat="45.55455" lon="5.83708">
        <ele>687.96</ele>
        <time>2011-09-11T09:31:15Z</time>
      </trkpt>
      <trkpt lat="45.55441" lon="5.83706">
        <ele>691.33</ele>
        <time>2011-09-11T09:31:31Z</time>
      </trkpt>
      <trkpt lat="45.55437" lon="5.83702">
        <ele>692.29</ele>
        <time>2011-09-11T09:31:50Z</time>
      </trkpt>
      <trkpt lat="45.5542" lon="5.83694">
        <ele>693.25</ele>
        <time>2011-09-11T09:32:03Z</time>
      </trkpt>
      <trkpt lat="45.55407" lon="5.83701">
        <ele>696.61</ele>
        <time>2011-09-11T09:32:18Z</time>
      </trkpt>
      <trkpt lat="45.55405" lon="5.83703">
        <ele>697.57</ele>
        <time>2011-09-11T09:32:21Z</time>
      </trkpt>
      <trkpt lat="45.55404" lon="5.83706">
        <ele>697.57</ele>
        <time>2011-09-11T09:32:24Z</time>
      </trkpt>
      <trkpt lat="45.55399" lon="5.83707">
        <ele>698.53</ele>
        <time>2011-09-11T09:32:28Z</time>
      </trkpt>
      <trkpt lat="45.55391" lon="5.83704">
        <ele>699.02</ele>
        <time>2011-09-11T09:32:42Z</time>
      </trkpt>
      <trkpt lat="45.55391" lon="5.83704">
        <ele>699.02</ele>
        <time>2011-09-11T09:33:08Z</time>
      </trkpt>
      <trkpt lat="45.55391" lon="5.83704">
        <ele>699.02</ele>
        <time>2011-09-11T09:33:35Z</time>
      </trkpt>
      <trkpt lat="45.55378" lon="5.83705">
        <ele>700.46</ele>
        <time>2011-09-11T09:33:48Z</time>
      </trkpt>
      <trkpt lat="45.55358" lon="5.83711">
        <ele>702.38</ele>
        <time>2011-09-11T09:34:01Z</time>
      </trkpt>
      <trkpt lat="45.5534" lon="5.83717">
        <ele>704.3</ele>
        <time>2011-09-11T09:34:15Z</time>
      </trkpt>
      <trkpt lat="45.55318" lon="5.83726">
        <ele>706.23</ele>
        <time>2011-09-11T09:34:28Z</time>
      </trkpt>
      <trkpt lat="45.553" lon="5.83738">
        <ele>707.67</ele>
        <time>2011-09-11T09:34:41Z</time>
      </trkpt>
      <trkpt lat="45.55293" lon="5.83746">
        <ele>709.11</ele>
        <time>2011-09-11T09:34:47Z</time>
      </trkpt>
      <trkpt lat="45.55288" lon="5.83774">
        <ele>712.47</ele>
        <time>2011-09-11T09:35:02Z</time>
      </trkpt>
      <trkpt lat="45.55286" lon="5.83778">
        <ele>712.47</ele>
        <time>2011-09-11T09:35:07Z</time>
      </trkpt>
      <trkpt lat="45.55279" lon="5.8377">
        <ele>713.92</ele>
        <time>2011-09-11T09:35:20Z</time>
      </trkpt>
      <trkpt lat="45.55281" lon="5.83761">
        <ele>716.32</ele>
        <time>2011-09-11T09:35:40Z</time>
      </trkpt>
      <trkpt lat="45.55285" lon="5.83745">
        <ele>718.72</ele>
        <time>2011-09-11T09:35:55Z</time>
      </trkpt>
      <trkpt lat="45.55282" lon="5.83736">
        <ele>720.65</ele>
        <time>2011-09-11T09:36:08Z</time>
      </trkpt>
      <trkpt lat="45.55282" lon="5.83729">
        <ele>721.13</ele>
        <time>2011-09-11T09:36:15Z</time>
      </trkpt>
      <trkpt lat="45.55276" lon="5.83717">
        <ele>722.09</ele>
        <time>2011-09-11T09:36:27Z</time>
      </trkpt>
      <trkpt lat="45.55276" lon="5.83704">
        <ele>724.49</ele>
        <time>2011-09-11T09:36:39Z</time>
      </trkpt>
      <trkpt lat="45.55276" lon="5.8369">
        <ele>726.89</ele>
        <time>2011-09-11T09:36:54Z</time>
      </trkpt>
      <trkpt lat="45.5527" lon="5.83683">
        <ele>729.3</ele>
        <time>2011-09-11T09:37:08Z</time>
      </trkpt>
      <trkpt lat="45.55268" lon="5.83687">
        <ele>730.26</ele>
        <time>2011-09-11T09:37:13Z</time>
      </trkpt>
      <trkpt lat="45.55261" lon="5.83703">
        <ele>732.18</ele>
        <time>2011-09-11T09:37:27Z</time>
      </trkpt>
      <trkpt lat="45.55261" lon="5.83704">
        <ele>732.18</ele>
        <time>2011-09-11T09:37:28Z</time>
      </trkpt>
      <trkpt lat="45.55259" lon="5.83716">
        <ele>732.66</ele>
        <time>2011-09-11T09:37:37Z</time>
      </trkpt>
      <trkpt lat="45.55256" lon="5.8373">
        <ele>735.07</ele>
        <time>2011-09-11T09:37:52Z</time>
      </trkpt>
      <trkpt lat="45.5525" lon="5.83731">
        <ele>736.51</ele>
        <time>2011-09-11T09:38:08Z</time>
      </trkpt>
      <trkpt lat="45.55247" lon="5.83729">
        <ele>737.47</ele>
        <time>2011-09-11T09:38:12Z</time>
      </trkpt>
      <trkpt lat="45.55239" lon="5.83735">
        <ele>740.35</ele>
        <time>2011-09-11T09:38:29Z</time>
      </trkpt>
      <trkpt lat="45.55237" lon="5.83746">
        <ele>741.79</ele>
        <time>2011-09-11T09:38:42Z</time>
      </trkpt>
      <trkpt lat="45.55234" lon="5.83751">
        <ele>741.79</ele>
        <time>2011-09-11T09:38:58Z</time>
      </trkpt>
      <trkpt lat="45.55234" lon="5.83752">
        <ele>742.76</ele>
        <time>2011-09-11T09:39:32Z</time>
      </trkpt>
      <trkpt lat="45.55234" lon="5.83752">
        <ele>741.79</ele>
        <time>2011-09-11T09:39:59Z</time>
      </trkpt>
      <trkpt lat="45.55234" lon="5.8375">
        <ele>742.76</ele>
        <time>2011-09-11T09:40:33Z</time>
      </trkpt>
      <trkpt lat="45.55232" lon="5.83744">
        <ele>743.24</ele>
        <time>2011-09-11T09:40:36Z</time>
      </trkpt>
      <trkpt lat="45.55232" lon="5.8372">
        <ele>745.64</ele>
        <time>2011-09-11T09:40:52Z</time>
      </trkpt>
      <trkpt lat="45.55232" lon="5.83702">
        <ele>748.04</ele>
        <time>2011-09-11T09:41:06Z</time>
      </trkpt>
      <trkpt lat="45.55224" lon="5.83696">
        <ele>750.93</ele>
        <time>2011-09-11T09:41:18Z</time>
      </trkpt>
      <trkpt lat="45.55219" lon="5.83696">
        <ele>750.93</ele>
        <time>2011-09-11T09:41:21Z</time>
      </trkpt>
      <trkpt lat="45.55215" lon="5.83698">
        <ele>751.89</ele>
        <time>2011-09-11T09:41:25Z</time>
      </trkpt>
      <trkpt lat="45.55213" lon="5.837">
        <ele>752.85</ele>
        <time>2011-09-11T09:41:27Z</time>
      </trkpt>
      <trkpt lat="45.55204" lon="5.83718">
        <ele>755.25</ele>
        <time>2011-09-11T09:41:44Z</time>
      </trkpt>
      <trkpt lat="45.55199" lon="5.83731">
        <ele>757.66</ele>
        <time>2011-09-11T09:41:58Z</time>
      </trkpt>
      <trkpt lat="45.55195" lon="5.8373">
        <ele>759.1</ele>
        <time>2011-09-11T09:42:11Z</time>
      </trkpt>
      <trkpt lat="45.55195" lon="5.83723">
        <ele>760.06</ele>
        <time>2011-09-11T09:42:20Z</time>
      </trkpt>
      <trkpt lat="45.55195" lon="5.83718">
        <ele>760.06</ele>
        <time>2011-09-11T09:42:23Z</time>
      </trkpt>
      <trkpt lat="45.55183" lon="5.83699">
        <ele>763.9</ele>
        <time>2011-09-11T09:42:34Z</time>
      </trkpt>
      <trkpt lat="45.5518" lon="5.83693">
        <ele>764.39</ele>
        <time>2011-09-11T09:42:49Z</time>
      </trkpt>
      <trkpt lat="45.5518" lon="5.83693">
        <ele>765.83</ele>
        <time>2011-09-11T09:43:12Z</time>
      </trkpt>
      <trkpt lat="45.55177" lon="5.83688">
        <ele>767.27</ele>
        <time>2011-09-11T09:43:22Z</time>
      </trkpt>
      <trkpt lat="45.55168" lon="5.83678">
        <ele>769.19</ele>
        <time>2011-09-11T09:43:37Z</time>
      </trkpt>
      <trkpt lat="45.55161" lon="5.83685">
        <ele>772.08</ele>
        <time>2011-09-11T09:43:52Z</time>
      </trkpt>
      <trkpt lat="45.55151" lon="5.83689">
        <ele>774</ele>
        <time>2011-09-11T09:44:05Z</time>
      </trkpt>
      <trkpt lat="45.55148" lon="5.83686">
        <ele>775.44</ele>
        <time>2011-09-11T09:44:11Z</time>
      </trkpt>
      <trkpt lat="45.55146" lon="5.83672">
        <ele>777.84</ele>
        <time>2011-09-11T09:44:24Z</time>
      </trkpt>
      <trkpt lat="45.55141" lon="5.83662">
        <ele>778.81</ele>
        <time>2011-09-11T09:44:33Z</time>
      </trkpt>
      <trkpt lat="45.55128" lon="5.83669">
        <ele>781.69</ele>
        <time>2011-09-11T09:44:48Z</time>
      </trkpt>
      <trkpt lat="45.55126" lon="5.83685">
        <ele>784.09</ele>
        <time>2011-09-11T09:45:01Z</time>
      </trkpt>
      <trkpt lat="45.55123" lon="5.83692">
        <ele>785.53</ele>
        <time>2011-09-11T09:45:15Z</time>
      </trkpt>
      <trkpt lat="45.55119" lon="5.83695">
        <ele>786.02</ele>
        <time>2011-09-11T09:45:20Z</time>
      </trkpt>
      <trkpt lat="45.55109" lon="5.83695">
        <ele>788.9</ele>
        <time>2011-09-11T09:45:34Z</time>
      </trkpt>
      <trkpt lat="45.55098" lon="5.83684">
        <ele>791.78</ele>
        <time>2011-09-11T09:45:49Z</time>
      </trkpt>
      <trkpt lat="45.55092" lon="5.83677">
        <ele>793.71</ele>
        <time>2011-09-11T09:45:58Z</time>
      </trkpt>
      <trkpt lat="45.55084" lon="5.83668">
        <ele>794.67</ele>
        <time>2011-09-11T09:46:12Z</time>
      </trkpt>
      <trkpt lat="45.55073" lon="5.83657">
        <ele>798.51</ele>
        <time>2011-09-11T09:46:29Z</time>
      </trkpt>
      <trkpt lat="45.5507" lon="5.83648">
        <ele>799.47</ele>
        <time>2011-09-11T09:46:38Z</time>
      </trkpt>
      <trkpt lat="45.55069" lon="5.83647">
        <ele>799.47</ele>
        <time>2011-09-11T09:47:07Z</time>
      </trkpt>
      <trkpt lat="45.55069" lon="5.83648">
        <ele>799.95</ele>
        <time>2011-09-11T09:47:37Z</time>
      </trkpt>
      <trkpt lat="45.55064" lon="5.83648">
        <ele>801.4</ele>
        <time>2011-09-11T09:47:59Z</time>
      </trkpt>
      <trkpt lat="45.55056" lon="5.83647">
        <ele>804.28</ele>
        <time>2011-09-11T09:48:12Z</time>
      </trkpt>
      <trkpt lat="45.55055" lon="5.83646">
        <ele>805.24</ele>
        <time>2011-09-11T09:48:14Z</time>
      </trkpt>
      <trkpt lat="45.55046" lon="5.83641">
        <ele>808.13</ele>
        <time>2011-09-11T09:48:30Z</time>
      </trkpt>
      <trkpt lat="45.55039" lon="5.83643">
        <ele>810.53</ele>
        <time>2011-09-11T09:48:46Z</time>
      </trkpt>
      <trkpt lat="45.55034" lon="5.83641">
        <ele>811.97</ele>
        <time>2011-09-11T09:48:54Z</time>
      </trkpt>
      <trkpt lat="45.55024" lon="5.83634">
        <ele>814.37</ele>
        <time>2011-09-11T09:49:07Z</time>
      </trkpt>
      <trkpt lat="45.55018" lon="5.83626">
        <ele>817.26</ele>
        <time>2011-09-11T09:49:20Z</time>
      </trkpt>
      <trkpt lat="45.5501" lon="5.83621">
        <ele>818.7</ele>
        <time>2011-09-11T09:49:33Z</time>
      </trkpt>
      <trkpt lat="45.55002" lon="5.83622">
        <ele>821.1</ele>
        <time>2011-09-11T09:49:42Z</time>
      </trkpt>
      <trkpt lat="45.54993" lon="5.83626">
        <ele>821.58</ele>
        <time>2011-09-11T09:49:56Z</time>
      </trkpt>
      <trkpt lat="45.54993" lon="5.83626">
        <ele>822.06</ele>
        <time>2011-09-11T09:50:16Z</time>
      </trkpt>
      <trkpt lat="45.54987" lon="5.83624">
        <ele>822.06</ele>
        <time>2011-09-11T09:50:35Z</time>
      </trkpt>
      <trkpt lat="45.54983" lon="5.8362">
        <ele>822.55</ele>
        <time>2011-09-11T09:50:38Z</time>
      </trkpt>
      <trkpt lat="45.54976" lon="5.83611">
        <ele>824.47</ele>
        <time>2011-09-11T09:50:44Z</time>
      </trkpt>
      <trkpt lat="45.54966" lon="5.83593">
        <ele>825.43</ele>
        <time>2011-09-11T09:50:52Z</time>
      </trkpt>
      <trkpt lat="45.54961" lon="5.83581">
        <ele>827.35</ele>
        <time>2011-09-11T09:51:03Z</time>
      </trkpt>
      <trkpt lat="45.54957" lon="5.83576">
        <ele>829.76</ele>
        <time>2011-09-11T09:51:14Z</time>
      </trkpt>
      <trkpt lat="45.54952" lon="5.83573">
        <ele>830.24</ele>
        <time>2011-09-11T09:51:28Z</time>
      </trkpt>
      <trkpt lat="45.54952" lon="5.83573">
        <ele>830.24</ele>
        <time>2011-09-11T09:51:29Z</time>
      </trkpt>
      <trkpt lat="45.54932" lon="5.83567">
        <ele>832.16</ele>
        <time>2011-09-11T09:51:42Z</time>
      </trkpt>
      <trkpt lat="45.54923" lon="5.83564">
        <ele>834.08</ele>
        <time>2011-09-11T09:51:50Z</time>
      </trkpt>
      <trkpt lat="45.54905" lon="5.8355">
        <ele>836.48</ele>
        <time>2011-09-11T09:52:03Z</time>
      </trkpt>
      <trkpt lat="45.54884" lon="5.83549">
        <ele>836.96</ele>
        <time>2011-09-11T09:52:17Z</time>
      </trkpt>
      <trkpt lat="45.54881" lon="5.83548">
        <ele>837.45</ele>
        <time>2011-09-11T09:52:20Z</time>
      </trkpt>
      <trkpt lat="45.54873" lon="5.83545">
        <ele>839.37</ele>
        <time>2011-09-11T09:52:33Z</time>
      </trkpt>
      <trkpt lat="45.54867" lon="5.83538">
        <ele>842.73</ele>
        <time>2011-09-11T09:52:49Z</time>
      </trkpt>
      <trkpt lat="45.54867" lon="5.83529">
        <ele>844.18</ele>
        <time>2011-09-11T09:53:04Z</time>
      </trkpt>
      <trkpt lat="45.5487" lon="5.83529">
        <ele>845.62</ele>
        <time>2011-09-11T09:53:09Z</time>
      </trkpt>
      <trkpt lat="45.54874" lon="5.83528">
        <ele>846.1</ele>
        <time>2011-09-11T09:53:13Z</time>
      </trkpt>
      <trkpt lat="45.54876" lon="5.83516">
        <ele>848.5</ele>
        <time>2011-09-11T09:53:28Z</time>
      </trkpt>
      <trkpt lat="45.5488" lon="5.83519">
        <ele>849.94</ele>
        <time>2011-09-11T09:53:33Z</time>
      </trkpt>
      <trkpt lat="45.54882" lon="5.83517">
        <ele>850.42</ele>
        <time>2011-09-11T09:53:36Z</time>
      </trkpt>
      <trkpt lat="45.54892" lon="5.8351">
        <ele>852.83</ele>
        <time>2011-09-11T09:53:51Z</time>
      </trkpt>
      <trkpt lat="45.54895" lon="5.83507">
        <ele>853.79</ele>
        <time>2011-09-11T09:54:05Z</time>
      </trkpt>
      <trkpt lat="45.54899" lon="5.83503">
        <ele>854.75</ele>
        <time>2011-09-11T09:54:10Z</time>
      </trkpt>
      <trkpt lat="45.54898" lon="5.83495">
        <ele>857.15</ele>
        <time>2011-09-11T09:54:20Z</time>
      </trkpt>
      <trkpt lat="45.54885" lon="5.83492">
        <ele>859.08</ele>
        <time>2011-09-11T09:54:36Z</time>
      </trkpt>
      <trkpt lat="45.54875" lon="5.8349">
        <ele>861.48</ele>
        <time>2011-09-11T09:54:49Z</time>
      </trkpt>
      <trkpt lat="45.54871" lon="5.83482">
        <ele>862.44</ele>
        <time>2011-09-11T09:54:57Z</time>
      </trkpt>
      <trkpt lat="45.54868" lon="5.83471">
        <ele>865.32</ele>
        <time>2011-09-11T09:55:07Z</time>
      </trkpt>
      <trkpt lat="45.54863" lon="5.83462">
        <ele>866.77</ele>
        <time>2011-09-11T09:55:21Z</time>
      </trkpt>
      <trkpt lat="45.54863" lon="5.83457">
        <ele>867.73</ele>
        <time>2011-09-11T09:55:25Z</time>
      </trkpt>
      <trkpt lat="45.54861" lon="5.83448">
        <ele>868.69</ele>
        <time>2011-09-11T09:55:33Z</time>
      </trkpt>
      <trkpt lat="45.54875" lon="5.83451">
        <ele>870.61</ele>
        <time>2011-09-11T09:55:42Z</time>
      </trkpt>
      <trkpt lat="45.54883" lon="5.83457">
        <ele>872.05</ele>
        <time>2011-09-11T09:55:53Z</time>
      </trkpt>
      <trkpt lat="45.54884" lon="5.83446">
        <ele>874.46</ele>
        <time>2011-09-11T09:56:08Z</time>
      </trkpt>
      <trkpt lat="45.54883" lon="5.83434">
        <ele>876.86</ele>
        <time>2011-09-11T09:56:22Z</time>
      </trkpt>
      <trkpt lat="45.54879" lon="5.83419">
        <ele>879.26</ele>
        <time>2011-09-11T09:56:36Z</time>
      </trkpt>
      <trkpt lat="45.5487" lon="5.83409">
        <ele>881.19</ele>
        <time>2011-09-11T09:56:51Z</time>
      </trkpt>
      <trkpt lat="45.54863" lon="5.834">
        <ele>883.11</ele>
        <time>2011-09-11T09:57:00Z</time>
      </trkpt>
      <trkpt lat="45.54858" lon="5.8339">
        <ele>885.03</ele>
        <time>2011-09-11T09:57:11Z</time>
      </trkpt>
      <trkpt lat="45.54865" lon="5.83386">
        <ele>886.95</ele>
        <time>2011-09-11T09:57:19Z</time>
      </trkpt>
      <trkpt lat="45.54876" lon="5.83375">
        <ele>887.91</ele>
        <time>2011-09-11T09:57:28Z</time>
      </trkpt>
      <trkpt lat="45.54876" lon="5.83371">
        <ele>888.88</ele>
        <time>2011-09-11T09:57:32Z</time>
      </trkpt>
      <trkpt lat="45.54878" lon="5.83355">
        <ele>890.32</ele>
        <time>2011-09-11T09:57:46Z</time>
      </trkpt>
      <trkpt lat="45.54879" lon="5.83355">
        <ele>890.8</ele>
        <time>2011-09-11T09:57:48Z</time>
      </trkpt>
      <trkpt lat="45.54873" lon="5.8335">
        <ele>892.24</ele>
        <time>2011-09-11T09:57:57Z</time>
      </trkpt>
      <trkpt lat="45.54864" lon="5.83346">
        <ele>895.12</ele>
        <time>2011-09-11T09:58:10Z</time>
      </trkpt>
      <trkpt lat="45.54858" lon="5.83338">
        <ele>896.09</ele>
        <time>2011-09-11T09:58:20Z</time>
      </trkpt>
      <trkpt lat="45.54849" lon="5.83317">
        <ele>896.57</ele>
        <time>2011-09-11T09:58:36Z</time>
      </trkpt>
      <trkpt lat="45.54846" lon="5.83315">
        <ele>896.57</ele>
        <time>2011-09-11T09:58:50Z</time>
      </trkpt>
      <trkpt lat="45.54846" lon="5.83315">
        <ele>897.05</ele>
        <time>2011-09-11T09:59:12Z</time>
      </trkpt>
      <trkpt lat="45.54846" lon="5.83314">
        <ele>897.05</ele>
        <time>2011-09-11T09:59:46Z</time>
      </trkpt>
      <trkpt lat="45.54845" lon="5.83314">
        <ele>898.49</ele>
        <time>2011-09-11T10:00:24Z</time>
      </trkpt>
      <trkpt lat="45.54845" lon="5.83313">
        <ele>898.97</ele>
        <time>2011-09-11T10:00:58Z</time>
      </trkpt>
      <trkpt lat="45.54846" lon="5.83313">
        <ele>898.49</ele>
        <time>2011-09-11T10:01:32Z</time>
      </trkpt>
      <trkpt lat="45.54846" lon="5.83313">
        <ele>898.49</ele>
        <time>2011-09-11T10:01:56Z</time>
      </trkpt>
      <trkpt lat="45.54831" lon="5.83296">
        <ele>895.61</ele>
        <time>2011-09-11T10:02:11Z</time>
      </trkpt>
      <trkpt lat="45.54826" lon="5.83292">
        <ele>895.12</ele>
        <time>2011-09-11T10:02:13Z</time>
      </trkpt>
      <trkpt lat="45.54801" lon="5.83268">
        <ele>891.76</ele>
        <time>2011-09-11T10:02:24Z</time>
      </trkpt>
      <trkpt lat="45.54799" lon="5.83265">
        <ele>891.76</ele>
        <time>2011-09-11T10:02:25Z</time>
      </trkpt>
      <trkpt lat="45.54755" lon="5.83234">
        <ele>892.72</ele>
        <time>2011-09-11T10:02:36Z</time>
      </trkpt>
      <trkpt lat="45.54719" lon="5.83224">
        <ele>896.09</ele>
        <time>2011-09-11T10:02:48Z</time>
      </trkpt>
      <trkpt lat="45.54696" lon="5.83202">
        <ele>898.49</ele>
        <time>2011-09-11T10:03:00Z</time>
      </trkpt>
      <trkpt lat="45.54685" lon="5.83176">
        <ele>899.45</ele>
        <time>2011-09-11T10:03:07Z</time>
      </trkpt>
      <trkpt lat="45.54682" lon="5.83162">
        <ele>899.93</ele>
        <time>2011-09-11T10:03:16Z</time>
      </trkpt>
      <trkpt lat="45.54683" lon="5.83161">
        <ele>899.93</ele>
        <time>2011-09-11T10:03:37Z</time>
      </trkpt>
      <trkpt lat="45.54688" lon="5.83157">
        <ele>899.45</ele>
        <time>2011-09-11T10:03:43Z</time>
      </trkpt>
      <trkpt lat="45.54694" lon="5.83139">
        <ele>896.09</ele>
        <time>2011-09-11T10:03:49Z</time>
      </trkpt>
      <trkpt lat="45.54694" lon="5.83133">
        <ele>895.12</ele>
        <time>2011-09-11T10:03:51Z</time>
      </trkpt>
      <trkpt lat="45.54693" lon="5.8313">
        <ele>893.68</ele>
        <time>2011-09-11T10:03:52Z</time>
      </trkpt>
      <trkpt lat="45.54681" lon="5.83105">
        <ele>890.8</ele>
        <time>2011-09-11T10:04:00Z</time>
      </trkpt>
      <trkpt lat="45.54653" lon="5.83074">
        <ele>887.43</ele>
        <time>2011-09-11T10:04:08Z</time>
      </trkpt>
      <trkpt lat="45.54649" lon="5.83072">
        <ele>886.95</ele>
        <time>2011-09-11T10:04:09Z</time>
      </trkpt>
      <trkpt lat="45.54633" lon="5.83059">
        <ele>885.03</ele>
        <time>2011-09-11T10:04:21Z</time>
      </trkpt>
      <trkpt lat="45.54639" lon="5.83051">
        <ele>884.55</ele>
        <time>2011-09-11T10:04:28Z</time>
      </trkpt>
      <trkpt lat="45.54652" lon="5.83053">
        <ele>883.11</ele>
        <time>2011-09-11T10:04:35Z</time>
      </trkpt>
      <trkpt lat="45.54663" lon="5.83049">
        <ele>880.71</ele>
        <time>2011-09-11T10:04:40Z</time>
      </trkpt>
      <trkpt lat="45.54693" lon="5.83058">
        <ele>881.19</ele>
        <time>2011-09-11T10:04:52Z</time>
      </trkpt>
      <trkpt lat="45.54723" lon="5.83083">
        <ele>882.63</ele>
        <time>2011-09-11T10:05:05Z</time>
      </trkpt>
      <trkpt lat="45.54755" lon="5.83098">
        <ele>881.67</ele>
        <time>2011-09-11T10:05:16Z</time>
      </trkpt>
      <trkpt lat="45.54775" lon="5.83101">
        <ele>878.3</ele>
        <time>2011-09-11T10:05:23Z</time>
      </trkpt>
      <trkpt lat="45.54788" lon="5.83098">
        <ele>875.9</ele>
        <time>2011-09-11T10:05:28Z</time>
      </trkpt>
      <trkpt lat="45.54827" lon="5.83105">
        <ele>874.94</ele>
        <time>2011-09-11T10:05:43Z</time>
      </trkpt>
      <trkpt lat="45.54837" lon="5.831">
        <ele>874.94</ele>
        <time>2011-09-11T10:05:49Z</time>
      </trkpt>
      <trkpt lat="45.54853" lon="5.83082">
        <ele>874.46</ele>
        <time>2011-09-11T10:05:58Z</time>
      </trkpt>
      <trkpt lat="45.54857" lon="5.83077">
        <ele>873.98</ele>
        <time>2011-09-11T10:06:03Z</time>
      </trkpt>
      <trkpt lat="45.54865" lon="5.83074">
        <ele>873.5</ele>
        <time>2011-09-11T10:06:08Z</time>
      </trkpt>
      <trkpt lat="45.54892" lon="5.83038">
        <ele>870.61</ele>
        <time>2011-09-11T10:06:19Z</time>
      </trkpt>
      <trkpt lat="45.54905" lon="5.83003">
        <ele>867.25</ele>
        <time>2011-09-11T10:06:28Z</time>
      </trkpt>
      <trkpt lat="45.54941" lon="5.82971">
        <ele>865.8</ele>
        <time>2011-09-11T10:06:40Z</time>
      </trkpt>
      <trkpt lat="45.5496" lon="5.82972">
        <ele>864.36</ele>
        <time>2011-09-11T10:06:43Z</time>
      </trkpt>
      <trkpt lat="45.54965" lon="5.8297">
        <ele>863.4</ele>
        <time>2011-09-11T10:06:44Z</time>
      </trkpt>
      <trkpt lat="45.54968" lon="5.82965">
        <ele>862.44</ele>
        <time>2011-09-11T10:06:46Z</time>
      </trkpt>
      <trkpt lat="45.55007" lon="5.8298">
        <ele>858.11</ele>
        <time>2011-09-11T10:06:58Z</time>
      </trkpt>
      <trkpt lat="45.55022" lon="5.82982">
        <ele>854.75</ele>
        <time>2011-09-11T10:07:02Z</time>
      </trkpt>
      <trkpt lat="45.55039" lon="5.82978">
        <ele>851.87</ele>
        <time>2011-09-11T10:07:06Z</time>
      </trkpt>
      <trkpt lat="45.55066" lon="5.82983">
        <ele>850.9</ele>
        <time>2011-09-11T10:07:20Z</time>
      </trkpt>
      <trkpt lat="45.55066" lon="5.82983">
        <ele>850.42</ele>
        <time>2011-09-11T10:07:51Z</time>
      </trkpt>
      <trkpt lat="45.55066" lon="5.82983">
        <ele>850.42</ele>
        <time>2011-09-11T10:08:29Z</time>
      </trkpt>
      <trkpt lat="45.5507" lon="5.82977">
        <ele>847.54</ele>
        <time>2011-09-11T10:09:09Z</time>
      </trkpt>
      <trkpt lat="45.55072" lon="5.82975">
        <ele>846.58</ele>
        <time>2011-09-11T10:09:10Z</time>
      </trkpt>
      <trkpt lat="45.55076" lon="5.82972">
        <ele>845.62</ele>
        <time>2011-09-11T10:09:12Z</time>
      </trkpt>
      <trkpt lat="45.55085" lon="5.82972">
        <ele>846.58</ele>
        <time>2011-09-11T10:09:15Z</time>
      </trkpt>
      <trkpt lat="45.55098" lon="5.82978">
        <ele>846.1</ele>
        <time>2011-09-11T10:09:26Z</time>
      </trkpt>
      <trkpt lat="45.55131" lon="5.82957">
        <ele>847.06</ele>
        <time>2011-09-11T10:09:35Z</time>
      </trkpt>
      <trkpt lat="45.55165" lon="5.82945">
        <ele>848.5</ele>
        <time>2011-09-11T10:09:39Z</time>
      </trkpt>
      <trkpt lat="45.55168" lon="5.82939">
        <ele>848.98</ele>
        <time>2011-09-11T10:09:41Z</time>
      </trkpt>
      <trkpt lat="45.55167" lon="5.82938">
        <ele>848.5</ele>
        <time>2011-09-11T10:10:09Z</time>
      </trkpt>
      <trkpt lat="45.55167" lon="5.82937">
        <ele>848.5</ele>
        <time>2011-09-11T10:10:43Z</time>
      </trkpt>
      <trkpt lat="45.55166" lon="5.82937">
        <ele>848.02</ele>
        <time>2011-09-11T10:11:22Z</time>
      </trkpt>
      <trkpt lat="45.55169" lon="5.82937">
        <ele>848.98</ele>
        <time>2011-09-11T10:11:46Z</time>
      </trkpt>
      <trkpt lat="45.55178" lon="5.82937">
        <ele>850.42</ele>
        <time>2011-09-11T10:11:51Z</time>
      </trkpt>
      <trkpt lat="45.55185" lon="5.82933">
        <ele>851.38</ele>
        <time>2011-09-11T10:11:55Z</time>
      </trkpt>
      <trkpt lat="45.55188" lon="5.82929">
        <ele>850.9</ele>
        <time>2011-09-11T10:12:10Z</time>
      </trkpt>
      <trkpt lat="45.55188" lon="5.82928">
        <ele>851.87</ele>
        <time>2011-09-11T10:12:42Z</time>
      </trkpt>
      <trkpt lat="45.55194" lon="5.82925">
        <ele>850.42</ele>
        <time>2011-09-11T10:12:51Z</time>
      </trkpt>
      <trkpt lat="45.55224" lon="5.82913">
        <ele>850.42</ele>
        <time>2011-09-11T10:13:01Z</time>
      </trkpt>
      <trkpt lat="45.55232" lon="5.82907">
        <ele>851.38</ele>
        <time>2011-09-11T10:13:18Z</time>
      </trkpt>
      <trkpt lat="45.55232" lon="5.82908">
        <ele>851.38</ele>
        <time>2011-09-11T10:13:54Z</time>
      </trkpt>
      <trkpt lat="45.55232" lon="5.82908">
        <ele>848.02</ele>
        <time>2011-09-11T10:14:07Z</time>
      </trkpt>
      <trkpt lat="45.55228" lon="5.82907">
        <ele>846.58</ele>
        <time>2011-09-11T10:14:08Z</time>
      </trkpt>
      <trkpt lat="45.55222" lon="5.82904">
        <ele>845.62</ele>
        <time>2011-09-11T10:14:10Z</time>
      </trkpt>
      <trkpt lat="45.55212" lon="5.82898">
        <ele>844.66</ele>
        <time>2011-09-11T10:14:14Z</time>
      </trkpt>
      <trkpt lat="45.55203" lon="5.82895">
        <ele>843.21</ele>
        <time>2011-09-11T10:14:19Z</time>
      </trkpt>
      <trkpt lat="45.55193" lon="5.82896">
        <ele>839.85</ele>
        <time>2011-09-11T10:14:27Z</time>
      </trkpt>
      <trkpt lat="45.55191" lon="5.82897">
        <ele>839.37</ele>
        <time>2011-09-11T10:14:28Z</time>
      </trkpt>
      <trkpt lat="45.55179" lon="5.82894">
        <ele>836.48</ele>
        <time>2011-09-11T10:14:33Z</time>
      </trkpt>
      <trkpt lat="45.55171" lon="5.82873">
        <ele>835.52</ele>
        <time>2011-09-11T10:14:45Z</time>
      </trkpt>
      <trkpt lat="45.55167" lon="5.82859">
        <ele>833.6</ele>
        <time>2011-09-11T10:14:49Z</time>
      </trkpt>
      <trkpt lat="45.55164" lon="5.82852">
        <ele>832.16</ele>
        <time>2011-09-11T10:14:52Z</time>
      </trkpt>
      <trkpt lat="45.55145" lon="5.82841">
        <ele>828.79</ele>
        <time>2011-09-11T10:15:00Z</time>
      </trkpt>
      <trkpt lat="45.55134" lon="5.82835">
        <ele>825.91</ele>
        <time>2011-09-11T10:15:05Z</time>
      </trkpt>
      <trkpt lat="45.55132" lon="5.82824">
        <ele>823.03</ele>
        <time>2011-09-11T10:15:09Z</time>
      </trkpt>
      <trkpt lat="45.55133" lon="5.82799">
        <ele>819.18</ele>
        <time>2011-09-11T10:15:14Z</time>
      </trkpt>
      <trkpt lat="45.55133" lon="5.82769">
        <ele>815.82</ele>
        <time>2011-09-11T10:15:20Z</time>
      </trkpt>
      <trkpt lat="45.55136" lon="5.82758">
        <ele>814.85</ele>
        <time>2011-09-11T10:15:22Z</time>
      </trkpt>
      <trkpt lat="45.55143" lon="5.82739">
        <ele>811.49</ele>
        <time>2011-09-11T10:15:25Z</time>
      </trkpt>
      <trkpt lat="45.55149" lon="5.82701">
        <ele>808.61</ele>
        <time>2011-09-11T10:15:32Z</time>
      </trkpt>
      <trkpt lat="45.5515" lon="5.82686">
        <ele>806.68</ele>
        <time>2011-09-11T10:15:35Z</time>
      </trkpt>
      <trkpt lat="45.55158" lon="5.82665">
        <ele>803.8</ele>
        <time>2011-09-11T10:15:42Z</time>
      </trkpt>
      <trkpt lat="45.55161" lon="5.82634">
        <ele>801.4</ele>
        <time>2011-09-11T10:15:51Z</time>
      </trkpt>
      <trkpt lat="45.55159" lon="5.82623">
        <ele>799.47</ele>
        <time>2011-09-11T10:15:55Z</time>
      </trkpt>
      <trkpt lat="45.55156" lon="5.82615">
        <ele>798.03</ele>
        <time>2011-09-11T10:15:58Z</time>
      </trkpt>
      <trkpt lat="45.55159" lon="5.82604">
        <ele>794.67</ele>
        <time>2011-09-11T10:16:04Z</time>
      </trkpt>
      <trkpt lat="45.55161" lon="5.82602">
        <ele>794.67</ele>
        <time>2011-09-11T10:16:05Z</time>
      </trkpt>
      <trkpt lat="45.55165" lon="5.82593">
        <ele>792.26</ele>
        <time>2011-09-11T10:16:09Z</time>
      </trkpt>
      <trkpt lat="45.55168" lon="5.82588">
        <ele>792.26</ele>
        <time>2011-09-11T10:16:28Z</time>
      </trkpt>
      <trkpt lat="45.55167" lon="5.82587">
        <ele>792.74</ele>
        <time>2011-09-11T10:16:48Z</time>
      </trkpt>
      <trkpt lat="45.55167" lon="5.82588">
        <ele>792.26</ele>
        <time>2011-09-11T10:17:22Z</time>
      </trkpt>
      <trkpt lat="45.55167" lon="5.82588">
        <ele>791.78</ele>
        <time>2011-09-11T10:18:01Z</time>
      </trkpt>
      <trkpt lat="45.55166" lon="5.82589">
        <ele>792.26</ele>
        <time>2011-09-11T10:18:34Z</time>
      </trkpt>
      <trkpt lat="45.55166" lon="5.82589">
        <ele>791.78</ele>
        <time>2011-09-11T10:19:18Z</time>
      </trkpt>
      <trkpt lat="45.55166" lon="5.82589">
        <ele>792.74</ele>
        <time>2011-09-11T10:19:55Z</time>
      </trkpt>
      <trkpt lat="45.55168" lon="5.82591">
        <ele>792.26</ele>
        <time>2011-09-11T10:20:31Z</time>
      </trkpt>
      <trkpt lat="45.5517" lon="5.82593">
        <ele>791.78</ele>
        <time>2011-09-11T10:20:36Z</time>
      </trkpt>
      <trkpt lat="45.55174" lon="5.826">
        <ele>790.34</ele>
        <time>2011-09-11T10:20:47Z</time>
      </trkpt>
      <trkpt lat="45.55175" lon="5.826">
        <ele>789.86</ele>
        <time>2011-09-11T10:20:48Z</time>
      </trkpt>
      <trkpt lat="45.55179" lon="5.82593">
        <ele>788.42</ele>
        <time>2011-09-11T10:21:01Z</time>
      </trkpt>
      <trkpt lat="45.55183" lon="5.82591">
        <ele>786.02</ele>
        <time>2011-09-11T10:21:12Z</time>
      </trkpt>
      <trkpt lat="45.55185" lon="5.82583">
        <ele>783.13</ele>
        <time>2011-09-11T10:21:26Z</time>
      </trkpt>
      <trkpt lat="45.55186" lon="5.82582">
        <ele>782.17</ele>
        <time>2011-09-11T10:21:27Z</time>
      </trkpt>
      <trkpt lat="45.55194" lon="5.82577">
        <ele>780.25</ele>
        <time>2011-09-11T10:21:32Z</time>
      </trkpt>
      <trkpt lat="45.55188" lon="5.82575">
        <ele>778.81</ele>
        <time>2011-09-11T10:21:36Z</time>
      </trkpt>
      <trkpt lat="45.55184" lon="5.82571">
        <ele>776.4</ele>
        <time>2011-09-11T10:21:40Z</time>
      </trkpt>
      <trkpt lat="45.55182" lon="5.82567">
        <ele>774.48</ele>
        <time>2011-09-11T10:21:42Z</time>
      </trkpt>
      <trkpt lat="45.55178" lon="5.82553">
        <ele>770.63</ele>
        <time>2011-09-11T10:21:48Z</time>
      </trkpt>
      <trkpt lat="45.55172" lon="5.82546">
        <ele>767.27</ele>
        <time>2011-09-11T10:21:53Z</time>
      </trkpt>
      <trkpt lat="45.55169" lon="5.82546">
        <ele>766.31</ele>
        <time>2011-09-11T10:21:55Z</time>
      </trkpt>
      <trkpt lat="45.55164" lon="5.82545">
        <ele>763.9</ele>
        <time>2011-09-11T10:21:59Z</time>
      </trkpt>
      <trkpt lat="45.55156" lon="5.82541">
        <ele>760.54</ele>
        <time>2011-09-11T10:22:10Z</time>
      </trkpt>
      <trkpt lat="45.55156" lon="5.82539">
        <ele>760.54</ele>
        <time>2011-09-11T10:22:45Z</time>
      </trkpt>
      <trkpt lat="45.55153" lon="5.82534">
        <ele>756.69</ele>
        <time>2011-09-11T10:22:51Z</time>
      </trkpt>
      <trkpt lat="45.55152" lon="5.82534">
        <ele>756.69</ele>
        <time>2011-09-11T10:22:52Z</time>
      </trkpt>
      <trkpt lat="45.55151" lon="5.82532">
        <ele>756.21</ele>
        <time>2011-09-11T10:22:58Z</time>
      </trkpt>
      <trkpt lat="45.55155" lon="5.82532">
        <ele>755.25</ele>
        <time>2011-09-11T10:23:04Z</time>
      </trkpt>
      <trkpt lat="45.55158" lon="5.82532">
        <ele>755.73</ele>
        <time>2011-09-11T10:23:06Z</time>
      </trkpt>
      <trkpt lat="45.55161" lon="5.82531">
        <ele>755.25</ele>
        <time>2011-09-11T10:23:09Z</time>
      </trkpt>
      <trkpt lat="45.55165" lon="5.82527">
        <ele>754.29</ele>
        <time>2011-09-11T10:23:13Z</time>
      </trkpt>
      <trkpt lat="45.55167" lon="5.82525">
        <ele>753.81</ele>
        <time>2011-09-11T10:23:20Z</time>
      </trkpt>
      <trkpt lat="45.55175" lon="5.82523">
        <ele>750.93</ele>
        <time>2011-09-11T10:23:33Z</time>
      </trkpt>
      <trkpt lat="45.5518" lon="5.82521">
        <ele>749.49</ele>
        <time>2011-09-11T10:23:36Z</time>
      </trkpt>
      <trkpt lat="45.55184" lon="5.82515">
        <ele>747.56</ele>
        <time>2011-09-11T10:23:40Z</time>
      </trkpt>
      <trkpt lat="45.55185" lon="5.82514">
        <ele>746.6</ele>
        <time>2011-09-11T10:23:41Z</time>
      </trkpt>
      <trkpt lat="45.55188" lon="5.82504">
        <ele>744.2</ele>
        <time>2011-09-11T10:23:56Z</time>
      </trkpt>
      <trkpt lat="45.55187" lon="5.82503">
        <ele>743.72</ele>
        <time>2011-09-11T10:24:07Z</time>
      </trkpt>
      <trkpt lat="45.55185" lon="5.82502">
        <ele>742.28</ele>
        <time>2011-09-11T10:24:09Z</time>
      </trkpt>
      <trkpt lat="45.55176" lon="5.82501">
        <ele>739.39</ele>
        <time>2011-09-11T10:24:23Z</time>
      </trkpt>
      <trkpt lat="45.55174" lon="5.82494">
        <ele>736.03</ele>
        <time>2011-09-11T10:24:27Z</time>
      </trkpt>
      <trkpt lat="45.55175" lon="5.82489">
        <ele>735.55</ele>
        <time>2011-09-11T10:24:29Z</time>
      </trkpt>
      <trkpt lat="45.55172" lon="5.82479">
        <ele>731.22</ele>
        <time>2011-09-11T10:24:34Z</time>
      </trkpt>
      <trkpt lat="45.5517" lon="5.82478">
        <ele>730.26</ele>
        <time>2011-09-11T10:24:35Z</time>
      </trkpt>
      <trkpt lat="45.55166" lon="5.82478">
        <ele>729.78</ele>
        <time>2011-09-11T10:24:37Z</time>
      </trkpt>
      <trkpt lat="45.55152" lon="5.82484">
        <ele>725.45</ele>
        <time>2011-09-11T10:24:41Z</time>
      </trkpt>
      <trkpt lat="45.55149" lon="5.82484">
        <ele>724.49</ele>
        <time>2011-09-11T10:24:42Z</time>
      </trkpt>
      <trkpt lat="45.55137" lon="5.82484">
        <ele>721.61</ele>
        <time>2011-09-11T10:24:51Z</time>
      </trkpt>
      <trkpt lat="45.55136" lon="5.82475">
        <ele>720.16</ele>
        <time>2011-09-11T10:24:56Z</time>
      </trkpt>
      <trkpt lat="45.55138" lon="5.82466">
        <ele>718.24</ele>
        <time>2011-09-11T10:25:05Z</time>
      </trkpt>
      <trkpt lat="45.55135" lon="5.82465">
        <ele>716.32</ele>
        <time>2011-09-11T10:25:09Z</time>
      </trkpt>
      <trkpt lat="45.55131" lon="5.82468">
        <ele>714.4</ele>
        <time>2011-09-11T10:25:17Z</time>
      </trkpt>
      <trkpt lat="45.55124" lon="5.8247">
        <ele>712.47</ele>
        <time>2011-09-11T10:25:25Z</time>
      </trkpt>
      <trkpt lat="45.5512" lon="5.82469">
        <ele>709.11</ele>
        <time>2011-09-11T10:25:37Z</time>
      </trkpt>
      <trkpt lat="45.5512" lon="5.82469">
        <ele>709.59</ele>
        <time>2011-09-11T10:25:38Z</time>
      </trkpt>
      <trkpt lat="45.55115" lon="5.8246">
        <ele>706.23</ele>
        <time>2011-09-11T10:25:51Z</time>
      </trkpt>
      <trkpt lat="45.55111" lon="5.82464">
        <ele>705.75</ele>
        <time>2011-09-11T10:26:01Z</time>
      </trkpt>
      <trkpt lat="45.55105" lon="5.8247">
        <ele>702.86</ele>
        <time>2011-09-11T10:26:07Z</time>
      </trkpt>
      <trkpt lat="45.55103" lon="5.82472">
        <ele>701.42</ele>
        <time>2011-09-11T10:26:09Z</time>
      </trkpt>
      <trkpt lat="45.55099" lon="5.82473">
        <ele>699.02</ele>
        <time>2011-09-11T10:26:16Z</time>
      </trkpt>
      <trkpt lat="45.55096" lon="5.82471">
        <ele>698.53</ele>
        <time>2011-09-11T10:26:18Z</time>
      </trkpt>
      <trkpt lat="45.55085" lon="5.82471">
        <ele>693.73</ele>
        <time>2011-09-11T10:26:23Z</time>
      </trkpt>
      <trkpt lat="45.55076" lon="5.82464">
        <ele>689.88</ele>
        <time>2011-09-11T10:26:28Z</time>
      </trkpt>
      <trkpt lat="45.55074" lon="5.82463">
        <ele>689.88</ele>
        <time>2011-09-11T10:26:29Z</time>
      </trkpt>
      <trkpt lat="45.55066" lon="5.82459">
        <ele>687</ele>
        <time>2011-09-11T10:26:33Z</time>
      </trkpt>
      <trkpt lat="45.55059" lon="5.82457">
        <ele>683.63</ele>
        <time>2011-09-11T10:26:37Z</time>
      </trkpt>
      <trkpt lat="45.55057" lon="5.82456">
        <ele>682.67</ele>
        <time>2011-09-11T10:26:39Z</time>
      </trkpt>
      <trkpt lat="45.55055" lon="5.82443">
        <ele>680.27</ele>
        <time>2011-09-11T10:26:44Z</time>
      </trkpt>
      <trkpt lat="45.55053" lon="5.82439">
        <ele>678.83</ele>
        <time>2011-09-11T10:26:46Z</time>
      </trkpt>
      <trkpt lat="45.55051" lon="5.82424">
        <ele>674.5</ele>
        <time>2011-09-11T10:26:52Z</time>
      </trkpt>
      <trkpt lat="45.55048" lon="5.82417">
        <ele>671.14</ele>
        <time>2011-09-11T10:26:56Z</time>
      </trkpt>
      <trkpt lat="45.55048" lon="5.82416">
        <ele>671.14</ele>
        <time>2011-09-11T10:26:57Z</time>
      </trkpt>
      <trkpt lat="45.55036" lon="5.82406">
        <ele>667.29</ele>
        <time>2011-09-11T10:27:04Z</time>
      </trkpt>
      <trkpt lat="45.55032" lon="5.82393">
        <ele>664.41</ele>
        <time>2011-09-11T10:27:08Z</time>
      </trkpt>
      <trkpt lat="45.55027" lon="5.82379">
        <ele>662.01</ele>
        <time>2011-09-11T10:27:21Z</time>
      </trkpt>
      <trkpt lat="45.55027" lon="5.82379">
        <ele>662.01</ele>
        <time>2011-09-11T10:27:56Z</time>
      </trkpt>
      <trkpt lat="45.55027" lon="5.8238">
        <ele>662.49</ele>
        <time>2011-09-11T10:28:24Z</time>
      </trkpt>
      <trkpt lat="45.55027" lon="5.8238">
        <ele>662.49</ele>
        <time>2011-09-11T10:28:55Z</time>
      </trkpt>
      <trkpt lat="45.55027" lon="5.82366">
        <ele>660.56</ele>
        <time>2011-09-11T10:29:04Z</time>
      </trkpt>
      <trkpt lat="45.55033" lon="5.82356">
        <ele>659.12</ele>
        <time>2011-09-11T10:29:07Z</time>
      </trkpt>
      <trkpt lat="45.55041" lon="5.82344">
        <ele>657.68</ele>
        <time>2011-09-11T10:29:10Z</time>
      </trkpt>
      <trkpt lat="45.55057" lon="5.82316">
        <ele>653.35</ele>
        <time>2011-09-11T10:29:16Z</time>
      </trkpt>
      <trkpt lat="45.55065" lon="5.82301">
        <ele>650.95</ele>
        <time>2011-09-11T10:29:19Z</time>
      </trkpt>
      <trkpt lat="45.55066" lon="5.82285">
        <ele>647.1</ele>
        <time>2011-09-11T10:29:24Z</time>
      </trkpt>
      <trkpt lat="45.55059" lon="5.82282">
        <ele>645.18</ele>
        <time>2011-09-11T10:29:27Z</time>
      </trkpt>
      <trkpt lat="45.55049" lon="5.82287">
        <ele>641.82</ele>
        <time>2011-09-11T10:29:30Z</time>
      </trkpt>
      <trkpt lat="45.55042" lon="5.82291">
        <ele>638.93</ele>
        <time>2011-09-11T10:29:33Z</time>
      </trkpt>
      <trkpt lat="45.5503" lon="5.8229">
        <ele>637.01</ele>
        <time>2011-09-11T10:29:37Z</time>
      </trkpt>
      <trkpt lat="45.55017" lon="5.82289">
        <ele>631.72</ele>
        <time>2011-09-11T10:29:42Z</time>
      </trkpt>
      <trkpt lat="45.55014" lon="5.82289">
        <ele>631.72</ele>
        <time>2011-09-11T10:29:43Z</time>
      </trkpt>
      <trkpt lat="45.55004" lon="5.82285">
        <ele>628.84</ele>
        <time>2011-09-11T10:29:47Z</time>
      </trkpt>
      <trkpt lat="45.54993" lon="5.8228">
        <ele>625.96</ele>
        <time>2011-09-11T10:29:51Z</time>
      </trkpt>
      <trkpt lat="45.54979" lon="5.82282">
        <ele>622.11</ele>
        <time>2011-09-11T10:29:56Z</time>
      </trkpt>
      <trkpt lat="45.54974" lon="5.82282">
        <ele>621.15</ele>
        <time>2011-09-11T10:29:58Z</time>
      </trkpt>
      <trkpt lat="45.54967" lon="5.82268">
        <ele>617.3</ele>
        <time>2011-09-11T10:30:05Z</time>
      </trkpt>
      <trkpt lat="45.54973" lon="5.82261">
        <ele>615.86</ele>
        <time>2011-09-11T10:30:16Z</time>
      </trkpt>
      <trkpt lat="45.54975" lon="5.8226">
        <ele>616.34</ele>
        <time>2011-09-11T10:30:21Z</time>
      </trkpt>
      <trkpt lat="45.54977" lon="5.82258">
        <ele>615.86</ele>
        <time>2011-09-11T10:30:35Z</time>
      </trkpt>
      <trkpt lat="45.54982" lon="5.82252">
        <ele>612.02</ele>
        <time>2011-09-11T10:30:44Z</time>
      </trkpt>
      <trkpt lat="45.54984" lon="5.82251">
        <ele>612.5</ele>
        <time>2011-09-11T10:30:45Z</time>
      </trkpt>
      <trkpt lat="45.54981" lon="5.82237">
        <ele>609.13</ele>
        <time>2011-09-11T10:30:52Z</time>
      </trkpt>
      <trkpt lat="45.54976" lon="5.82234">
        <ele>607.21</ele>
        <time>2011-09-11T10:30:54Z</time>
      </trkpt>
      <trkpt lat="45.54972" lon="5.82228">
        <ele>606.25</ele>
        <time>2011-09-11T10:30:56Z</time>
      </trkpt>
      <trkpt lat="45.54967" lon="5.82211">
        <ele>602.88</ele>
        <time>2011-09-11T10:31:00Z</time>
      </trkpt>
      <trkpt lat="45.54969" lon="5.82189">
        <ele>600.96</ele>
        <time>2011-09-11T10:31:13Z</time>
      </trkpt>
      <trkpt lat="45.54969" lon="5.82189">
        <ele>600.48</ele>
        <time>2011-09-11T10:31:33Z</time>
      </trkpt>
      <trkpt lat="45.54966" lon="5.8219">
        <ele>600.96</ele>
        <time>2011-09-11T10:31:52Z</time>
      </trkpt>
      <trkpt lat="45.54963" lon="5.82192">
        <ele>600</ele>
        <time>2011-09-11T10:31:54Z</time>
      </trkpt>
      <trkpt lat="45.54945" lon="5.82197">
        <ele>596.15</ele>
        <time>2011-09-11T10:32:00Z</time>
      </trkpt>
      <trkpt lat="45.5494" lon="5.82199">
        <ele>596.64</ele>
        <time>2011-09-11T10:32:01Z</time>
      </trkpt>
      <trkpt lat="45.54924" lon="5.82204">
        <ele>593.75</ele>
        <time>2011-09-11T10:32:05Z</time>
      </trkpt>
      <trkpt lat="45.54895" lon="5.82216">
        <ele>589.43</ele>
        <time>2011-09-11T10:32:10Z</time>
      </trkpt>
      <trkpt lat="45.54877" lon="5.82218">
        <ele>587.02</ele>
        <time>2011-09-11T10:32:12Z</time>
      </trkpt>
      <trkpt lat="45.5486" lon="5.82219">
        <ele>586.54</ele>
        <time>2011-09-11T10:32:14Z</time>
      </trkpt>
      <trkpt lat="45.54853" lon="5.82218">
        <ele>586.54</ele>
        <time>2011-09-11T10:32:15Z</time>
      </trkpt>
      <trkpt lat="45.54847" lon="5.82217">
        <ele>585.58</ele>
        <time>2011-09-11T10:32:16Z</time>
      </trkpt>
      <trkpt lat="45.54842" lon="5.82216">
        <ele>585.1</ele>
        <time>2011-09-11T10:32:17Z</time>
      </trkpt>
      <trkpt lat="45.54784" lon="5.82202">
        <ele>583.66</ele>
        <time>2011-09-11T10:32:27Z</time>
      </trkpt>
      <trkpt lat="45.5478" lon="5.82202">
        <ele>583.66</ele>
        <time>2011-09-11T10:32:36Z</time>
      </trkpt>
      <trkpt lat="45.54776" lon="5.82202">
        <ele>582.7</ele>
        <time>2011-09-11T10:32:57Z</time>
      </trkpt>
      <trkpt lat="45.5476" lon="5.82188">
        <ele>580.77</ele>
        <time>2011-09-11T10:33:02Z</time>
      </trkpt>
      <trkpt lat="45.54758" lon="5.82183">
        <ele>580.77</ele>
        <time>2011-09-11T10:33:03Z</time>
      </trkpt>
      <trkpt lat="45.54749" lon="5.82166">
        <ele>579.33</ele>
        <time>2011-09-11T10:33:12Z</time>
      </trkpt>
      <trkpt lat="45.54746" lon="5.82162">
        <ele>579.33</ele>
        <time>2011-09-11T10:33:24Z</time>
      </trkpt>
      <trkpt lat="45.54729" lon="5.82141">
        <ele>576.45</ele>
        <time>2011-09-11T10:33:38Z</time>
      </trkpt>
      <trkpt lat="45.54717" lon="5.8213">
        <ele>574.53</ele>
        <time>2011-09-11T10:33:41Z</time>
      </trkpt>
      <trkpt lat="45.54712" lon="5.82126">
        <ele>574.04</ele>
        <time>2011-09-11T10:33:42Z</time>
      </trkpt>
      <trkpt lat="45.54708" lon="5.82124">
        <ele>573.08</ele>
        <time>2011-09-11T10:33:43Z</time>
      </trkpt>
      <trkpt lat="45.54703" lon="5.82122">
        <ele>572.6</ele>
        <time>2011-09-11T10:33:44Z</time>
      </trkpt>
      <trkpt lat="45.54698" lon="5.82121">
        <ele>571.64</ele>
        <time>2011-09-11T10:33:45Z</time>
      </trkpt>
      <trkpt lat="45.54693" lon="5.82122">
        <ele>571.64</ele>
        <time>2011-09-11T10:33:46Z</time>
      </trkpt>
      <trkpt lat="45.54688" lon="5.82123">
        <ele>571.64</ele>
        <time>2011-09-11T10:33:47Z</time>
      </trkpt>
      <trkpt lat="45.54636" lon="5.82142">
        <ele>568.28</ele>
        <time>2011-09-11T10:33:55Z</time>
      </trkpt>
      <trkpt lat="45.5463" lon="5.82144">
        <ele>568.28</ele>
        <time>2011-09-11T10:33:56Z</time>
      </trkpt>
      <trkpt lat="45.54624" lon="5.82147">
        <ele>566.83</ele>
        <time>2011-09-11T10:33:57Z</time>
      </trkpt>
      <trkpt lat="45.54605" lon="5.82157">
        <ele>563.95</ele>
        <time>2011-09-11T10:34:00Z</time>
      </trkpt>
      <trkpt lat="45.54598" lon="5.82157">
        <ele>562.99</ele>
        <time>2011-09-11T10:34:01Z</time>
      </trkpt>
      <trkpt lat="45.54591" lon="5.82155">
        <ele>562.03</ele>
        <time>2011-09-11T10:34:02Z</time>
      </trkpt>
      <trkpt lat="45.54586" lon="5.82151">
        <ele>560.59</ele>
        <time>2011-09-11T10:34:03Z</time>
      </trkpt>
      <trkpt lat="45.54583" lon="5.82147">
        <ele>559.14</ele>
        <time>2011-09-11T10:34:04Z</time>
      </trkpt>
      <trkpt lat="45.54581" lon="5.82144">
        <ele>558.66</ele>
        <time>2011-09-11T10:34:05Z</time>
      </trkpt>
      <trkpt lat="45.5458" lon="5.82141">
        <ele>558.18</ele>
        <time>2011-09-11T10:34:06Z</time>
      </trkpt>
      <trkpt lat="45.54578" lon="5.82139">
        <ele>558.66</ele>
        <time>2011-09-11T10:34:07Z</time>
      </trkpt>
      <trkpt lat="45.54577" lon="5.82137">
        <ele>558.18</ele>
        <time>2011-09-11T10:34:17Z</time>
      </trkpt>
      <trkpt lat="45.54577" lon="5.82138">
        <ele>558.18</ele>
        <time>2011-09-11T10:34:18Z</time>
      </trkpt>
      <trkpt lat="45.54563" lon="5.82142">
        <ele>556.74</ele>
        <time>2011-09-11T10:34:23Z</time>
      </trkpt>
      <trkpt lat="45.54554" lon="5.82143">
        <ele>554.82</ele>
        <time>2011-09-11T10:34:27Z</time>
      </trkpt>
      <trkpt lat="45.5455" lon="5.82141">
        <ele>551.93</ele>
        <time>2011-09-11T10:34:30Z</time>
      </trkpt>
      <trkpt lat="45.54546" lon="5.82142">
        <ele>550.97</ele>
        <time>2011-09-11T10:34:31Z</time>
      </trkpt>
      <trkpt lat="45.54534" lon="5.8214">
        <ele>547.13</ele>
        <time>2011-09-11T10:34:35Z</time>
      </trkpt>
      <trkpt lat="45.5452" lon="5.82139">
        <ele>543.28</ele>
        <time>2011-09-11T10:34:40Z</time>
      </trkpt>
      <trkpt lat="45.54515" lon="5.8214">
        <ele>541.84</ele>
        <time>2011-09-11T10:34:42Z</time>
      </trkpt>
      <trkpt lat="45.54504" lon="5.82142">
        <ele>538.48</ele>
        <time>2011-09-11T10:34:46Z</time>
      </trkpt>
      <trkpt lat="45.54489" lon="5.82139">
        <ele>534.63</ele>
        <time>2011-09-11T10:34:53Z</time>
      </trkpt>
      <trkpt lat="45.54484" lon="5.82141">
        <ele>533.67</ele>
        <time>2011-09-11T10:34:55Z</time>
      </trkpt>
      <trkpt lat="45.54482" lon="5.8214">
        <ele>532.23</ele>
        <time>2011-09-11T10:34:56Z</time>
      </trkpt>
      <trkpt lat="45.54478" lon="5.82141">
        <ele>531.27</ele>
        <time>2011-09-11T10:34:59Z</time>
      </trkpt>
      <trkpt lat="45.54475" lon="5.82142">
        <ele>528.86</ele>
        <time>2011-09-11T10:35:01Z</time>
      </trkpt>
      <trkpt lat="45.54462" lon="5.82138">
        <ele>525.5</ele>
        <time>2011-09-11T10:35:05Z</time>
      </trkpt>
      <trkpt lat="45.54446" lon="5.82134">
        <ele>523.09</ele>
        <time>2011-09-11T10:35:10Z</time>
      </trkpt>
      <trkpt lat="45.54435" lon="5.82134">
        <ele>520.69</ele>
        <time>2011-09-11T10:35:13Z</time>
      </trkpt>
      <trkpt lat="45.54419" lon="5.82135">
        <ele>517.81</ele>
        <time>2011-09-11T10:35:18Z</time>
      </trkpt>
      <trkpt lat="45.54405" lon="5.82134">
        <ele>514.44</ele>
        <time>2011-09-11T10:35:24Z</time>
      </trkpt>
      <trkpt lat="45.54393" lon="5.82139">
        <ele>512.04</ele>
        <time>2011-09-11T10:35:30Z</time>
      </trkpt>
      <trkpt lat="45.54371" lon="5.82131">
        <ele>510.12</ele>
        <time>2011-09-11T10:35:48Z</time>
      </trkpt>
      <trkpt lat="45.54371" lon="5.82131">
        <ele>511.08</ele>
        <time>2011-09-11T10:36:17Z</time>
      </trkpt>
      <trkpt lat="45.54386" lon="5.82129">
        <ele>510.6</ele>
        <time>2011-09-11T10:36:47Z</time>
      </trkpt>
      <trkpt lat="45.54388" lon="5.82126">
        <ele>510.12</ele>
        <time>2011-09-11T10:36:55Z</time>
      </trkpt>
      <trkpt lat="45.54382" lon="5.82114">
        <ele>507.23</ele>
        <time>2011-09-11T10:37:00Z</time>
      </trkpt>
      <trkpt lat="45.5437" lon="5.82098">
        <ele>502.91</ele>
        <time>2011-09-11T10:37:05Z</time>
      </trkpt>
      <trkpt lat="45.54336" lon="5.8207">
        <ele>499.54</ele>
        <time>2011-09-11T10:37:12Z</time>
      </trkpt>
      <trkpt lat="45.54329" lon="5.82066">
        <ele>498.58</ele>
        <time>2011-09-11T10:37:14Z</time>
      </trkpt>
      <trkpt lat="45.54318" lon="5.8207">
        <ele>498.58</ele>
        <time>2011-09-11T10:37:26Z</time>
      </trkpt>
      <trkpt lat="45.54318" lon="5.8207">
        <ele>498.58</ele>
        <time>2011-09-11T10:37:40Z</time>
      </trkpt>
      <trkpt lat="45.54315" lon="5.82064">
        <ele>498.1</ele>
        <time>2011-09-11T10:37:43Z</time>
      </trkpt>
      <trkpt lat="45.54299" lon="5.82047">
        <ele>494.26</ele>
        <time>2011-09-11T10:37:48Z</time>
      </trkpt>
      <trkpt lat="45.54293" lon="5.82026">
        <ele>490.41</ele>
        <time>2011-09-11T10:37:52Z</time>
      </trkpt>
      <trkpt lat="45.54292" lon="5.82021">
        <ele>490.41</ele>
        <time>2011-09-11T10:37:53Z</time>
      </trkpt>
      <trkpt lat="45.54291" lon="5.82009">
        <ele>490.41</ele>
        <time>2011-09-11T10:37:59Z</time>
      </trkpt>
      <trkpt lat="45.54292" lon="5.82021">
        <ele>491.85</ele>
        <time>2011-09-11T10:38:03Z</time>
      </trkpt>
      <trkpt lat="45.54288" lon="5.82026">
        <ele>490.89</ele>
        <time>2011-09-11T10:38:15Z</time>
      </trkpt>
      <trkpt lat="45.54285" lon="5.82024">
        <ele>489.45</ele>
        <time>2011-09-11T10:38:19Z</time>
      </trkpt>
      <trkpt lat="45.54273" lon="5.82036">
        <ele>484.64</ele>
        <time>2011-09-11T10:38:25Z</time>
      </trkpt>
      <trkpt lat="45.54266" lon="5.82044">
        <ele>483.68</ele>
        <time>2011-09-11T10:38:28Z</time>
      </trkpt>
      <trkpt lat="45.54256" lon="5.82052">
        <ele>481.76</ele>
        <time>2011-09-11T10:38:31Z</time>
      </trkpt>
      <trkpt lat="45.54236" lon="5.82059">
        <ele>478.87</ele>
        <time>2011-09-11T10:38:36Z</time>
      </trkpt>
      <trkpt lat="45.54215" lon="5.82048">
        <ele>475.51</ele>
        <time>2011-09-11T10:38:43Z</time>
      </trkpt>
      <trkpt lat="45.54197" lon="5.82036">
        <ele>473.11</ele>
        <time>2011-09-11T10:38:54Z</time>
      </trkpt>
      <trkpt lat="45.54169" lon="5.82022">
        <ele>469.74</ele>
        <time>2011-09-11T10:39:03Z</time>
      </trkpt>
      <trkpt lat="45.5415" lon="5.82021">
        <ele>466.86</ele>
        <time>2011-09-11T10:39:06Z</time>
      </trkpt>
      <trkpt lat="45.54141" lon="5.82021">
        <ele>465.9</ele>
        <time>2011-09-11T10:39:08Z</time>
      </trkpt>
      <trkpt lat="45.54113" lon="5.81979">
        <ele>463.49</ele>
        <time>2011-09-11T10:39:17Z</time>
      </trkpt>
      <trkpt lat="45.54111" lon="5.81972">
        <ele>463.01</ele>
        <time>2011-09-11T10:39:18Z</time>
      </trkpt>
      <trkpt lat="45.54108" lon="5.81966">
        <ele>463.01</ele>
        <time>2011-09-11T10:39:19Z</time>
      </trkpt>
      <trkpt lat="45.54105" lon="5.81961">
        <ele>463.01</ele>
        <time>2011-09-11T10:39:20Z</time>
      </trkpt>
      <trkpt lat="45.54103" lon="5.81956">
        <ele>463.01</ele>
        <time>2011-09-11T10:39:21Z</time>
      </trkpt>
      <trkpt lat="45.54067" lon="5.81932">
        <ele>460.13</ele>
        <time>2011-09-11T10:39:31Z</time>
      </trkpt>
      <trkpt lat="45.54063" lon="5.81926">
        <ele>460.13</ele>
        <time>2011-09-11T10:39:32Z</time>
      </trkpt>
      <trkpt lat="45.54058" lon="5.81919">
        <ele>459.65</ele>
        <time>2011-09-11T10:39:33Z</time>
      </trkpt>
      <trkpt lat="45.54054" lon="5.81914">
        <ele>460.61</ele>
        <time>2011-09-11T10:39:34Z</time>
      </trkpt>
      <trkpt lat="45.54051" lon="5.81911">
        <ele>461.09</ele>
        <time>2011-09-11T10:39:35Z</time>
      </trkpt>
      <trkpt lat="45.54049" lon="5.81908">
        <ele>462.05</ele>
        <time>2011-09-11T10:39:36Z</time>
      </trkpt>
      <trkpt lat="45.54047" lon="5.81905">
        <ele>462.53</ele>
        <time>2011-09-11T10:39:37Z</time>
      </trkpt>
      <trkpt lat="45.54044" lon="5.81902">
        <ele>463.01</ele>
        <time>2011-09-11T10:39:38Z</time>
      </trkpt>
      <trkpt lat="45.5404" lon="5.81897">
        <ele>463.49</ele>
        <time>2011-09-11T10:39:40Z</time>
      </trkpt>
      <trkpt lat="45.54036" lon="5.81896">
        <ele>463.97</ele>
        <time>2011-09-11T10:39:42Z</time>
      </trkpt>
      <trkpt lat="45.54036" lon="5.81894">
        <ele>463.97</ele>
        <time>2011-09-11T10:39:43Z</time>
      </trkpt>
      <trkpt lat="45.54035" lon="5.81892">
        <ele>463.49</ele>
        <time>2011-09-11T10:39:44Z</time>
      </trkpt>
      <trkpt lat="45.54034" lon="5.8189">
        <ele>463.49</ele>
        <time>2011-09-11T10:39:45Z</time>
      </trkpt>
      <trkpt lat="45.54034" lon="5.81887">
        <ele>463.49</ele>
        <time>2011-09-11T10:39:46Z</time>
      </trkpt>
      <trkpt lat="45.5403" lon="5.8188">
        <ele>462.05</ele>
        <time>2011-09-11T10:39:49Z</time>
      </trkpt>
      <trkpt lat="45.5402" lon="5.8187">
        <ele>460.61</ele>
        <time>2011-09-11T10:39:52Z</time>
      </trkpt>
      <trkpt lat="45.54015" lon="5.81867">
        <ele>460.13</ele>
        <time>2011-09-11T10:39:53Z</time>
      </trkpt>
      <trkpt lat="45.53994" lon="5.81854">
        <ele>460.13</ele>
        <time>2011-09-11T10:39:57Z</time>
      </trkpt>
      <trkpt lat="45.53965" lon="5.81841">
        <ele>461.57</ele>
        <time>2011-09-11T10:40:07Z</time>
      </trkpt>
      <trkpt lat="45.53941" lon="5.81826">
        <ele>460.61</ele>
        <time>2011-09-11T10:40:23Z</time>
      </trkpt>
      <trkpt lat="45.53924" lon="5.8182">
        <ele>458.21</ele>
        <time>2011-09-11T10:40:34Z</time>
      </trkpt>
      <trkpt lat="45.53923" lon="5.81819">
        <ele>457.72</ele>
        <time>2011-09-11T10:40:35Z</time>
      </trkpt>
      <trkpt lat="45.53921" lon="5.81818">
        <ele>457.72</ele>
        <time>2011-09-11T10:40:36Z</time>
      </trkpt>
      <trkpt lat="45.5391" lon="5.81812">
        <ele>454.84</ele>
        <time>2011-09-11T10:40:43Z</time>
      </trkpt>
      <trkpt lat="45.53908" lon="5.81809">
        <ele>454.36</ele>
        <time>2011-09-11T10:40:44Z</time>
      </trkpt>
      <trkpt lat="45.53904" lon="5.81806">
        <ele>453.88</ele>
        <time>2011-09-11T10:40:45Z</time>
      </trkpt>
      <trkpt lat="45.53899" lon="5.81802">
        <ele>452.44</ele>
        <time>2011-09-11T10:40:46Z</time>
      </trkpt>
      <trkpt lat="45.53893" lon="5.81798">
        <ele>451.48</ele>
        <time>2011-09-11T10:40:47Z</time>
      </trkpt>
      <trkpt lat="45.53878" lon="5.8179">
        <ele>447.63</ele>
        <time>2011-09-11T10:40:49Z</time>
      </trkpt>
      <trkpt lat="45.53862" lon="5.81784">
        <ele>444.75</ele>
        <time>2011-09-11T10:40:51Z</time>
      </trkpt>
      <trkpt lat="45.53846" lon="5.81779">
        <ele>440.9</ele>
        <time>2011-09-11T10:40:53Z</time>
      </trkpt>
      <trkpt lat="45.53837" lon="5.81775">
        <ele>438.98</ele>
        <time>2011-09-11T10:40:54Z</time>
      </trkpt>
      <trkpt lat="45.53817" lon="5.81764">
        <ele>435.61</ele>
        <time>2011-09-11T10:40:56Z</time>
      </trkpt>
      <trkpt lat="45.53807" lon="5.81757">
        <ele>434.17</ele>
        <time>2011-09-11T10:40:57Z</time>
      </trkpt>
      <trkpt lat="45.53782" lon="5.81736">
        <ele>429.85</ele>
        <time>2011-09-11T10:41:00Z</time>
      </trkpt>
      <trkpt lat="45.53775" lon="5.8173">
        <ele>428.89</ele>
        <time>2011-09-11T10:41:01Z</time>
      </trkpt>
      <trkpt lat="45.53768" lon="5.81723">
        <ele>428.89</ele>
        <time>2011-09-11T10:41:02Z</time>
      </trkpt>
      <trkpt lat="45.53762" lon="5.81715">
        <ele>428.89</ele>
        <time>2011-09-11T10:41:03Z</time>
      </trkpt>
      <trkpt lat="45.53753" lon="5.81699">
        <ele>430.33</ele>
        <time>2011-09-11T10:41:05Z</time>
      </trkpt>
      <trkpt lat="45.53742" lon="5.81686">
        <ele>429.85</ele>
        <time>2011-09-11T10:41:07Z</time>
      </trkpt>
      <trkpt lat="45.53737" lon="5.81678">
        <ele>430.33</ele>
        <time>2011-09-11T10:41:08Z</time>
      </trkpt>
      <trkpt lat="45.53733" lon="5.81669">
        <ele>430.81</ele>
        <time>2011-09-11T10:41:09Z</time>
      </trkpt>
      <trkpt lat="45.53727" lon="5.81642">
        <ele>431.77</ele>
        <time>2011-09-11T10:41:12Z</time>
      </trkpt>
      <trkpt lat="45.53726" lon="5.81632">
        <ele>431.77</ele>
        <time>2011-09-11T10:41:13Z</time>
      </trkpt>
      <trkpt lat="45.53725" lon="5.81622">
        <ele>430.33</ele>
        <time>2011-09-11T10:41:14Z</time>
      </trkpt>
      <trkpt lat="45.53726" lon="5.8161">
        <ele>430.33</ele>
        <time>2011-09-11T10:41:15Z</time>
      </trkpt>
      <trkpt lat="45.53729" lon="5.81536">
        <ele>427.44</ele>
        <time>2011-09-11T10:41:21Z</time>
      </trkpt>
      <trkpt lat="45.53731" lon="5.81528">
        <ele>426.48</ele>
        <time>2011-09-11T10:41:22Z</time>
      </trkpt>
      <trkpt lat="45.53734" lon="5.81523">
        <ele>426.48</ele>
        <time>2011-09-11T10:41:23Z</time>
      </trkpt>
      <trkpt lat="45.53737" lon="5.8152">
        <ele>426</ele>
        <time>2011-09-11T10:41:24Z</time>
      </trkpt>
      <trkpt lat="45.5374" lon="5.81517">
        <ele>425.52</ele>
        <time>2011-09-11T10:41:25Z</time>
      </trkpt>
      <trkpt lat="45.53756" lon="5.81481">
        <ele>424.08</ele>
        <time>2011-09-11T10:41:35Z</time>
      </trkpt>
      <trkpt lat="45.53758" lon="5.81476">
        <ele>424.08</ele>
        <time>2011-09-11T10:41:36Z</time>
      </trkpt>
      <trkpt lat="45.5376" lon="5.81471">
        <ele>423.6</ele>
        <time>2011-09-11T10:41:37Z</time>
      </trkpt>
      <trkpt lat="45.53766" lon="5.8146">
        <ele>423.6</ele>
        <time>2011-09-11T10:41:39Z</time>
      </trkpt>
      <trkpt lat="45.5378" lon="5.81429">
        <ele>421.19</ele>
        <time>2011-09-11T10:41:43Z</time>
      </trkpt>
      <trkpt lat="45.53783" lon="5.81419">
        <ele>421.19</ele>
        <time>2011-09-11T10:41:44Z</time>
      </trkpt>
      <trkpt lat="45.53784" lon="5.81408">
        <ele>420.71</ele>
        <time>2011-09-11T10:41:45Z</time>
      </trkpt>
      <trkpt lat="45.53785" lon="5.81396">
        <ele>419.75</ele>
        <time>2011-09-11T10:41:46Z</time>
      </trkpt>
      <trkpt lat="45.53784" lon="5.81384">
        <ele>419.27</ele>
        <time>2011-09-11T10:41:47Z</time>
      </trkpt>
      <trkpt lat="45.53782" lon="5.81371">
        <ele>419.27</ele>
        <time>2011-09-11T10:41:48Z</time>
      </trkpt>
      <trkpt lat="45.53779" lon="5.81359">
        <ele>419.27</ele>
        <time>2011-09-11T10:41:49Z</time>
      </trkpt>
      <trkpt lat="45.53775" lon="5.81347">
        <ele>418.79</ele>
        <time>2011-09-11T10:41:50Z</time>
      </trkpt>
      <trkpt lat="45.53772" lon="5.81335">
        <ele>419.27</ele>
        <time>2011-09-11T10:41:51Z</time>
      </trkpt>
      <trkpt lat="45.53735" lon="5.81212">
        <ele>417.83</ele>
        <time>2011-09-11T10:42:02Z</time>
      </trkpt>
      <trkpt lat="45.53722" lon="5.81079">
        <ele>417.35</ele>
        <time>2011-09-11T10:42:14Z</time>
      </trkpt>
      <trkpt lat="45.53723" lon="5.8105">
        <ele>416.87</ele>
        <time>2011-09-11T10:42:17Z</time>
      </trkpt>
      <trkpt lat="45.53725" lon="5.81041">
        <ele>416.87</ele>
        <time>2011-09-11T10:42:18Z</time>
      </trkpt>
      <trkpt lat="45.53729" lon="5.81024">
        <ele>416.87</ele>
        <time>2011-09-11T10:42:20Z</time>
      </trkpt>
      <trkpt lat="45.53732" lon="5.81016">
        <ele>417.35</ele>
        <time>2011-09-11T10:42:21Z</time>
      </trkpt>
      <trkpt lat="45.53735" lon="5.81009">
        <ele>417.35</ele>
        <time>2011-09-11T10:42:22Z</time>
      </trkpt>
      <trkpt lat="45.53739" lon="5.81003">
        <ele>417.35</ele>
        <time>2011-09-11T10:42:23Z</time>
      </trkpt>
      <trkpt lat="45.53744" lon="5.80998">
        <ele>417.35</ele>
        <time>2011-09-11T10:42:24Z</time>
      </trkpt>
      <trkpt lat="45.5375" lon="5.80994">
        <ele>416.87</ele>
        <time>2011-09-11T10:42:25Z</time>
      </trkpt>
      <trkpt lat="45.53756" lon="5.80991">
        <ele>416.87</ele>
        <time>2011-09-11T10:42:26Z</time>
      </trkpt>
      <trkpt lat="45.53762" lon="5.8099">
        <ele>417.35</ele>
        <time>2011-09-11T10:42:27Z</time>
      </trkpt>
      <trkpt lat="45.53768" lon="5.80989">
        <ele>416.87</ele>
        <time>2011-09-11T10:42:28Z</time>
      </trkpt>
      <trkpt lat="45.53801" lon="5.80981">
        <ele>416.39</ele>
        <time>2011-09-11T10:42:33Z</time>
      </trkpt>
      <trkpt lat="45.53807" lon="5.80977">
        <ele>416.87</ele>
        <time>2011-09-11T10:42:34Z</time>
      </trkpt>
      <trkpt lat="45.53813" lon="5.80973">
        <ele>416.39</ele>
        <time>2011-09-11T10:42:35Z</time>
      </trkpt>
      <trkpt lat="45.53825" lon="5.80961">
        <ele>416.39</ele>
        <time>2011-09-11T10:42:37Z</time>
      </trkpt>
      <trkpt lat="45.5383" lon="5.80954">
        <ele>416.39</ele>
        <time>2011-09-11T10:42:38Z</time>
      </trkpt>
      <trkpt lat="45.53835" lon="5.80947">
        <ele>415.91</ele>
        <time>2011-09-11T10:42:39Z</time>
      </trkpt>
      <trkpt lat="45.53839" lon="5.80938">
        <ele>415.91</ele>
        <time>2011-09-11T10:42:40Z</time>
      </trkpt>
      <trkpt lat="45.53842" lon="5.80929">
        <ele>415.91</ele>
        <time>2011-09-11T10:42:41Z</time>
      </trkpt>
      <trkpt lat="45.53877" lon="5.80837">
        <ele>413.5</ele>
        <time>2011-09-11T10:42:50Z</time>
      </trkpt>
      <trkpt lat="45.53881" lon="5.80826">
        <ele>413.5</ele>
        <time>2011-09-11T10:42:51Z</time>
      </trkpt>
      <trkpt lat="45.53883" lon="5.80815">
        <ele>413.02</ele>
        <time>2011-09-11T10:42:52Z</time>
      </trkpt>
      <trkpt lat="45.53886" lon="5.80789">
        <ele>412.06</ele>
        <time>2011-09-11T10:42:54Z</time>
      </trkpt>
      <trkpt lat="45.53886" lon="5.80776">
        <ele>412.06</ele>
        <time>2011-09-11T10:42:55Z</time>
      </trkpt>
      <trkpt lat="45.53883" lon="5.80706">
        <ele>410.14</ele>
        <time>2011-09-11T10:43:00Z</time>
      </trkpt>
      <trkpt lat="45.53884" lon="5.80692">
        <ele>409.66</ele>
        <time>2011-09-11T10:43:01Z</time>
      </trkpt>
      <trkpt lat="45.53887" lon="5.80678">
        <ele>409.66</ele>
        <time>2011-09-11T10:43:02Z</time>
      </trkpt>
      <trkpt lat="45.53892" lon="5.80664">
        <ele>408.22</ele>
        <time>2011-09-11T10:43:03Z</time>
      </trkpt>
      <trkpt lat="45.53898" lon="5.80653">
        <ele>407.74</ele>
        <time>2011-09-11T10:43:04Z</time>
      </trkpt>
      <trkpt lat="45.53904" lon="5.80643">
        <ele>407.74</ele>
        <time>2011-09-11T10:43:05Z</time>
      </trkpt>
      <trkpt lat="45.53912" lon="5.80636">
        <ele>407.26</ele>
        <time>2011-09-11T10:43:06Z</time>
      </trkpt>
      <trkpt lat="45.5392" lon="5.80632">
        <ele>406.77</ele>
        <time>2011-09-11T10:43:07Z</time>
      </trkpt>
      <trkpt lat="45.53927" lon="5.80629">
        <ele>406.29</ele>
        <time>2011-09-11T10:43:08Z</time>
      </trkpt>
      <trkpt lat="45.53999" lon="5.80619">
        <ele>402.93</ele>
        <time>2011-09-11T10:43:16Z</time>
      </trkpt>
      <trkpt lat="45.54018" lon="5.80615">
        <ele>402.93</ele>
        <time>2011-09-11T10:43:17Z</time>
      </trkpt>
      <trkpt lat="45.5403" lon="5.80608">
        <ele>402.45</ele>
        <time>2011-09-11T10:43:18Z</time>
      </trkpt>
      <trkpt lat="45.54043" lon="5.80598">
        <ele>402.45</ele>
        <time>2011-09-11T10:43:19Z</time>
      </trkpt>
      <trkpt lat="45.54055" lon="5.80587">
        <ele>401.97</ele>
        <time>2011-09-11T10:43:20Z</time>
      </trkpt>
      <trkpt lat="45.54066" lon="5.80575">
        <ele>401.01</ele>
        <time>2011-09-11T10:43:21Z</time>
      </trkpt>
      <trkpt lat="45.54129" lon="5.80478">
        <ele>399.08</ele>
        <time>2011-09-11T10:43:29Z</time>
      </trkpt>
      <trkpt lat="45.54132" lon="5.80464">
        <ele>399.57</ele>
        <time>2011-09-11T10:43:30Z</time>
      </trkpt>
      <trkpt lat="45.54132" lon="5.8045">
        <ele>399.57</ele>
        <time>2011-09-11T10:43:31Z</time>
      </trkpt>
      <trkpt lat="45.5413" lon="5.80437">
        <ele>399.08</ele>
        <time>2011-09-11T10:43:32Z</time>
      </trkpt>
      <trkpt lat="45.54125" lon="5.80426">
        <ele>399.08</ele>
        <time>2011-09-11T10:43:33Z</time>
      </trkpt>
      <trkpt lat="45.54119" lon="5.80416">
        <ele>399.08</ele>
        <time>2011-09-11T10:43:34Z</time>
      </trkpt>
      <trkpt lat="45.54113" lon="5.80407">
        <ele>399.08</ele>
        <time>2011-09-11T10:43:35Z</time>
      </trkpt>
      <trkpt lat="45.54052" lon="5.80325">
        <ele>399.08</ele>
        <time>2011-09-11T10:43:45Z</time>
      </trkpt>
      <trkpt lat="45.53981" lon="5.80225">
        <ele>401.01</ele>
        <time>2011-09-11T10:43:58Z</time>
      </trkpt>
      <trkpt lat="45.5389" lon="5.80128">
        <ele>401.49</ele>
        <time>2011-09-11T10:44:13Z</time>
      </trkpt>
      <trkpt lat="45.53872" lon="5.80109">
        <ele>401.49</ele>
        <time>2011-09-11T10:44:16Z</time>
      </trkpt>
      <trkpt lat="45.53867" lon="5.80102">
        <ele>401.49</ele>
        <time>2011-09-11T10:44:17Z</time>
      </trkpt>
      <trkpt lat="45.53862" lon="5.80093">
        <ele>401.49</ele>
        <time>2011-09-11T10:44:18Z</time>
      </trkpt>
      <trkpt lat="45.53803" lon="5.79963">
        <ele>401.97</ele>
        <time>2011-09-11T10:44:33Z</time>
      </trkpt>
      <trkpt lat="45.53766" lon="5.79864">
        <ele>401.97</ele>
        <time>2011-09-11T10:44:44Z</time>
      </trkpt>
      <trkpt lat="45.53765" lon="5.79853">
        <ele>401.97</ele>
        <time>2011-09-11T10:44:45Z</time>
      </trkpt>
      <trkpt lat="45.53765" lon="5.79719">
        <ele>401.97</ele>
        <time>2011-09-11T10:44:58Z</time>
      </trkpt>
      <trkpt lat="45.5378" lon="5.79562">
        <ele>401.49</ele>
        <time>2011-09-11T10:45:13Z</time>
      </trkpt>
      <trkpt lat="45.53827" lon="5.79443">
        <ele>402.93</ele>
        <time>2011-09-11T10:45:27Z</time>
      </trkpt>
      <trkpt lat="45.53828" lon="5.79433">
        <ele>402.93</ele>
        <time>2011-09-11T10:45:28Z</time>
      </trkpt>
      <trkpt lat="45.5383" lon="5.79423">
        <ele>402.93</ele>
        <time>2011-09-11T10:45:29Z</time>
      </trkpt>
      <trkpt lat="45.5383" lon="5.79414">
        <ele>402.93</ele>
        <time>2011-09-11T10:45:30Z</time>
      </trkpt>
      <trkpt lat="45.5383" lon="5.79404">
        <ele>402.93</ele>
        <time>2011-09-11T10:45:31Z</time>
      </trkpt>
      <trkpt lat="45.53829" lon="5.79395">
        <ele>403.41</ele>
        <time>2011-09-11T10:45:32Z</time>
      </trkpt>
      <trkpt lat="45.53823" lon="5.7925">
        <ele>403.89</ele>
        <time>2011-09-11T10:45:47Z</time>
      </trkpt>
      <trkpt lat="45.53837" lon="5.79122">
        <ele>404.37</ele>
        <time>2011-09-11T10:46:01Z</time>
      </trkpt>
      <trkpt lat="45.53855" lon="5.79001">
        <ele>405.33</ele>
        <time>2011-09-11T10:46:15Z</time>
      </trkpt>
      <trkpt lat="45.53857" lon="5.78992">
        <ele>405.81</ele>
        <time>2011-09-11T10:46:16Z</time>
      </trkpt>
      <trkpt lat="45.53861" lon="5.78984">
        <ele>405.81</ele>
        <time>2011-09-11T10:46:17Z</time>
      </trkpt>
      <trkpt lat="45.53864" lon="5.78977">
        <ele>405.81</ele>
        <time>2011-09-11T10:46:18Z</time>
      </trkpt>
      <trkpt lat="45.53869" lon="5.78969">
        <ele>405.81</ele>
        <time>2011-09-11T10:46:19Z</time>
      </trkpt>
      <trkpt lat="45.53873" lon="5.78962">
        <ele>405.33</ele>
        <time>2011-09-11T10:46:20Z</time>
      </trkpt>
      <trkpt lat="45.53878" lon="5.78956">
        <ele>405.81</ele>
        <time>2011-09-11T10:46:21Z</time>
      </trkpt>
      <trkpt lat="45.53896" lon="5.78933">
        <ele>405.81</ele>
        <time>2011-09-11T10:46:25Z</time>
      </trkpt>
      <trkpt lat="45.53902" lon="5.78918">
        <ele>405.81</ele>
        <time>2011-09-11T10:46:27Z</time>
      </trkpt>
      <trkpt lat="45.53905" lon="5.7891">
        <ele>405.81</ele>
        <time>2011-09-11T10:46:28Z</time>
      </trkpt>
      <trkpt lat="45.53918" lon="5.78838">
        <ele>406.29</ele>
        <time>2011-09-11T10:46:36Z</time>
      </trkpt>
      <trkpt lat="45.53918" lon="5.78758">
        <ele>406.29</ele>
        <time>2011-09-11T10:46:44Z</time>
      </trkpt>
      <trkpt lat="45.53935" lon="5.78642">
        <ele>406.77</ele>
        <time>2011-09-11T10:46:56Z</time>
      </trkpt>
      <trkpt lat="45.53938" lon="5.78511">
        <ele>406.77</ele>
        <time>2011-09-11T10:47:09Z</time>
      </trkpt>
      <trkpt lat="45.53937" lon="5.78439">
        <ele>406.77</ele>
        <time>2011-09-11T10:47:16Z</time>
      </trkpt>
      <trkpt lat="45.53934" lon="5.7843">
        <ele>407.26</ele>
        <time>2011-09-11T10:47:17Z</time>
      </trkpt>
      <trkpt lat="45.5393" lon="5.78422">
        <ele>406.29</ele>
        <time>2011-09-11T10:47:18Z</time>
      </trkpt>
      <trkpt lat="45.53925" lon="5.78415">
        <ele>406.77</ele>
        <time>2011-09-11T10:47:19Z</time>
      </trkpt>
      <trkpt lat="45.53921" lon="5.78406">
        <ele>406.29</ele>
        <time>2011-09-11T10:47:20Z</time>
      </trkpt>
      <trkpt lat="45.53918" lon="5.78397">
        <ele>405.81</ele>
        <time>2011-09-11T10:47:21Z</time>
      </trkpt>
      <trkpt lat="45.53916" lon="5.78387">
        <ele>406.29</ele>
        <time>2011-09-11T10:47:22Z</time>
      </trkpt>
      <trkpt lat="45.53915" lon="5.78377">
        <ele>406.29</ele>
        <time>2011-09-11T10:47:23Z</time>
      </trkpt>
      <trkpt lat="45.53915" lon="5.78366">
        <ele>406.29</ele>
        <time>2011-09-11T10:47:24Z</time>
      </trkpt>
      <trkpt lat="45.53916" lon="5.78356">
        <ele>406.29</ele>
        <time>2011-09-11T10:47:25Z</time>
      </trkpt>
      <trkpt lat="45.5393" lon="5.78198">
        <ele>404.85</ele>
        <time>2011-09-11T10:47:40Z</time>
      </trkpt>
      <trkpt lat="45.53932" lon="5.78048">
        <ele>402.45</ele>
        <time>2011-09-11T10:47:53Z</time>
      </trkpt>
      <trkpt lat="45.53934" lon="5.77962">
        <ele>401.01</ele>
        <time>2011-09-11T10:48:00Z</time>
      </trkpt>
      <trkpt lat="45.53963" lon="5.77824">
        <ele>399.57</ele>
        <time>2011-09-11T10:48:12Z</time>
      </trkpt>
      <trkpt lat="45.53994" lon="5.77679">
        <ele>400.53</ele>
        <time>2011-09-11T10:48:26Z</time>
      </trkpt>
      <trkpt lat="45.54026" lon="5.77534">
        <ele>402.45</ele>
        <time>2011-09-11T10:48:42Z</time>
      </trkpt>
      <trkpt lat="45.54044" lon="5.77408">
        <ele>403.41</ele>
        <time>2011-09-11T10:48:57Z</time>
      </trkpt>
      <trkpt lat="45.54053" lon="5.77297">
        <ele>403.41</ele>
        <time>2011-09-11T10:49:10Z</time>
      </trkpt>
      <trkpt lat="45.54055" lon="5.7729">
        <ele>403.41</ele>
        <time>2011-09-11T10:49:11Z</time>
      </trkpt>
      <trkpt lat="45.54058" lon="5.77282">
        <ele>403.41</ele>
        <time>2011-09-11T10:49:12Z</time>
      </trkpt>
      <trkpt lat="45.54061" lon="5.77274">
        <ele>403.89</ele>
        <time>2011-09-11T10:49:13Z</time>
      </trkpt>
      <trkpt lat="45.54065" lon="5.77268">
        <ele>404.37</ele>
        <time>2011-09-11T10:49:14Z</time>
      </trkpt>
      <trkpt lat="45.54069" lon="5.77261">
        <ele>404.37</ele>
        <time>2011-09-11T10:49:15Z</time>
      </trkpt>
      <trkpt lat="45.54074" lon="5.77256">
        <ele>403.89</ele>
        <time>2011-09-11T10:49:16Z</time>
      </trkpt>
      <trkpt lat="45.54079" lon="5.77251">
        <ele>404.37</ele>
        <time>2011-09-11T10:49:17Z</time>
      </trkpt>
      <trkpt lat="45.54101" lon="5.77236">
        <ele>403.89</ele>
        <time>2011-09-11T10:49:21Z</time>
      </trkpt>
      <trkpt lat="45.54107" lon="5.77233">
        <ele>403.89</ele>
        <time>2011-09-11T10:49:22Z</time>
      </trkpt>
      <trkpt lat="45.54113" lon="5.77231">
        <ele>403.89</ele>
        <time>2011-09-11T10:49:23Z</time>
      </trkpt>
      <trkpt lat="45.5412" lon="5.7723">
        <ele>403.89</ele>
        <time>2011-09-11T10:49:24Z</time>
      </trkpt>
      <trkpt lat="45.54126" lon="5.7723">
        <ele>403.41</ele>
        <time>2011-09-11T10:49:25Z</time>
      </trkpt>
      <trkpt lat="45.54132" lon="5.7723">
        <ele>404.37</ele>
        <time>2011-09-11T10:49:26Z</time>
      </trkpt>
      <trkpt lat="45.54139" lon="5.7723">
        <ele>403.89</ele>
        <time>2011-09-11T10:49:27Z</time>
      </trkpt>
      <trkpt lat="45.5417" lon="5.77225">
        <ele>404.37</ele>
        <time>2011-09-11T10:49:32Z</time>
      </trkpt>
      <trkpt lat="45.54176" lon="5.77221">
        <ele>403.89</ele>
        <time>2011-09-11T10:49:33Z</time>
      </trkpt>
      <trkpt lat="45.54182" lon="5.77215">
        <ele>403.89</ele>
        <time>2011-09-11T10:49:34Z</time>
      </trkpt>
      <trkpt lat="45.54186" lon="5.77207">
        <ele>403.89</ele>
        <time>2011-09-11T10:49:35Z</time>
      </trkpt>
      <trkpt lat="45.5419" lon="5.77199">
        <ele>403.41</ele>
        <time>2011-09-11T10:49:36Z</time>
      </trkpt>
      <trkpt lat="45.54192" lon="5.77189">
        <ele>403.89</ele>
        <time>2011-09-11T10:49:37Z</time>
      </trkpt>
      <trkpt lat="45.54194" lon="5.77179">
        <ele>403.89</ele>
        <time>2011-09-11T10:49:38Z</time>
      </trkpt>
      <trkpt lat="45.54195" lon="5.77168">
        <ele>402.93</ele>
        <time>2011-09-11T10:49:39Z</time>
      </trkpt>
      <trkpt lat="45.54204" lon="5.77077">
        <ele>402.45</ele>
        <time>2011-09-11T10:49:47Z</time>
      </trkpt>
      <trkpt lat="45.54205" lon="5.77066">
        <ele>402.93</ele>
        <time>2011-09-11T10:49:48Z</time>
      </trkpt>
      <trkpt lat="45.54189" lon="5.76915">
        <ele>401.49</ele>
        <time>2011-09-11T10:50:01Z</time>
      </trkpt>
      <trkpt lat="45.54174" lon="5.76775">
        <ele>400.05</ele>
        <time>2011-09-11T10:50:14Z</time>
      </trkpt>
      <trkpt lat="45.5414" lon="5.76614">
        <ele>398.6</ele>
        <time>2011-09-11T10:50:28Z</time>
      </trkpt>
      <trkpt lat="45.54115" lon="5.7648">
        <ele>396.2</ele>
        <time>2011-09-11T10:50:39Z</time>
      </trkpt>
      <trkpt lat="45.54121" lon="5.76289">
        <ele>394.28</ele>
        <time>2011-09-11T10:50:55Z</time>
      </trkpt>
      <trkpt lat="45.54125" lon="5.76266">
        <ele>394.76</ele>
        <time>2011-09-11T10:50:57Z</time>
      </trkpt>
      <trkpt lat="45.54128" lon="5.76256">
        <ele>394.28</ele>
        <time>2011-09-11T10:50:58Z</time>
      </trkpt>
      <trkpt lat="45.54136" lon="5.76237">
        <ele>393.8</ele>
        <time>2011-09-11T10:51:00Z</time>
      </trkpt>
      <trkpt lat="45.54141" lon="5.76228">
        <ele>393.8</ele>
        <time>2011-09-11T10:51:01Z</time>
      </trkpt>
      <trkpt lat="45.54146" lon="5.7622">
        <ele>394.28</ele>
        <time>2011-09-11T10:51:02Z</time>
      </trkpt>
      <trkpt lat="45.54152" lon="5.76213">
        <ele>394.76</ele>
        <time>2011-09-11T10:51:03Z</time>
      </trkpt>
      <trkpt lat="45.54157" lon="5.76206">
        <ele>394.28</ele>
        <time>2011-09-11T10:51:04Z</time>
      </trkpt>
      <trkpt lat="45.54203" lon="5.76142">
        <ele>394.28</ele>
        <time>2011-09-11T10:51:13Z</time>
      </trkpt>
      <trkpt lat="45.5421" lon="5.76125">
        <ele>394.76</ele>
        <time>2011-09-11T10:51:15Z</time>
      </trkpt>
      <trkpt lat="45.54213" lon="5.76116">
        <ele>394.28</ele>
        <time>2011-09-11T10:51:16Z</time>
      </trkpt>
      <trkpt lat="45.54229" lon="5.76056">
        <ele>394.28</ele>
        <time>2011-09-11T10:51:23Z</time>
      </trkpt>
      <trkpt lat="45.54232" lon="5.76051">
        <ele>394.28</ele>
        <time>2011-09-11T10:51:24Z</time>
      </trkpt>
      <trkpt lat="45.54236" lon="5.76052">
        <ele>394.76</ele>
        <time>2011-09-11T10:51:25Z</time>
      </trkpt>
      <trkpt lat="45.5426" lon="5.76083">
        <ele>394.76</ele>
        <time>2011-09-11T10:51:31Z</time>
      </trkpt>
      <trkpt lat="45.54265" lon="5.76088">
        <ele>394.28</ele>
        <time>2011-09-11T10:51:32Z</time>
      </trkpt>
      <trkpt lat="45.54269" lon="5.76094">
        <ele>393.8</ele>
        <time>2011-09-11T10:51:33Z</time>
      </trkpt>
      <trkpt lat="45.54273" lon="5.76099">
        <ele>394.28</ele>
        <time>2011-09-11T10:51:34Z</time>
      </trkpt>
      <trkpt lat="45.54278" lon="5.76105">
        <ele>394.76</ele>
        <time>2011-09-11T10:51:35Z</time>
      </trkpt>
      <trkpt lat="45.54305" lon="5.76137">
        <ele>393.8</ele>
        <time>2011-09-11T10:51:40Z</time>
      </trkpt>
      <trkpt lat="45.5431" lon="5.76145">
        <ele>393.8</ele>
        <time>2011-09-11T10:51:41Z</time>
      </trkpt>
      <trkpt lat="45.54323" lon="5.76171">
        <ele>393.8</ele>
        <time>2011-09-11T10:51:44Z</time>
      </trkpt>
      <trkpt lat="45.54362" lon="5.76321">
        <ele>394.28</ele>
        <time>2011-09-11T10:51:59Z</time>
      </trkpt>
      <trkpt lat="45.54398" lon="5.76462">
        <ele>394.28</ele>
        <time>2011-09-11T10:52:13Z</time>
      </trkpt>
      <trkpt lat="45.54406" lon="5.76491">
        <ele>394.28</ele>
        <time>2011-09-11T10:52:16Z</time>
      </trkpt>
      <trkpt lat="45.54446" lon="5.76638">
        <ele>393.8</ele>
        <time>2011-09-11T10:52:31Z</time>
      </trkpt>
      <trkpt lat="45.54502" lon="5.76761">
        <ele>394.28</ele>
        <time>2011-09-11T10:52:45Z</time>
      </trkpt>
      <trkpt lat="45.54565" lon="5.76854">
        <ele>394.76</ele>
        <time>2011-09-11T10:52:58Z</time>
      </trkpt>
      <trkpt lat="45.54643" lon="5.76968">
        <ele>397.64</ele>
        <time>2011-09-11T10:53:16Z</time>
      </trkpt>
      <trkpt lat="45.54708" lon="5.77059">
        <ele>398.6</ele>
        <time>2011-09-11T10:53:31Z</time>
      </trkpt>
      <trkpt lat="45.54791" lon="5.77156">
        <ele>399.08</ele>
        <time>2011-09-11T10:53:48Z</time>
      </trkpt>
      <trkpt lat="45.54796" lon="5.77162">
        <ele>399.57</ele>
        <time>2011-09-11T10:53:49Z</time>
      </trkpt>
      <trkpt lat="45.548" lon="5.77168">
        <ele>399.57</ele>
        <time>2011-09-11T10:53:50Z</time>
      </trkpt>
      <trkpt lat="45.54874" lon="5.77266">
        <ele>400.05</ele>
        <time>2011-09-11T10:54:06Z</time>
      </trkpt>
      <trkpt lat="45.54907" lon="5.77347">
        <ele>399.57</ele>
        <time>2011-09-11T10:54:16Z</time>
      </trkpt>
      <trkpt lat="45.54909" lon="5.77355">
        <ele>399.57</ele>
        <time>2011-09-11T10:54:17Z</time>
      </trkpt>
      <trkpt lat="45.54911" lon="5.77362">
        <ele>400.05</ele>
        <time>2011-09-11T10:54:18Z</time>
      </trkpt>
      <trkpt lat="45.54913" lon="5.77371">
        <ele>399.57</ele>
        <time>2011-09-11T10:54:19Z</time>
      </trkpt>
      <trkpt lat="45.54915" lon="5.77379">
        <ele>400.53</ele>
        <time>2011-09-11T10:54:20Z</time>
      </trkpt>
      <trkpt lat="45.54934" lon="5.77481">
        <ele>403.41</ele>
        <time>2011-09-11T10:54:33Z</time>
      </trkpt>
      <trkpt lat="45.54946" lon="5.7754">
        <ele>404.85</ele>
        <time>2011-09-11T10:54:41Z</time>
      </trkpt>
      <trkpt lat="45.54947" lon="5.77547">
        <ele>404.85</ele>
        <time>2011-09-11T10:54:42Z</time>
      </trkpt>
      <trkpt lat="45.54965" lon="5.77653">
        <ele>406.29</ele>
        <time>2011-09-11T10:54:56Z</time>
      </trkpt>
      <trkpt lat="45.54967" lon="5.77661">
        <ele>405.81</ele>
        <time>2011-09-11T10:54:57Z</time>
      </trkpt>
      <trkpt lat="45.54968" lon="5.77668">
        <ele>405.81</ele>
        <time>2011-09-11T10:54:58Z</time>
      </trkpt>
      <trkpt lat="45.54992" lon="5.77788">
        <ele>406.77</ele>
        <time>2011-09-11T10:55:14Z</time>
      </trkpt>
      <trkpt lat="45.55017" lon="5.77918">
        <ele>407.74</ele>
        <time>2011-09-11T10:55:31Z</time>
      </trkpt>
      <trkpt lat="45.5503" lon="5.77986">
        <ele>408.22</ele>
        <time>2011-09-11T10:55:40Z</time>
      </trkpt>
      <trkpt lat="45.55032" lon="5.77993">
        <ele>408.7</ele>
        <time>2011-09-11T10:55:41Z</time>
      </trkpt>
      <trkpt lat="45.55036" lon="5.77999">
        <ele>408.7</ele>
        <time>2011-09-11T10:55:42Z</time>
      </trkpt>
      <trkpt lat="45.5504" lon="5.78005">
        <ele>408.7</ele>
        <time>2011-09-11T10:55:43Z</time>
      </trkpt>
      <trkpt lat="45.55044" lon="5.7801">
        <ele>408.7</ele>
        <time>2011-09-11T10:55:44Z</time>
      </trkpt>
      <trkpt lat="45.55049" lon="5.78015">
        <ele>408.7</ele>
        <time>2011-09-11T10:55:45Z</time>
      </trkpt>
      <trkpt lat="45.55104" lon="5.78074">
        <ele>409.18</ele>
        <time>2011-09-11T10:55:57Z</time>
      </trkpt>
      <trkpt lat="45.55188" lon="5.78134">
        <ele>407.74</ele>
        <time>2011-09-11T10:56:12Z</time>
      </trkpt>
      <trkpt lat="45.55279" lon="5.78196">
        <ele>406.29</ele>
        <time>2011-09-11T10:56:25Z</time>
      </trkpt>
      <trkpt lat="45.55322" lon="5.78226">
        <ele>406.29</ele>
        <time>2011-09-11T10:56:31Z</time>
      </trkpt>
      <trkpt lat="45.55329" lon="5.78232">
        <ele>406.29</ele>
        <time>2011-09-11T10:56:32Z</time>
      </trkpt>
      <trkpt lat="45.55335" lon="5.7824">
        <ele>406.29</ele>
        <time>2011-09-11T10:56:33Z</time>
      </trkpt>
      <trkpt lat="45.5534" lon="5.78249">
        <ele>406.77</ele>
        <time>2011-09-11T10:56:34Z</time>
      </trkpt>
      <trkpt lat="45.55344" lon="5.78257">
        <ele>406.29</ele>
        <time>2011-09-11T10:56:35Z</time>
      </trkpt>
      <trkpt lat="45.55349" lon="5.78267">
        <ele>405.81</ele>
        <time>2011-09-11T10:56:36Z</time>
      </trkpt>
      <trkpt lat="45.55358" lon="5.78296">
        <ele>406.29</ele>
        <time>2011-09-11T10:56:39Z</time>
      </trkpt>
      <trkpt lat="45.55397" lon="5.78421">
        <ele>405.81</ele>
        <time>2011-09-11T10:56:52Z</time>
      </trkpt>
      <trkpt lat="45.55441" lon="5.7855">
        <ele>406.29</ele>
        <time>2011-09-11T10:57:06Z</time>
      </trkpt>
      <trkpt lat="45.55446" lon="5.78556">
        <ele>406.29</ele>
        <time>2011-09-11T10:57:07Z</time>
      </trkpt>
      <trkpt lat="45.55452" lon="5.78563">
        <ele>406.77</ele>
        <time>2011-09-11T10:57:08Z</time>
      </trkpt>
      <trkpt lat="45.55459" lon="5.78567">
        <ele>406.29</ele>
        <time>2011-09-11T10:57:09Z</time>
      </trkpt>
      <trkpt lat="45.55465" lon="5.78569">
        <ele>406.29</ele>
        <time>2011-09-11T10:57:10Z</time>
      </trkpt>
      <trkpt lat="45.55473" lon="5.78572">
        <ele>406.29</ele>
        <time>2011-09-11T10:57:11Z</time>
      </trkpt>
      <trkpt lat="45.5548" lon="5.78574">
        <ele>405.81</ele>
        <time>2011-09-11T10:57:12Z</time>
      </trkpt>
      <trkpt lat="45.55523" lon="5.78589">
        <ele>404.85</ele>
        <time>2011-09-11T10:57:18Z</time>
      </trkpt>
      <trkpt lat="45.55531" lon="5.78594">
        <ele>404.85</ele>
        <time>2011-09-11T10:57:19Z</time>
      </trkpt>
      <trkpt lat="45.55537" lon="5.78599">
        <ele>404.85</ele>
        <time>2011-09-11T10:57:20Z</time>
      </trkpt>
      <trkpt lat="45.55542" lon="5.78606">
        <ele>404.85</ele>
        <time>2011-09-11T10:57:21Z</time>
      </trkpt>
      <trkpt lat="45.55548" lon="5.78613">
        <ele>404.37</ele>
        <time>2011-09-11T10:57:22Z</time>
      </trkpt>
      <trkpt lat="45.55605" lon="5.78713">
        <ele>403.41</ele>
        <time>2011-09-11T10:57:34Z</time>
      </trkpt>
      <trkpt lat="45.5566" lon="5.78787">
        <ele>403.41</ele>
        <time>2011-09-11T10:57:45Z</time>
      </trkpt>
      <trkpt lat="45.55664" lon="5.78795">
        <ele>403.41</ele>
        <time>2011-09-11T10:57:46Z</time>
      </trkpt>
      <trkpt lat="45.55665" lon="5.78804">
        <ele>403.41</ele>
        <time>2011-09-11T10:57:47Z</time>
      </trkpt>
      <trkpt lat="45.55664" lon="5.78812">
        <ele>403.41</ele>
        <time>2011-09-11T10:57:48Z</time>
      </trkpt>
      <trkpt lat="45.55661" lon="5.78819">
        <ele>403.41</ele>
        <time>2011-09-11T10:57:49Z</time>
      </trkpt>
      <trkpt lat="45.55656" lon="5.78826">
        <ele>403.89</ele>
        <time>2011-09-11T10:57:50Z</time>
      </trkpt>
      <trkpt lat="45.55652" lon="5.78833">
        <ele>403.41</ele>
        <time>2011-09-11T10:57:51Z</time>
      </trkpt>
      <trkpt lat="45.55647" lon="5.78838">
        <ele>403.89</ele>
        <time>2011-09-11T10:57:52Z</time>
      </trkpt>
      <trkpt lat="45.55609" lon="5.78897">
        <ele>404.85</ele>
        <time>2011-09-11T10:58:04Z</time>
      </trkpt>
      <trkpt lat="45.55573" lon="5.78952">
        <ele>405.81</ele>
        <time>2011-09-11T10:58:18Z</time>
      </trkpt>
      <trkpt lat="45.55551" lon="5.78993">
        <ele>408.7</ele>
        <time>2011-09-11T10:58:31Z</time>
      </trkpt>
      <trkpt lat="45.55542" lon="5.7905">
        <ele>408.7</ele>
        <time>2011-09-11T10:58:44Z</time>
      </trkpt>
      <trkpt lat="45.55539" lon="5.79051">
        <ele>409.18</ele>
        <time>2011-09-11T10:58:45Z</time>
      </trkpt>
      <trkpt lat="45.55537" lon="5.79051">
        <ele>408.7</ele>
        <time>2011-09-11T10:58:46Z</time>
      </trkpt>
      <trkpt lat="45.55534" lon="5.79052">
        <ele>408.7</ele>
        <time>2011-09-11T10:58:47Z</time>
      </trkpt>
      <trkpt lat="45.55533" lon="5.79055">
        <ele>409.18</ele>
        <time>2011-09-11T10:58:48Z</time>
      </trkpt>
      <trkpt lat="45.55532" lon="5.79058">
        <ele>409.18</ele>
        <time>2011-09-11T10:58:49Z</time>
      </trkpt>
      <trkpt lat="45.5553" lon="5.79064">
        <ele>408.7</ele>
        <time>2011-09-11T10:58:51Z</time>
      </trkpt>
      <trkpt lat="45.5553" lon="5.79066">
        <ele>408.7</ele>
        <time>2011-09-11T10:58:52Z</time>
      </trkpt>
      <trkpt lat="45.55529" lon="5.79069">
        <ele>408.7</ele>
        <time>2011-09-11T10:58:53Z</time>
      </trkpt>
      <trkpt lat="45.55527" lon="5.79071">
        <ele>409.18</ele>
        <time>2011-09-11T10:58:54Z</time>
      </trkpt>
      <trkpt lat="45.55526" lon="5.79073">
        <ele>408.7</ele>
        <time>2011-09-11T10:58:55Z</time>
      </trkpt>
      <trkpt lat="45.55518" lon="5.79076">
        <ele>408.22</ele>
        <time>2011-09-11T10:59:08Z</time>
      </trkpt>
    </trkseg>
  </trk>
</gpx>